<?xml version="1.0" encoding="UTF-8" standalone="no" ?>
<gpx xmlns="http://www.topografix.com/GPX/1/1" xmlns:xsi="http://www.w3.org/2001/XMLSchema-instance" xsi:schemaLocation="http://www.topografix.com/GPX/1/1 http://www.topografix.com/GPX/1/1/gpx.xsd" version="1.1" creator="VisuGPX - https://www.visugpx.com">
  <metadata>
    <name>Vue sur l'anse du Poul ? Menhir de Kermaillard Circuit à partir de Labert</name>
  </metadata>
  <trk>
    <name><![CDATA[GPX Download: Vue sur l'anse du Poul – Menhir de Kermaillard Circuit à partir de Labert]]></name>
    <trkseg>
      <trkpt lat="47.54645" lon="-2.91159">
        <ele>17.792217</ele>
        <time>2021-06-04T11:59:11.201Z</time>
      </trkpt>
      <trkpt lat="47.54648" lon="-2.91154">
        <ele>17.792217</ele>
        <time>2021-06-04T11:59:12.430Z</time>
      </trkpt>
      <trkpt lat="47.54642" lon="-2.91128">
        <ele>17.792217</ele>
        <time>2021-06-04T11:59:15.792Z</time>
      </trkpt>
      <trkpt lat="47.54634" lon="-2.91102">
        <ele>17.792217</ele>
        <time>2021-06-04T11:59:19.329Z</time>
      </trkpt>
      <trkpt lat="47.5463" lon="-2.91093">
        <ele>17.792217</ele>
        <time>2021-06-04T11:59:20.663Z</time>
      </trkpt>
      <trkpt lat="47.54624" lon="-2.91083">
        <ele>17.792217</ele>
        <time>2021-06-04T11:59:22.200Z</time>
      </trkpt>
      <trkpt lat="47.5462" lon="-2.91083">
        <ele>17.792217</ele>
        <time>2021-06-04T11:59:23.049Z</time>
      </trkpt>
      <trkpt lat="47.54617" lon="-2.91083">
        <ele>17.792217</ele>
        <time>2021-06-04T11:59:23.492Z</time>
      </trkpt>
      <trkpt lat="47.54611" lon="-2.91078">
        <ele>17.792217</ele>
        <time>2021-06-04T11:59:24.773Z</time>
      </trkpt>
      <trkpt lat="47.5461" lon="-2.91075">
        <ele>17.792217</ele>
        <time>2021-06-04T11:59:25.187Z</time>
      </trkpt>
      <trkpt lat="47.54609" lon="-2.91071">
        <ele>17.792217</ele>
        <time>2021-06-04T11:59:25.645Z</time>
      </trkpt>
      <trkpt lat="47.54613" lon="-2.91061">
        <ele>17.792217</ele>
        <time>2021-06-04T11:59:27.092Z</time>
      </trkpt>
      <trkpt lat="47.54615" lon="-2.91059">
        <ele>17.792217</ele>
        <time>2021-06-04T11:59:27.564Z</time>
      </trkpt>
      <trkpt lat="47.54614" lon="-2.91054">
        <ele>17.749554</ele>
        <time>2021-06-04T11:59:28.206Z</time>
      </trkpt>
      <trkpt lat="47.54614" lon="-2.91045">
        <ele>17.615762</ele>
        <time>2021-06-04T11:59:29.350Z</time>
      </trkpt>
      <trkpt lat="47.54612" lon="-2.91035">
        <ele>17.48343</ele>
        <time>2021-06-04T11:59:30.541Z</time>
      </trkpt>
      <trkpt lat="47.54609" lon="-2.91018">
        <ele>17.240571</ele>
        <time>2021-06-04T11:59:32.602Z</time>
      </trkpt>
      <trkpt lat="47.54604" lon="-2.90999">
        <ele>16.959092</ele>
        <time>2021-06-04T11:59:35.044Z</time>
      </trkpt>
      <trkpt lat="47.54594" lon="-2.90962">
        <ele>16.40506</ele>
        <time>2021-06-04T11:59:39.811Z</time>
      </trkpt>
      <trkpt lat="47.54592" lon="-2.90957">
        <ele>16.331164</ele>
        <time>2021-06-04T11:59:40.433Z</time>
      </trkpt>
      <trkpt lat="47.54584" lon="-2.90925">
        <ele>15.846943</ele>
        <time>2021-06-04T11:59:44.586Z</time>
      </trkpt>
      <trkpt lat="47.54582" lon="-2.90918">
        <ele>15.74828</ele>
        <time>2021-06-04T11:59:45.443Z</time>
      </trkpt>
      <trkpt lat="47.54578" lon="-2.909">
        <ele>15.483012</ele>
        <time>2021-06-04T11:59:47.688Z</time>
      </trkpt>
      <trkpt lat="47.54573" lon="-2.90877">
        <ele>15.154367</ele>
        <time>2021-06-04T11:59:50.505Z</time>
      </trkpt>
      <trkpt lat="47.54572" lon="-2.90873">
        <ele>15.090678</ele>
        <time>2021-06-04T11:59:51.002Z</time>
      </trkpt>
      <trkpt lat="47.54568" lon="-2.90844">
        <ele>14.686575</ele>
        <time>2021-06-04T11:59:54.364Z</time>
      </trkpt>
      <trkpt lat="47.54568" lon="-2.90841">
        <ele>14.646112</ele>
        <time>2021-06-04T11:59:54.711Z</time>
      </trkpt>
      <trkpt lat="47.54565" lon="-2.90822">
        <ele>14.3765</ele>
        <time>2021-06-04T11:59:57.021Z</time>
      </trkpt>
      <trkpt lat="47.54565" lon="-2.90789">
        <ele>13.986038</ele>
        <time>2021-06-04T12:00:00.885Z</time>
      </trkpt>
      <trkpt lat="47.54566" lon="-2.9074">
        <ele>13.518725</ele>
        <time>2021-06-04T12:00:06.907Z</time>
      </trkpt>
      <trkpt lat="47.54567" lon="-2.90709">
        <ele>13.226452</ele>
        <time>2021-06-04T12:00:10.758Z</time>
      </trkpt>
      <trkpt lat="47.54567" lon="-2.90694">
        <ele>13.085855</ele>
        <time>2021-06-04T12:00:12.635Z</time>
      </trkpt>
      <trkpt lat="47.54565" lon="-2.90693">
        <ele>13.059365</ele>
        <time>2021-06-04T12:00:12.999Z</time>
      </trkpt>
      <trkpt lat="47.54562" lon="-2.90686">
        <ele>12.981376</ele>
        <time>2021-06-04T12:00:14.030Z</time>
      </trkpt>
      <trkpt lat="47.54562" lon="-2.90683">
        <ele>12.954789</ele>
        <time>2021-06-04T12:00:14.399Z</time>
      </trkpt>
      <trkpt lat="47.54563" lon="-2.9068">
        <ele>12.922386</ele>
        <time>2021-06-04T12:00:14.823Z</time>
      </trkpt>
      <trkpt lat="47.54569" lon="-2.90675">
        <ele>12.829414</ele>
        <time>2021-06-04T12:00:16.121Z</time>
      </trkpt>
      <trkpt lat="47.54571" lon="-2.90675">
        <ele>12.796837</ele>
        <time>2021-06-04T12:00:16.523Z</time>
      </trkpt>
      <trkpt lat="47.54573" lon="-2.90677">
        <ele>12.766986</ele>
        <time>2021-06-04T12:00:16.905Z</time>
      </trkpt>
      <trkpt lat="47.54575" lon="-2.90682">
        <ele>12.707136</ele>
        <time>2021-06-04T12:00:17.720Z</time>
      </trkpt>
      <trkpt lat="47.54576" lon="-2.90685">
        <ele>12.676459</ele>
        <time>2021-06-04T12:00:18.132Z</time>
      </trkpt>
      <trkpt lat="47.54584" lon="-2.90687">
        <ele>12.551955</ele>
        <time>2021-06-04T12:00:19.912Z</time>
      </trkpt>
      <trkpt lat="47.54584" lon="-2.9068">
        <ele>12.491038</ele>
        <time>2021-06-04T12:00:20.751Z</time>
      </trkpt>
      <trkpt lat="47.54589" lon="-2.90637">
        <ele>12.077168</ele>
        <time>2021-06-04T12:00:26.641Z</time>
      </trkpt>
      <trkpt lat="47.54594" lon="-2.90616">
        <ele>11.862021</ele>
        <time>2021-06-04T12:00:29.760Z</time>
      </trkpt>
      <trkpt lat="47.54596" lon="-2.90603">
        <ele>11.734683</ele>
        <time>2021-06-04T12:00:31.568Z</time>
      </trkpt>
      <trkpt lat="47.54604" lon="-2.90581">
        <ele>11.50691</ele>
        <time>2021-06-04T12:00:34.917Z</time>
      </trkpt>
      <trkpt lat="47.54608" lon="-2.90564">
        <ele>11.351526</ele>
        <time>2021-06-04T12:00:37.334Z</time>
      </trkpt>
      <trkpt lat="47.54608" lon="-2.90548">
        <ele>11.21923</ele>
        <time>2021-06-04T12:00:39.378Z</time>
      </trkpt>
      <trkpt lat="47.54635" lon="-2.90424">
        <ele>10.082048</ele>
        <time>2021-06-04T12:00:56.682Z</time>
      </trkpt>
      <trkpt lat="47.54648" lon="-2.90386">
        <ele>9.711152</ele>
        <time>2021-06-04T12:01:02.366Z</time>
      </trkpt>
      <trkpt lat="47.54659" lon="-2.9037">
        <ele>9.513061</ele>
        <time>2021-06-04T12:01:05.334Z</time>
      </trkpt>
      <trkpt lat="47.54672" lon="-2.9035">
        <ele>9.27371</ele>
        <time>2021-06-04T12:01:08.932Z</time>
      </trkpt>
      <trkpt lat="47.54673" lon="-2.90343">
        <ele>9.209199</ele>
        <time>2021-06-04T12:01:09.866Z</time>
      </trkpt>
      <trkpt lat="47.54672" lon="-2.90337">
        <ele>9.152492</ele>
        <time>2021-06-04T12:01:10.678Z</time>
      </trkpt>
      <trkpt lat="47.54666" lon="-2.90322">
        <ele>8.986474</ele>
        <time>2021-06-04T12:01:12.951Z</time>
      </trkpt>
      <trkpt lat="47.54665" lon="-2.90305">
        <ele>8.82282</ele>
        <time>2021-06-04T12:01:15.349Z</time>
      </trkpt>
      <trkpt lat="47.54684" lon="-2.9017">
        <ele>7.543717</ele>
        <time>2021-06-04T12:01:33.347Z</time>
      </trkpt>
      <trkpt lat="47.54685" lon="-2.90157">
        <ele>7.426689</ele>
        <time>2021-06-04T12:01:34.958Z</time>
      </trkpt>
      <trkpt lat="47.54686" lon="-2.90126">
        <ele>7.132228</ele>
        <time>2021-06-04T12:01:39.171Z</time>
      </trkpt>
      <trkpt lat="47.54687" lon="-2.901">
        <ele>6.891097</ele>
        <time>2021-06-04T12:01:42.579Z</time>
      </trkpt>
      <trkpt lat="47.54687" lon="-2.90081">
        <ele>6.754336</ele>
        <time>2021-06-04T12:01:45.011Z</time>
      </trkpt>
      <trkpt lat="47.54687" lon="-2.90069">
        <ele>6.691578</ele>
        <time>2021-06-04T12:01:46.740Z</time>
      </trkpt>
      <trkpt lat="47.54686" lon="-2.90057">
        <ele>6.626659</ele>
        <time>2021-06-04T12:01:48.442Z</time>
      </trkpt>
      <trkpt lat="47.54686" lon="-2.90045">
        <ele>6.566998</ele>
        <time>2021-06-04T12:01:49.960Z</time>
      </trkpt>
      <trkpt lat="47.54683" lon="-2.90004">
        <ele>6.348895</ele>
        <time>2021-06-04T12:01:55.677Z</time>
      </trkpt>
      <trkpt lat="47.54689" lon="-2.89989">
        <ele>6.258948</ele>
        <time>2021-06-04T12:01:58.017Z</time>
      </trkpt>
      <trkpt lat="47.54688" lon="-2.89983">
        <ele>6.228503</ele>
        <time>2021-06-04T12:01:58.759Z</time>
      </trkpt>
      <trkpt lat="47.54686" lon="-2.89979">
        <ele>6.200746</ele>
        <time>2021-06-04T12:01:59.434Z</time>
      </trkpt>
      <trkpt lat="47.54681" lon="-2.89969">
        <ele>6.133199</ele>
        <time>2021-06-04T12:02:01.305Z</time>
      </trkpt>
      <trkpt lat="47.54677" lon="-2.89912">
        <ele>5.832994</ele>
        <time>2021-06-04T12:02:09.207Z</time>
      </trkpt>
      <trkpt lat="47.5467" lon="-2.89805">
        <ele>5.440897</ele>
        <time>2021-06-04T12:02:25.277Z</time>
      </trkpt>
      <trkpt lat="47.54669" lon="-2.89788">
        <ele>5.465945</ele>
        <time>2021-06-04T12:02:28.106Z</time>
      </trkpt>
      <trkpt lat="47.54668" lon="-2.89772">
        <ele>5.490127</ele>
        <time>2021-06-04T12:02:30.518Z</time>
      </trkpt>
      <trkpt lat="47.54666" lon="-2.89744">
        <ele>5.529699</ele>
        <time>2021-06-04T12:02:34.944Z</time>
      </trkpt>
      <trkpt lat="47.54663" lon="-2.89703">
        <ele>5.589652</ele>
        <time>2021-06-04T12:02:41.396Z</time>
      </trkpt>
      <trkpt lat="47.54661" lon="-2.89664">
        <ele>5.646697</ele>
        <time>2021-06-04T12:02:48.011Z</time>
      </trkpt>
      <trkpt lat="47.54661" lon="-2.89651">
        <ele>5.666129</ele>
        <time>2021-06-04T12:02:50.071Z</time>
      </trkpt>
      <trkpt lat="47.54662" lon="-2.89648">
        <ele>5.669779</ele>
        <time>2021-06-04T12:02:50.656Z</time>
      </trkpt>
      <trkpt lat="47.54662" lon="-2.89639">
        <ele>5.683802</ele>
        <time>2021-06-04T12:02:52.362Z</time>
      </trkpt>
      <trkpt lat="47.54665" lon="-2.89627">
        <ele>5.701748</ele>
        <time>2021-06-04T12:02:54.424Z</time>
      </trkpt>
      <trkpt lat="47.54662" lon="-2.8962">
        <ele>5.712489</ele>
        <time>2021-06-04T12:02:55.706Z</time>
      </trkpt>
      <trkpt lat="47.54654" lon="-2.89629">
        <ele>5.735188</ele>
        <time>2021-06-04T12:02:58.256Z</time>
      </trkpt>
      <trkpt lat="47.54651" lon="-2.89632">
        <ele>5.742136</ele>
        <time>2021-06-04T12:02:58.995Z</time>
      </trkpt>
      <trkpt lat="47.54648" lon="-2.89635">
        <ele>5.75027</ele>
        <time>2021-06-04T12:03:00.093Z</time>
      </trkpt>
      <trkpt lat="47.54647" lon="-2.89624">
        <ele>5.765278</ele>
        <time>2021-06-04T12:03:01.952Z</time>
      </trkpt>
      <trkpt lat="47.5465" lon="-2.89621">
        <ele>5.773909</ele>
        <time>2021-06-04T12:03:02.917Z</time>
      </trkpt>
      <trkpt lat="47.54653" lon="-2.89618">
        <ele>5.781246</ele>
        <time>2021-06-04T12:03:03.753Z</time>
      </trkpt>
      <trkpt lat="47.54658" lon="-2.89613">
        <ele>5.801245</ele>
        <time>2021-06-04T12:03:05.196Z</time>
      </trkpt>
      <trkpt lat="47.54679" lon="-2.89603">
        <ele>6.005782</ele>
        <time>2021-06-04T12:03:10.964Z</time>
      </trkpt>
      <trkpt lat="47.54684" lon="-2.89599">
        <ele>6.05731</ele>
        <time>2021-06-04T12:03:12.354Z</time>
      </trkpt>
      <trkpt lat="47.5469" lon="-2.89594">
        <ele>6.121791</ele>
        <time>2021-06-04T12:03:14.167Z</time>
      </trkpt>
      <trkpt lat="47.54713" lon="-2.89578">
        <ele>6.362625</ele>
        <time>2021-06-04T12:03:21.008Z</time>
      </trkpt>
      <trkpt lat="47.54721" lon="-2.89571">
        <ele>6.447045</ele>
        <time>2021-06-04T12:03:23.406Z</time>
      </trkpt>
      <trkpt lat="47.54735" lon="-2.89559">
        <ele>6.594128</ele>
        <time>2021-06-04T12:03:27.653Z</time>
      </trkpt>
      <trkpt lat="47.54759" lon="-2.8954">
        <ele>6.839432</ele>
        <time>2021-06-04T12:03:34.698Z</time>
      </trkpt>
      <trkpt lat="47.54762" lon="-2.89537">
        <ele>6.880534</ele>
        <time>2021-06-04T12:03:35.888Z</time>
      </trkpt>
      <trkpt lat="47.5477" lon="-2.89531">
        <ele>6.960021</ele>
        <time>2021-06-04T12:03:38.150Z</time>
      </trkpt>
      <trkpt lat="47.54772" lon="-2.89529">
        <ele>6.984299</ele>
        <time>2021-06-04T12:03:38.887Z</time>
      </trkpt>
      <trkpt lat="47.54791" lon="-2.8951">
        <ele>7.192591</ele>
        <time>2021-06-04T12:03:45.036Z</time>
      </trkpt>
      <trkpt lat="47.54831" lon="-2.89468">
        <ele>7.806048</ele>
        <time>2021-06-04T12:03:59.025Z</time>
      </trkpt>
      <trkpt lat="47.54839" lon="-2.8946">
        <ele>7.962758</ele>
        <time>2021-06-04T12:04:01.739Z</time>
      </trkpt>
      <trkpt lat="47.54869" lon="-2.89434">
        <ele>8.54545</ele>
        <time>2021-06-04T12:04:12.392Z</time>
      </trkpt>
      <trkpt lat="47.54882" lon="-2.89422">
        <ele>8.80743</ele>
        <time>2021-06-04T12:04:17.152Z</time>
      </trkpt>
      <trkpt lat="47.54895" lon="-2.8941">
        <ele>9.067979</ele>
        <time>2021-06-04T12:04:22.074Z</time>
      </trkpt>
      <trkpt lat="47.54907" lon="-2.894">
        <ele>9.285616</ele>
        <time>2021-06-04T12:04:25.996Z</time>
      </trkpt>
      <trkpt lat="47.5492" lon="-2.89388">
        <ele>9.540966</ele>
        <time>2021-06-04T12:04:30.474Z</time>
      </trkpt>
      <trkpt lat="47.54935" lon="-2.89375">
        <ele>9.832607</ele>
        <time>2021-06-04T12:04:35.811Z</time>
      </trkpt>
      <trkpt lat="47.5495" lon="-2.89359">
        <ele>10.141161</ele>
        <time>2021-06-04T12:04:41.235Z</time>
      </trkpt>
      <trkpt lat="47.54971" lon="-2.89352">
        <ele>10.504412</ele>
        <time>2021-06-04T12:04:47.885Z</time>
      </trkpt>
      <trkpt lat="47.54984" lon="-2.89347">
        <ele>10.71442</ele>
        <time>2021-06-04T12:04:51.667Z</time>
      </trkpt>
      <trkpt lat="47.54987" lon="-2.89346">
        <ele>10.763312</ele>
        <time>2021-06-04T12:04:52.828Z</time>
      </trkpt>
      <trkpt lat="47.54992" lon="-2.89347">
        <ele>10.839174</ele>
        <time>2021-06-04T12:04:54.295Z</time>
      </trkpt>
      <trkpt lat="47.55001" lon="-2.89328">
        <ele>11.080574</ele>
        <time>2021-06-04T12:04:58.963Z</time>
      </trkpt>
      <trkpt lat="47.55005" lon="-2.8931">
        <ele>11.274298</ele>
        <time>2021-06-04T12:05:02.645Z</time>
      </trkpt>
      <trkpt lat="47.55011" lon="-2.89281">
        <ele>11.593225</ele>
        <time>2021-06-04T12:05:09.108Z</time>
      </trkpt>
      <trkpt lat="47.5501" lon="-2.8927">
        <ele>11.710151</ele>
        <time>2021-06-04T12:05:11.315Z</time>
      </trkpt>
      <trkpt lat="47.55009" lon="-2.8926">
        <ele>11.81451</ele>
        <time>2021-06-04T12:05:13.289Z</time>
      </trkpt>
      <trkpt lat="47.55007" lon="-2.89246">
        <ele>11.957844</ele>
        <time>2021-06-04T12:05:16.322Z</time>
      </trkpt>
      <trkpt lat="47.55006" lon="-2.89226">
        <ele>12.169798</ele>
        <time>2021-06-04T12:05:20.296Z</time>
      </trkpt>
      <trkpt lat="47.55008" lon="-2.89212">
        <ele>12.320427</ele>
        <time>2021-06-04T12:05:23.067Z</time>
      </trkpt>
      <trkpt lat="47.55009" lon="-2.89208">
        <ele>12.358052</ele>
        <time>2021-06-04T12:05:23.794Z</time>
      </trkpt>
      <trkpt lat="47.55012" lon="-2.89204">
        <ele>12.416567</ele>
        <time>2021-06-04T12:05:25.113Z</time>
      </trkpt>
      <trkpt lat="47.55014" lon="-2.89203">
        <ele>12.453226</ele>
        <time>2021-06-04T12:05:25.891Z</time>
      </trkpt>
      <trkpt lat="47.55013" lon="-2.8919">
        <ele>12.594487</ele>
        <time>2021-06-04T12:05:28.546Z</time>
      </trkpt>
      <trkpt lat="47.55008" lon="-2.89122">
        <ele>13.243758</ele>
        <time>2021-06-04T12:05:41.613Z</time>
      </trkpt>
      <trkpt lat="47.55008" lon="-2.89109">
        <ele>13.271045</ele>
        <time>2021-06-04T12:05:43.862Z</time>
      </trkpt>
      <trkpt lat="47.55008" lon="-2.89099">
        <ele>13.291017</ele>
        <time>2021-06-04T12:05:45.635Z</time>
      </trkpt>
      <trkpt lat="47.5501" lon="-2.8907">
        <ele>13.348088</ele>
        <time>2021-06-04T12:05:50.718Z</time>
      </trkpt>
      <trkpt lat="47.5501" lon="-2.89058">
        <ele>13.372297</ele>
        <time>2021-06-04T12:05:52.620Z</time>
      </trkpt>
      <trkpt lat="47.55015" lon="-2.88967">
        <ele>13.551566</ele>
        <time>2021-06-04T12:06:07.503Z</time>
      </trkpt>
      <trkpt lat="47.55022" lon="-2.88942">
        <ele>13.605011</ele>
        <time>2021-06-04T12:06:11.574Z</time>
      </trkpt>
      <trkpt lat="47.55025" lon="-2.88935">
        <ele>13.622904</ele>
        <time>2021-06-04T12:06:13.254Z</time>
      </trkpt>
      <trkpt lat="47.55027" lon="-2.88928">
        <ele>13.636861</ele>
        <time>2021-06-04T12:06:14.318Z</time>
      </trkpt>
      <trkpt lat="47.55028" lon="-2.88921">
        <ele>13.65054</ele>
        <time>2021-06-04T12:06:15.348Z</time>
      </trkpt>
      <trkpt lat="47.5503" lon="-2.88909">
        <ele>13.674618</ele>
        <time>2021-06-04T12:06:17.211Z</time>
      </trkpt>
      <trkpt lat="47.55027" lon="-2.88899">
        <ele>13.696376</ele>
        <time>2021-06-04T12:06:18.679Z</time>
      </trkpt>
      <trkpt lat="47.55016" lon="-2.88849">
        <ele>13.671264</ele>
        <time>2021-06-04T12:06:26.606Z</time>
      </trkpt>
      <trkpt lat="47.54996" lon="-2.88751">
        <ele>13.267206</ele>
        <time>2021-06-04T12:06:40.950Z</time>
      </trkpt>
      <trkpt lat="47.54992" lon="-2.88728">
        <ele>13.169057</ele>
        <time>2021-06-04T12:06:44.271Z</time>
      </trkpt>
      <trkpt lat="47.54982" lon="-2.88684">
        <ele>12.989762</ele>
        <time>2021-06-04T12:06:50.035Z</time>
      </trkpt>
      <trkpt lat="47.54968" lon="-2.88614">
        <ele>12.700836</ele>
        <time>2021-06-04T12:06:59.898Z</time>
      </trkpt>
      <trkpt lat="47.54965" lon="-2.88602">
        <ele>12.67106</ele>
        <time>2021-06-04T12:07:01.778Z</time>
      </trkpt>
      <trkpt lat="47.54963" lon="-2.88595">
        <ele>12.656276</ele>
        <time>2021-06-04T12:07:02.702Z</time>
      </trkpt>
      <trkpt lat="47.54963" lon="-2.88592">
        <ele>12.649301</ele>
        <time>2021-06-04T12:07:03.046Z</time>
      </trkpt>
      <trkpt lat="47.54953" lon="-2.88549">
        <ele>12.54831</ele>
        <time>2021-06-04T12:07:09.531Z</time>
      </trkpt>
      <trkpt lat="47.54937" lon="-2.88474">
        <ele>12.376913</ele>
        <time>2021-06-04T12:07:20.419Z</time>
      </trkpt>
      <trkpt lat="47.54896" lon="-2.8828">
        <ele>12.346656</ele>
        <time>2021-06-04T12:07:54.260Z</time>
      </trkpt>
      <trkpt lat="47.54864" lon="-2.88121">
        <ele>12.789765</ele>
        <time>2021-06-04T12:08:24.681Z</time>
      </trkpt>
      <trkpt lat="47.54843" lon="-2.88019">
        <ele>13.180876</ele>
        <time>2021-06-04T12:08:44.496Z</time>
      </trkpt>
      <trkpt lat="47.54822" lon="-2.87927">
        <ele>13.557461</ele>
        <time>2021-06-04T12:09:02.276Z</time>
      </trkpt>
      <trkpt lat="47.54807" lon="-2.87883">
        <ele>13.746976</ele>
        <time>2021-06-04T12:09:11.153Z</time>
      </trkpt>
      <trkpt lat="47.54779" lon="-2.8782">
        <ele>13.992738</ele>
        <time>2021-06-04T12:09:24.792Z</time>
      </trkpt>
      <trkpt lat="47.54751" lon="-2.87778">
        <ele>14.160248</ele>
        <time>2021-06-04T12:09:35.269Z</time>
      </trkpt>
      <trkpt lat="47.5474" lon="-2.87764">
        <ele>14.220548</ele>
        <time>2021-06-04T12:09:39.079Z</time>
      </trkpt>
      <trkpt lat="47.54726" lon="-2.87751">
        <ele>14.291298</ele>
        <time>2021-06-04T12:09:43.193Z</time>
      </trkpt>
      <trkpt lat="47.54701" lon="-2.87727">
        <ele>14.416754</ele>
        <time>2021-06-04T12:09:50.369Z</time>
      </trkpt>
      <trkpt lat="47.54659" lon="-2.87697">
        <ele>14.61085</ele>
        <time>2021-06-04T12:10:01.351Z</time>
      </trkpt>
      <trkpt lat="47.54605" lon="-2.8768">
        <ele>14.71232</ele>
        <time>2021-06-04T12:10:14.226Z</time>
      </trkpt>
      <trkpt lat="47.54586" lon="-2.87673">
        <ele>14.747269</ele>
        <time>2021-06-04T12:10:18.893Z</time>
      </trkpt>
      <trkpt lat="47.54506" lon="-2.87645">
        <ele>14.894819</ele>
        <time>2021-06-04T12:10:49.969Z</time>
      </trkpt>
      <trkpt lat="47.54454" lon="-2.87625">
        <ele>14.964301</ele>
        <time>2021-06-04T12:11:09.446Z</time>
      </trkpt>
      <trkpt lat="47.54404" lon="-2.87584">
        <ele>15.017736</ele>
        <time>2021-06-04T12:11:30.468Z</time>
      </trkpt>
      <trkpt lat="47.54372" lon="-2.87553">
        <ele>15.053835</ele>
        <time>2021-06-04T12:11:44.895Z</time>
      </trkpt>
      <trkpt lat="47.5436" lon="-2.87535">
        <ele>15.069444</ele>
        <time>2021-06-04T12:11:51.090Z</time>
      </trkpt>
      <trkpt lat="47.54325" lon="-2.87472">
        <ele>15.165323</ele>
        <time>2021-06-04T12:12:12.381Z</time>
      </trkpt>
      <trkpt lat="47.54296" lon="-2.8739">
        <ele>15.382664</ele>
        <time>2021-06-04T12:12:37.177Z</time>
      </trkpt>
      <trkpt lat="47.54286" lon="-2.87342">
        <ele>15.501973</ele>
        <time>2021-06-04T12:12:50.587Z</time>
      </trkpt>
      <trkpt lat="47.54281" lon="-2.87198">
        <ele>15.588202</ele>
        <time>2021-06-04T12:13:27.377Z</time>
      </trkpt>
      <trkpt lat="47.54281" lon="-2.87195">
        <ele>15.578759</ele>
        <time>2021-06-04T12:13:28.590Z</time>
      </trkpt>
      <trkpt lat="47.54281" lon="-2.87165">
        <ele>15.489289</ele>
        <time>2021-06-04T12:13:34.050Z</time>
      </trkpt>
      <trkpt lat="47.5428" lon="-2.87146">
        <ele>15.430754</ele>
        <time>2021-06-04T12:13:38.650Z</time>
      </trkpt>
      <trkpt lat="47.5428" lon="-2.86999">
        <ele>14.986179</ele>
        <time>2021-06-04T12:14:13.217Z</time>
      </trkpt>
      <trkpt lat="47.54279" lon="-2.8682">
        <ele>14.129155</ele>
        <time>2021-06-04T12:14:54.456Z</time>
      </trkpt>
      <trkpt lat="47.54279" lon="-2.86797">
        <ele>14.014674</ele>
        <time>2021-06-04T12:14:57.641Z</time>
      </trkpt>
      <trkpt lat="47.5427" lon="-2.86713">
        <ele>13.584571</ele>
        <time>2021-06-04T12:15:09.414Z</time>
      </trkpt>
      <trkpt lat="47.54241" lon="-2.86605">
        <ele>12.821414</ele>
        <time>2021-06-04T12:15:25.375Z</time>
      </trkpt>
      <trkpt lat="47.5424" lon="-2.86601">
        <ele>12.794454</ele>
        <time>2021-06-04T12:15:26.014Z</time>
      </trkpt>
      <trkpt lat="47.54226" lon="-2.86579">
        <ele>12.590564</ele>
        <time>2021-06-04T12:15:30.199Z</time>
      </trkpt>
      <trkpt lat="47.54196" lon="-2.86526">
        <ele>12.140448</ele>
        <time>2021-06-04T12:15:39.074Z</time>
      </trkpt>
      <trkpt lat="47.54114" lon="-2.86449">
        <ele>10.457973</ele>
        <time>2021-06-04T12:15:56.361Z</time>
      </trkpt>
      <trkpt lat="47.54043" lon="-2.86395">
        <ele>8.780242</ele>
        <time>2021-06-04T12:16:10.089Z</time>
      </trkpt>
      <trkpt lat="47.54014" lon="-2.86366">
        <ele>8.046566</ele>
        <time>2021-06-04T12:16:16.953Z</time>
      </trkpt>
      <trkpt lat="47.53956" lon="-2.86285">
        <ele>6.913387</ele>
        <time>2021-06-04T12:16:32.591Z</time>
      </trkpt>
      <trkpt lat="47.53935" lon="-2.8623">
        <ele>6.298303</ele>
        <time>2021-06-04T12:16:41.582Z</time>
      </trkpt>
      <trkpt lat="47.53918" lon="-2.86169">
        <ele>5.661864</ele>
        <time>2021-06-04T12:16:51.654Z</time>
      </trkpt>
      <trkpt lat="47.5391" lon="-2.86133">
        <ele>5.502682</ele>
        <time>2021-06-04T12:16:57.636Z</time>
      </trkpt>
      <trkpt lat="47.53907" lon="-2.86111">
        <ele>5.51477</ele>
        <time>2021-06-04T12:17:03.129Z</time>
      </trkpt>
      <trkpt lat="47.53903" lon="-2.86055">
        <ele>5.546826</ele>
        <time>2021-06-04T12:17:17.493Z</time>
      </trkpt>
      <trkpt lat="47.53904" lon="-2.85812">
        <ele>5.826649</ele>
        <time>2021-06-04T12:18:20.339Z</time>
      </trkpt>
      <trkpt lat="47.53923" lon="-2.85797">
        <ele>5.907091</ele>
        <time>2021-06-04T12:18:25.732Z</time>
      </trkpt>
      <trkpt lat="47.53949" lon="-2.85777">
        <ele>6.015021</ele>
        <time>2021-06-04T12:18:34.075Z</time>
      </trkpt>
      <trkpt lat="47.53955" lon="-2.85772">
        <ele>6.039535</ele>
        <time>2021-06-04T12:18:35.521Z</time>
      </trkpt>
      <trkpt lat="47.53955" lon="-2.85772">
        <ele>6.040152</ele>
        <time>2021-06-04T12:18:35.621Z</time>
      </trkpt>
      <trkpt lat="47.53955" lon="-2.85772">
        <ele>6.040769</ele>
        <time>2021-06-04T12:18:35.721Z</time>
      </trkpt>
      <trkpt lat="47.53949" lon="-2.85777">
        <ele>6.065283</ele>
        <time>2021-06-04T12:18:37.942Z</time>
      </trkpt>
      <trkpt lat="47.53923" lon="-2.85797">
        <ele>6.173213</ele>
        <time>2021-06-04T12:18:45.394Z</time>
      </trkpt>
      <trkpt lat="47.53904" lon="-2.85812">
        <ele>6.253656</ele>
        <time>2021-06-04T12:18:51.416Z</time>
      </trkpt>
      <trkpt lat="47.53903" lon="-2.85744">
        <ele>6.190128</ele>
        <time>2021-06-04T12:19:01.624Z</time>
      </trkpt>
      <trkpt lat="47.53901" lon="-2.85694">
        <ele>6.077296</ele>
        <time>2021-06-04T12:19:09.195Z</time>
      </trkpt>
      <trkpt lat="47.53893" lon="-2.85654">
        <ele>5.982745</ele>
        <time>2021-06-04T12:19:15.374Z</time>
      </trkpt>
      <trkpt lat="47.53889" lon="-2.85641">
        <ele>5.950554</ele>
        <time>2021-06-04T12:19:17.614Z</time>
      </trkpt>
      <trkpt lat="47.53886" lon="-2.85629">
        <ele>5.923162</ele>
        <time>2021-06-04T12:19:19.192Z</time>
      </trkpt>
      <trkpt lat="47.53861" lon="-2.85571">
        <ele>5.768108</ele>
        <time>2021-06-04T12:19:28.776Z</time>
      </trkpt>
      <trkpt lat="47.53835" lon="-2.85535">
        <ele>5.61025</ele>
        <time>2021-06-04T12:19:35.568Z</time>
      </trkpt>
      <trkpt lat="47.53783" lon="-2.85491">
        <ele>5.258245</ele>
        <time>2021-06-04T12:19:46.906Z</time>
      </trkpt>
      <trkpt lat="47.5372" lon="-2.85458">
        <ele>4.863961</ele>
        <time>2021-06-04T12:20:00.551Z</time>
      </trkpt>
      <trkpt lat="47.53695" lon="-2.85441">
        <ele>4.701145</ele>
        <time>2021-06-04T12:20:06.464Z</time>
      </trkpt>
      <trkpt lat="47.53685" lon="-2.85434">
        <ele>4.650783</ele>
        <time>2021-06-04T12:20:08.813Z</time>
      </trkpt>
      <trkpt lat="47.5368" lon="-2.85429">
        <ele>4.71574</ele>
        <time>2021-06-04T12:20:10.218Z</time>
      </trkpt>
      <trkpt lat="47.53664" lon="-2.85412">
        <ele>4.935478</ele>
        <time>2021-06-04T12:20:14.947Z</time>
      </trkpt>
      <trkpt lat="47.5365" lon="-2.85396">
        <ele>5.125384</ele>
        <time>2021-06-04T12:20:19.331Z</time>
      </trkpt>
      <trkpt lat="47.53639" lon="-2.85381">
        <ele>5.285683</ele>
        <time>2021-06-04T12:20:22.950Z</time>
      </trkpt>
      <trkpt lat="47.53639" lon="-2.85381">
        <ele>5.289304</ele>
        <time>2021-06-04T12:20:23.196Z</time>
      </trkpt>
      <trkpt lat="47.53623" lon="-2.85354">
        <ele>5.545762</ele>
        <time>2021-06-04T12:20:29.493Z</time>
      </trkpt>
      <trkpt lat="47.53615" lon="-2.85336">
        <ele>5.706228</ele>
        <time>2021-06-04T12:20:33.552Z</time>
      </trkpt>
      <trkpt lat="47.53593" lon="-2.85275">
        <ele>6.209153</ele>
        <time>2021-06-04T12:20:47.223Z</time>
      </trkpt>
      <trkpt lat="47.53514" lon="-2.84971">
        <ele>9.098242</ele>
        <time>2021-06-04T12:21:50.756Z</time>
      </trkpt>
      <trkpt lat="47.53509" lon="-2.8497">
        <ele>9.046195</ele>
        <time>2021-06-04T12:21:51.881Z</time>
      </trkpt>
      <trkpt lat="47.53498" lon="-2.84969">
        <ele>8.941146</ele>
        <time>2021-06-04T12:21:54.260Z</time>
      </trkpt>
      <trkpt lat="47.53486" lon="-2.84964">
        <ele>8.819778</ele>
        <time>2021-06-04T12:21:57.281Z</time>
      </trkpt>
      <trkpt lat="47.53488" lon="-2.8499">
        <ele>8.648631</ele>
        <time>2021-06-04T12:22:00.529Z</time>
      </trkpt>
      <trkpt lat="47.53494" lon="-2.85079">
        <ele>8.071599</ele>
        <time>2021-06-04T12:22:11.875Z</time>
      </trkpt>
      <trkpt lat="47.53481" lon="-2.85172">
        <ele>7.455122</ele>
        <time>2021-06-04T12:22:23.363Z</time>
      </trkpt>
      <trkpt lat="47.53469" lon="-2.8522">
        <ele>7.229575</ele>
        <time>2021-06-04T12:22:29.309Z</time>
      </trkpt>
      <trkpt lat="47.5345" lon="-2.85288">
        <ele>6.918346</ele>
        <time>2021-06-04T12:22:38.686Z</time>
      </trkpt>
      <trkpt lat="47.53423" lon="-2.85294">
        <ele>6.746701</ele>
        <time>2021-06-04T12:22:44.267Z</time>
      </trkpt>
      <trkpt lat="47.5342" lon="-2.85288">
        <ele>6.714989</ele>
        <time>2021-06-04T12:22:45.277Z</time>
      </trkpt>
      <trkpt lat="47.53415" lon="-2.85276">
        <ele>6.657882</ele>
        <time>2021-06-04T12:22:47.182Z</time>
      </trkpt>
      <trkpt lat="47.53396" lon="-2.85229">
        <ele>6.423499</ele>
        <time>2021-06-04T12:22:55.766Z</time>
      </trkpt>
      <trkpt lat="47.53366" lon="-2.85145">
        <ele>6.492437</ele>
        <time>2021-06-04T12:23:13.166Z</time>
      </trkpt>
      <trkpt lat="47.53362" lon="-2.8514">
        <ele>6.515613</ele>
        <time>2021-06-04T12:23:14.615Z</time>
      </trkpt>
      <trkpt lat="47.53348" lon="-2.85129">
        <ele>6.584421</ele>
        <time>2021-06-04T12:23:21.719Z</time>
      </trkpt>
      <trkpt lat="47.53329" lon="-2.85111">
        <ele>6.682298</ele>
        <time>2021-06-04T12:23:30.297Z</time>
      </trkpt>
      <trkpt lat="47.53318" lon="-2.85089">
        <ele>6.761176</ele>
        <time>2021-06-04T12:23:37.810Z</time>
      </trkpt>
      <trkpt lat="47.53294" lon="-2.85019">
        <ele>6.992511</ele>
        <time>2021-06-04T12:23:49.329Z</time>
      </trkpt>
      <trkpt lat="47.53289" lon="-2.85012">
        <ele>7.022859</ele>
        <time>2021-06-04T12:23:50.833Z</time>
      </trkpt>
      <trkpt lat="47.53286" lon="-2.85012">
        <ele>7.032867</ele>
        <time>2021-06-04T12:23:51.765Z</time>
      </trkpt>
      <trkpt lat="47.53263" lon="-2.85019">
        <ele>6.908527</ele>
        <time>2021-06-04T12:23:56.504Z</time>
      </trkpt>
      <trkpt lat="47.53245" lon="-2.85029">
        <ele>6.646538</ele>
        <time>2021-06-04T12:24:00.876Z</time>
      </trkpt>
      <trkpt lat="47.53252" lon="-2.85074">
        <ele>6.22206</ele>
        <time>2021-06-04T12:24:07.022Z</time>
      </trkpt>
      <trkpt lat="47.53243" lon="-2.85078">
        <ele>6.091633</ele>
        <time>2021-06-04T12:24:08.875Z</time>
      </trkpt>
      <trkpt lat="47.53251" lon="-2.85116">
        <ele>5.723366</ele>
        <time>2021-06-04T12:24:14.182Z</time>
      </trkpt>
      <trkpt lat="47.53293" lon="-2.85267">
        <ele>4.371667</ele>
        <time>2021-06-04T12:24:34.287Z</time>
      </trkpt>
      <trkpt lat="47.533" lon="-2.85305">
        <ele>4.126885</ele>
        <time>2021-06-04T12:24:39.369Z</time>
      </trkpt>
      <trkpt lat="47.53298" lon="-2.85338">
        <ele>3.922885</ele>
        <time>2021-06-04T12:24:43.892Z</time>
      </trkpt>
      <trkpt lat="47.53279" lon="-2.85387">
        <ele>3.573327</ele>
        <time>2021-06-04T12:24:51.749Z</time>
      </trkpt>
      <trkpt lat="47.5327" lon="-2.85397">
        <ele>3.475224</ele>
        <time>2021-06-04T12:24:53.863Z</time>
      </trkpt>
      <trkpt lat="47.53253" lon="-2.85409">
        <ele>3.295851</ele>
        <time>2021-06-04T12:24:58.102Z</time>
      </trkpt>
      <trkpt lat="47.52815" lon="-2.85686">
        <ele>6.282398</ele>
        <time>2021-06-04T12:26:58.658Z</time>
      </trkpt>
      <trkpt lat="47.5279" lon="-2.85707">
        <ele>6.774902</ele>
        <time>2021-06-04T12:27:08.026Z</time>
      </trkpt>
      <trkpt lat="47.52778" lon="-2.85728">
        <ele>7.086448</ele>
        <time>2021-06-04T12:27:14.264Z</time>
      </trkpt>
      <trkpt lat="47.52773" lon="-2.85738">
        <ele>7.227999</ele>
        <time>2021-06-04T12:27:16.948Z</time>
      </trkpt>
      <trkpt lat="47.52764" lon="-2.85756">
        <ele>7.489703</ele>
        <time>2021-06-04T12:27:22.496Z</time>
      </trkpt>
      <trkpt lat="47.52764" lon="-2.85757">
        <ele>7.4964</ele>
        <time>2021-06-04T12:27:22.641Z</time>
      </trkpt>
      <trkpt lat="47.52751" lon="-2.85782">
        <ele>7.855347</ele>
        <time>2021-06-04T12:27:29.698Z</time>
      </trkpt>
      <trkpt lat="47.52745" lon="-2.85797">
        <ele>8.112643</ele>
        <time>2021-06-04T12:27:34.322Z</time>
      </trkpt>
      <trkpt lat="47.52723" lon="-2.85868">
        <ele>9.280719</ele>
        <time>2021-06-04T12:27:52.713Z</time>
      </trkpt>
      <trkpt lat="47.52708" lon="-2.85902">
        <ele>9.889636</ele>
        <time>2021-06-04T12:28:02.384Z</time>
      </trkpt>
      <trkpt lat="47.52682" lon="-2.85921">
        <ele>10.530844</ele>
        <time>2021-06-04T12:28:12.259Z</time>
      </trkpt>
      <trkpt lat="47.52655" lon="-2.85927">
        <ele>11.141049</ele>
        <time>2021-06-04T12:28:20.701Z</time>
      </trkpt>
      <trkpt lat="47.52593" lon="-2.85923">
        <ele>11.804788</ele>
        <time>2021-06-04T12:28:37.334Z</time>
      </trkpt>
      <trkpt lat="47.52541" lon="-2.85885">
        <ele>11.593444</ele>
        <time>2021-06-04T12:28:49.741Z</time>
      </trkpt>
      <trkpt lat="47.5251" lon="-2.85855">
        <ele>11.46086</ele>
        <time>2021-06-04T12:28:57.276Z</time>
      </trkpt>
      <trkpt lat="47.52467" lon="-2.8583">
        <ele>11.295971</ele>
        <time>2021-06-04T12:29:06.692Z</time>
      </trkpt>
      <trkpt lat="47.52456" lon="-2.85823">
        <ele>11.245726</ele>
        <time>2021-06-04T12:29:08.822Z</time>
      </trkpt>
      <trkpt lat="47.52449" lon="-2.85818">
        <ele>11.168357</ele>
        <time>2021-06-04T12:29:10.680Z</time>
      </trkpt>
      <trkpt lat="47.52376" lon="-2.85753">
        <ele>10.29557</ele>
        <time>2021-06-04T12:29:28.838Z</time>
      </trkpt>
      <trkpt lat="47.52325" lon="-2.85722">
        <ele>9.735437</ele>
        <time>2021-06-04T12:29:39.157Z</time>
      </trkpt>
      <trkpt lat="47.52312" lon="-2.85718">
        <ele>9.597754</ele>
        <time>2021-06-04T12:29:42.172Z</time>
      </trkpt>
      <trkpt lat="47.52298" lon="-2.85738">
        <ele>9.414532</ele>
        <time>2021-06-04T12:29:45.886Z</time>
      </trkpt>
      <trkpt lat="47.52279" lon="-2.85803">
        <ele>9.233788</ele>
        <time>2021-06-04T12:29:55.865Z</time>
      </trkpt>
      <trkpt lat="47.52278" lon="-2.85807">
        <ele>9.222322</ele>
        <time>2021-06-04T12:29:56.653Z</time>
      </trkpt>
      <trkpt lat="47.52276" lon="-2.85828">
        <ele>9.166701</ele>
        <time>2021-06-04T12:29:59.910Z</time>
      </trkpt>
      <trkpt lat="47.5227" lon="-2.85838">
        <ele>9.1336</ele>
        <time>2021-06-04T12:30:01.775Z</time>
      </trkpt>
      <trkpt lat="47.52272" lon="-2.85845">
        <ele>9.113917</ele>
        <time>2021-06-04T12:30:03.063Z</time>
      </trkpt>
      <trkpt lat="47.52278" lon="-2.85865">
        <ele>9.056508</ele>
        <time>2021-06-04T12:30:06.844Z</time>
      </trkpt>
      <trkpt lat="47.52287" lon="-2.85882">
        <ele>8.999686</ele>
        <time>2021-06-04T12:30:10.124Z</time>
      </trkpt>
      <trkpt lat="47.5231" lon="-2.85924">
        <ele>8.864279</ele>
        <time>2021-06-04T12:30:18.426Z</time>
      </trkpt>
      <trkpt lat="47.52314" lon="-2.85932">
        <ele>8.836288</ele>
        <time>2021-06-04T12:30:20.001Z</time>
      </trkpt>
      <trkpt lat="47.52316" lon="-2.85935">
        <ele>8.826918</ele>
        <time>2021-06-04T12:30:20.460Z</time>
      </trkpt>
      <trkpt lat="47.52314" lon="-2.85932">
        <ele>8.817547</ele>
        <time>2021-06-04T12:30:21.131Z</time>
      </trkpt>
      <trkpt lat="47.5231" lon="-2.85924">
        <ele>8.789556</ele>
        <time>2021-06-04T12:30:22.831Z</time>
      </trkpt>
      <trkpt lat="47.52287" lon="-2.85882">
        <ele>8.684001</ele>
        <time>2021-06-04T12:30:30.688Z</time>
      </trkpt>
      <trkpt lat="47.52278" lon="-2.85865">
        <ele>8.647306</ele>
        <time>2021-06-04T12:30:33.963Z</time>
      </trkpt>
      <trkpt lat="47.52272" lon="-2.85845">
        <ele>8.610232</ele>
        <time>2021-06-04T12:30:37.017Z</time>
      </trkpt>
      <trkpt lat="47.5227" lon="-2.85838">
        <ele>8.597521</ele>
        <time>2021-06-04T12:30:38.287Z</time>
      </trkpt>
      <trkpt lat="47.52258" lon="-2.85838">
        <ele>8.568757</ele>
        <time>2021-06-04T12:30:41.008Z</time>
      </trkpt>
      <trkpt lat="47.5221" lon="-2.85815">
        <ele>8.44447</ele>
        <time>2021-06-04T12:30:52.506Z</time>
      </trkpt>
      <trkpt lat="47.52168" lon="-2.8582">
        <ele>8.341661</ele>
        <time>2021-06-04T12:31:03.178Z</time>
      </trkpt>
      <trkpt lat="47.5215" lon="-2.85835">
        <ele>8.243505</ele>
        <time>2021-06-04T12:31:08.189Z</time>
      </trkpt>
      <trkpt lat="47.52139" lon="-2.85842">
        <ele>8.036149</ele>
        <time>2021-06-04T12:31:10.429Z</time>
      </trkpt>
      <trkpt lat="47.52118" lon="-2.85846">
        <ele>7.650769</ele>
        <time>2021-06-04T12:31:14.560Z</time>
      </trkpt>
      <trkpt lat="47.52078" lon="-2.8583">
        <ele>6.918695</ele>
        <time>2021-06-04T12:31:22.166Z</time>
      </trkpt>
      <trkpt lat="47.52011" lon="-2.85825">
        <ele>5.715515</ele>
        <time>2021-06-04T12:31:34.177Z</time>
      </trkpt>
      <trkpt lat="47.51979" lon="-2.85826">
        <ele>5.145042</ele>
        <time>2021-06-04T12:31:40.021Z</time>
      </trkpt>
      <trkpt lat="47.51977" lon="-2.85826">
        <ele>5.114743</ele>
        <time>2021-06-04T12:31:40.270Z</time>
      </trkpt>
      <trkpt lat="47.51946" lon="-2.85821">
        <ele>4.776658</ele>
        <time>2021-06-04T12:31:46.240Z</time>
      </trkpt>
      <trkpt lat="47.51918" lon="-2.85793">
        <ele>4.417201</ele>
        <time>2021-06-04T12:31:52.680Z</time>
      </trkpt>
      <trkpt lat="47.51914" lon="-2.85784">
        <ele>4.335259</ele>
        <time>2021-06-04T12:31:53.971Z</time>
      </trkpt>
      <trkpt lat="47.51912" lon="-2.85774">
        <ele>4.260141</ele>
        <time>2021-06-04T12:31:55.389Z</time>
      </trkpt>
      <trkpt lat="47.51911" lon="-2.85763">
        <ele>4.185466</ele>
        <time>2021-06-04T12:31:56.835Z</time>
      </trkpt>
      <trkpt lat="47.51911" lon="-2.85726">
        <ele>3.91969</ele>
        <time>2021-06-04T12:32:01.683Z</time>
      </trkpt>
      <trkpt lat="47.51911" lon="-2.85711">
        <ele>3.808046</ele>
        <time>2021-06-04T12:32:03.933Z</time>
      </trkpt>
      <trkpt lat="47.5191" lon="-2.85567">
        <ele>3.341729</ele>
        <time>2021-06-04T12:32:26.219Z</time>
      </trkpt>
      <trkpt lat="47.51908" lon="-2.85514">
        <ele>3.502349</ele>
        <time>2021-06-04T12:32:35.465Z</time>
      </trkpt>
      <trkpt lat="47.51904" lon="-2.85466">
        <ele>3.650139</ele>
        <time>2021-06-04T12:32:44.105Z</time>
      </trkpt>
      <trkpt lat="47.51898" lon="-2.85423">
        <ele>3.782043</ele>
        <time>2021-06-04T12:32:51.734Z</time>
      </trkpt>
      <trkpt lat="47.51896" lon="-2.85364">
        <ele>3.960763</ele>
        <time>2021-06-04T12:33:01.859Z</time>
      </trkpt>
      <trkpt lat="47.51922" lon="-2.85258">
        <ele>4.187598</ele>
        <time>2021-06-04T12:33:20.909Z</time>
      </trkpt>
      <trkpt lat="47.51924" lon="-2.85169">
        <ele>4.360586</ele>
        <time>2021-06-04T12:33:35.172Z</time>
      </trkpt>
      <trkpt lat="47.5194" lon="-2.8509">
        <ele>4.54749</ele>
        <time>2021-06-04T12:33:48.467Z</time>
      </trkpt>
      <trkpt lat="47.51944" lon="-2.84965">
        <ele>5.079887</ele>
        <time>2021-06-04T12:34:09.082Z</time>
      </trkpt>
      <trkpt lat="47.51974" lon="-2.84859">
        <ele>5.568802</ele>
        <time>2021-06-04T12:34:29.602Z</time>
      </trkpt>
      <trkpt lat="47.51964" lon="-2.84785">
        <ele>6.1476</ele>
        <time>2021-06-04T12:34:45.001Z</time>
      </trkpt>
      <trkpt lat="47.51962" lon="-2.84735">
        <ele>6.564913</ele>
        <time>2021-06-04T12:34:54.894Z</time>
      </trkpt>
      <trkpt lat="47.51963" lon="-2.84725">
        <ele>6.645099</ele>
        <time>2021-06-04T12:34:56.815Z</time>
      </trkpt>
      <trkpt lat="47.51963" lon="-2.84716">
        <ele>6.724449</ele>
        <time>2021-06-04T12:34:58.549Z</time>
      </trkpt>
      <trkpt lat="47.51959" lon="-2.84715">
        <ele>6.778022</ele>
        <time>2021-06-04T12:34:59.694Z</time>
      </trkpt>
      <trkpt lat="47.51954" lon="-2.84714">
        <ele>6.838342</ele>
        <time>2021-06-04T12:35:01.096Z</time>
      </trkpt>
      <trkpt lat="47.51947" lon="-2.84713">
        <ele>6.93446</ele>
        <time>2021-06-04T12:35:03.677Z</time>
      </trkpt>
      <trkpt lat="47.51927" lon="-2.84713">
        <ele>7.1846</ele>
        <time>2021-06-04T12:35:09.186Z</time>
      </trkpt>
      <trkpt lat="47.51902" lon="-2.84711">
        <ele>7.497598</ele>
        <time>2021-06-04T12:35:16.323Z</time>
      </trkpt>
      <trkpt lat="47.51887" lon="-2.84703">
        <ele>7.691988</ele>
        <time>2021-06-04T12:35:20.214Z</time>
      </trkpt>
      <trkpt lat="47.51865" lon="-2.84687">
        <ele>7.908684</ele>
        <time>2021-06-04T12:35:26.844Z</time>
      </trkpt>
      <trkpt lat="47.51824" lon="-2.84688">
        <ele>8.057156</ele>
        <time>2021-06-04T12:35:37.266Z</time>
      </trkpt>
      <trkpt lat="47.51795" lon="-2.84687">
        <ele>8.1653</ele>
        <time>2021-06-04T12:35:44.932Z</time>
      </trkpt>
      <trkpt lat="47.5177" lon="-2.84685">
        <ele>8.257154</ele>
        <time>2021-06-04T12:35:50.964Z</time>
      </trkpt>
      <trkpt lat="47.51729" lon="-2.84683">
        <ele>8.407144</ele>
        <time>2021-06-04T12:36:00.227Z</time>
      </trkpt>
      <trkpt lat="47.51701" lon="-2.84682">
        <ele>8.509097</ele>
        <time>2021-06-04T12:36:06.167Z</time>
      </trkpt>
      <trkpt lat="47.51636" lon="-2.84675">
        <ele>9.497324</ele>
        <time>2021-06-04T12:36:21.944Z</time>
      </trkpt>
      <trkpt lat="47.51627" lon="-2.84674">
        <ele>9.643331</ele>
        <time>2021-06-04T12:36:24.354Z</time>
      </trkpt>
      <trkpt lat="47.51595" lon="-2.84673">
        <ele>10.180286</ele>
        <time>2021-06-04T12:36:34.041Z</time>
      </trkpt>
      <trkpt lat="47.51548" lon="-2.84675">
        <ele>10.935135</ele>
        <time>2021-06-04T12:36:49.411Z</time>
      </trkpt>
      <trkpt lat="47.5154" lon="-2.84676">
        <ele>11.077598</ele>
        <time>2021-06-04T12:36:52.094Z</time>
      </trkpt>
      <trkpt lat="47.51532" lon="-2.84676">
        <ele>11.20528</ele>
        <time>2021-06-04T12:36:55.079Z</time>
      </trkpt>
      <trkpt lat="47.51532" lon="-2.84665">
        <ele>11.331309</ele>
        <time>2021-06-04T12:36:58.532Z</time>
      </trkpt>
      <trkpt lat="47.51532" lon="-2.84626">
        <ele>12.118602</ele>
        <time>2021-06-04T12:37:08.747Z</time>
      </trkpt>
      <trkpt lat="47.51531" lon="-2.84622">
        <ele>12.226987</ele>
        <time>2021-06-04T12:37:10.676Z</time>
      </trkpt>
      <trkpt lat="47.5153" lon="-2.84618">
        <ele>12.335904</ele>
        <time>2021-06-04T12:37:11.888Z</time>
      </trkpt>
      <trkpt lat="47.51472" lon="-2.84528">
        <ele>15.518033</ele>
        <time>2021-06-04T12:37:48.959Z</time>
      </trkpt>
      <trkpt lat="47.51469" lon="-2.84524">
        <ele>15.659122</ele>
        <time>2021-06-04T12:37:51.145Z</time>
      </trkpt>
      <trkpt lat="47.51419" lon="-2.84438">
        <ele>18.49395</ele>
        <time>2021-06-04T12:38:26.992Z</time>
      </trkpt>
      <trkpt lat="47.51381" lon="-2.84362">
        <ele>20.604102</ele>
        <time>2021-06-04T12:38:54.256Z</time>
      </trkpt>
      <trkpt lat="47.51366" lon="-2.8433">
        <ele>21.48095</ele>
        <time>2021-06-04T12:39:05.580Z</time>
      </trkpt>
      <trkpt lat="47.51353" lon="-2.84308">
        <ele>22.129872</ele>
        <time>2021-06-04T12:39:12.530Z</time>
      </trkpt>
      <trkpt lat="47.51323" lon="-2.8425">
        <ele>23.743033</ele>
        <time>2021-06-04T12:39:29.917Z</time>
      </trkpt>
      <trkpt lat="47.51304" lon="-2.84212">
        <ele>24.609585</ele>
        <time>2021-06-04T12:39:40.848Z</time>
      </trkpt>
      <trkpt lat="47.51302" lon="-2.84207">
        <ele>24.707241</ele>
        <time>2021-06-04T12:39:42.516Z</time>
      </trkpt>
      <trkpt lat="47.51274" lon="-2.84154">
        <ele>25.761577</ele>
        <time>2021-06-04T12:39:57.963Z</time>
      </trkpt>
      <trkpt lat="47.51268" lon="-2.84144">
        <ele>25.966367</ele>
        <time>2021-06-04T12:40:01.105Z</time>
      </trkpt>
      <trkpt lat="47.51272" lon="-2.8414">
        <ele>26.08855</ele>
        <time>2021-06-04T12:40:03.103Z</time>
      </trkpt>
      <trkpt lat="47.51277" lon="-2.84134">
        <ele>26.222889</ele>
        <time>2021-06-04T12:40:04.863Z</time>
      </trkpt>
      <trkpt lat="47.51263" lon="-2.84106">
        <ele>26.76321</ele>
        <time>2021-06-04T12:40:12.263Z</time>
      </trkpt>
      <trkpt lat="47.51261" lon="-2.84102">
        <ele>26.837307</ele>
        <time>2021-06-04T12:40:13.378Z</time>
      </trkpt>
      <trkpt lat="47.51261" lon="-2.841">
        <ele>26.868505</ele>
        <time>2021-06-04T12:40:14.051Z</time>
      </trkpt>
      <trkpt lat="47.51233" lon="-2.84047">
        <ele>27.914864</ele>
        <time>2021-06-04T12:40:27.718Z</time>
      </trkpt>
      <trkpt lat="47.51173" lon="-2.83954">
        <ele>29.58585</ele>
        <time>2021-06-04T12:40:53.692Z</time>
      </trkpt>
      <trkpt lat="47.51146" lon="-2.83922">
        <ele>30.224932</ele>
        <time>2021-06-04T12:41:04.226Z</time>
      </trkpt>
      <trkpt lat="47.51133" lon="-2.83908">
        <ele>30.521259</ele>
        <time>2021-06-04T12:41:09.011Z</time>
      </trkpt>
      <trkpt lat="47.51108" lon="-2.83883">
        <ele>31.070764</ele>
        <time>2021-06-04T12:41:17.635Z</time>
      </trkpt>
      <trkpt lat="47.51099" lon="-2.83875">
        <ele>31.261672</ele>
        <time>2021-06-04T12:41:20.818Z</time>
      </trkpt>
      <trkpt lat="47.51057" lon="-2.83846">
        <ele>32.02711</ele>
        <time>2021-06-04T12:41:33.815Z</time>
      </trkpt>
      <trkpt lat="47.51049" lon="-2.83841">
        <ele>32.16638</ele>
        <time>2021-06-04T12:41:36.651Z</time>
      </trkpt>
      <trkpt lat="47.51016" lon="-2.83824">
        <ele>32.704835</ele>
        <time>2021-06-04T12:41:46.945Z</time>
      </trkpt>
      <trkpt lat="47.50913" lon="-2.83787">
        <ele>34.341836</ele>
        <time>2021-06-04T12:42:16.954Z</time>
      </trkpt>
      <trkpt lat="47.50905" lon="-2.83786">
        <ele>34.435715</ele>
        <time>2021-06-04T12:42:19.232Z</time>
      </trkpt>
      <trkpt lat="47.50897" lon="-2.83785">
        <ele>34.509239</ele>
        <time>2021-06-04T12:42:21.307Z</time>
      </trkpt>
      <trkpt lat="47.50885" lon="-2.8379">
        <ele>34.631543</ele>
        <time>2021-06-04T12:42:24.618Z</time>
      </trkpt>
      <trkpt lat="47.50817" lon="-2.83785">
        <ele>35.279478</ele>
        <time>2021-06-04T12:42:42.312Z</time>
      </trkpt>
      <trkpt lat="47.50812" lon="-2.83785">
        <ele>35.323384</ele>
        <time>2021-06-04T12:42:43.596Z</time>
      </trkpt>
      <trkpt lat="47.50797" lon="-2.83783">
        <ele>35.469343</ele>
        <time>2021-06-04T12:42:47.697Z</time>
      </trkpt>
      <trkpt lat="47.50687" lon="-2.83774">
        <ele>36.242928</ele>
        <time>2021-06-04T12:43:15.136Z</time>
      </trkpt>
      <trkpt lat="47.50648" lon="-2.8377">
        <ele>36.365805</ele>
        <time>2021-06-04T12:43:24.519Z</time>
      </trkpt>
      <trkpt lat="47.5063" lon="-2.83769">
        <ele>36.424199</ele>
        <time>2021-06-04T12:43:28.823Z</time>
      </trkpt>
      <trkpt lat="47.50587" lon="-2.83767">
        <ele>36.557607</ele>
        <time>2021-06-04T12:43:38.583Z</time>
      </trkpt>
      <trkpt lat="47.50561" lon="-2.83765">
        <ele>36.639873</ele>
        <time>2021-06-04T12:43:44.518Z</time>
      </trkpt>
      <trkpt lat="47.50514" lon="-2.83762">
        <ele>36.502026</ele>
        <time>2021-06-04T12:43:55.051Z</time>
      </trkpt>
      <trkpt lat="47.50452" lon="-2.83745">
        <ele>36.204738</ele>
        <time>2021-06-04T12:44:07.840Z</time>
      </trkpt>
      <trkpt lat="47.50452" lon="-2.83745">
        <ele>36.204738</ele>
        <time>2021-06-04T12:44:07.862Z</time>
      </trkpt>
      <trkpt lat="47.50433" lon="-2.83733">
        <ele>36.104919</ele>
        <time>2021-06-04T12:44:11.988Z</time>
      </trkpt>
      <trkpt lat="47.50426" lon="-2.83721">
        <ele>36.053724</ele>
        <time>2021-06-04T12:44:14.284Z</time>
      </trkpt>
      <trkpt lat="47.50425" lon="-2.83705">
        <ele>36.002975</ele>
        <time>2021-06-04T12:44:16.659Z</time>
      </trkpt>
      <trkpt lat="47.50419" lon="-2.83703">
        <ele>35.974058</ele>
        <time>2021-06-04T12:44:17.873Z</time>
      </trkpt>
      <trkpt lat="47.50413" lon="-2.83701">
        <ele>35.94406</ele>
        <time>2021-06-04T12:44:19.112Z</time>
      </trkpt>
      <trkpt lat="47.50402" lon="-2.83703">
        <ele>35.887534</ele>
        <time>2021-06-04T12:44:21.657Z</time>
      </trkpt>
      <trkpt lat="47.50384" lon="-2.83688">
        <ele>35.764336</ele>
        <time>2021-06-04T12:44:25.953Z</time>
      </trkpt>
      <trkpt lat="47.50375" lon="-2.83684">
        <ele>35.689203</ele>
        <time>2021-06-04T12:44:27.733Z</time>
      </trkpt>
      <trkpt lat="47.50361" lon="-2.83667">
        <ele>35.527592</ele>
        <time>2021-06-04T12:44:31.698Z</time>
      </trkpt>
      <trkpt lat="47.50353" lon="-2.83657">
        <ele>35.436814</ele>
        <time>2021-06-04T12:44:33.700Z</time>
      </trkpt>
      <trkpt lat="47.50323" lon="-2.83604">
        <ele>35.028569</ele>
        <time>2021-06-04T12:44:43.254Z</time>
      </trkpt>
      <trkpt lat="47.50303" lon="-2.83558">
        <ele>34.712561</ele>
        <time>2021-06-04T12:44:50.616Z</time>
      </trkpt>
      <trkpt lat="47.50282" lon="-2.83482">
        <ele>34.22416</ele>
        <time>2021-06-04T12:45:02.072Z</time>
      </trkpt>
      <trkpt lat="47.50255" lon="-2.83374">
        <ele>33.495357</ele>
        <time>2021-06-04T12:45:18.438Z</time>
      </trkpt>
      <trkpt lat="47.50252" lon="-2.83363">
        <ele>33.42498</ele>
        <time>2021-06-04T12:45:20.109Z</time>
      </trkpt>
      <trkpt lat="47.50236" lon="-2.83297">
        <ele>32.98355</ele>
        <time>2021-06-04T12:45:29.723Z</time>
      </trkpt>
      <trkpt lat="47.5023" lon="-2.83303">
        <ele>32.913801</ele>
        <time>2021-06-04T12:45:32.112Z</time>
      </trkpt>
      <trkpt lat="47.50227" lon="-2.8329">
        <ele>32.829807</ele>
        <time>2021-06-04T12:45:33.825Z</time>
      </trkpt>
      <trkpt lat="47.50225" lon="-2.83278">
        <ele>32.749994</ele>
        <time>2021-06-04T12:45:35.533Z</time>
      </trkpt>
      <trkpt lat="47.50222" lon="-2.83279">
        <ele>32.720974</ele>
        <time>2021-06-04T12:45:36.104Z</time>
      </trkpt>
      <trkpt lat="47.50217" lon="-2.83276">
        <ele>32.665314</ele>
        <time>2021-06-04T12:45:37.254Z</time>
      </trkpt>
      <trkpt lat="47.50215" lon="-2.83272">
        <ele>32.637002</ele>
        <time>2021-06-04T12:45:37.809Z</time>
      </trkpt>
      <trkpt lat="47.50205" lon="-2.83275">
        <ele>32.537496</ele>
        <time>2021-06-04T12:45:40.322Z</time>
      </trkpt>
      <trkpt lat="47.50202" lon="-2.83279">
        <ele>32.49408</ele>
        <time>2021-06-04T12:45:41.341Z</time>
      </trkpt>
      <trkpt lat="47.502" lon="-2.83282">
        <ele>32.458584</ele>
        <time>2021-06-04T12:45:41.942Z</time>
      </trkpt>
      <trkpt lat="47.50188" lon="-2.83304">
        <ele>32.256847</ele>
        <time>2021-06-04T12:45:45.534Z</time>
      </trkpt>
      <trkpt lat="47.50186" lon="-2.8331">
        <ele>32.205552</ele>
        <time>2021-06-04T12:45:46.386Z</time>
      </trkpt>
      <trkpt lat="47.50181" lon="-2.83319">
        <ele>32.121522</ele>
        <time>2021-06-04T12:45:47.855Z</time>
      </trkpt>
      <trkpt lat="47.50177" lon="-2.83326">
        <ele>32.052625</ele>
        <time>2021-06-04T12:45:49.085Z</time>
      </trkpt>
      <trkpt lat="47.50154" lon="-2.83366">
        <ele>31.674229</ele>
        <time>2021-06-04T12:45:55.717Z</time>
      </trkpt>
      <trkpt lat="47.5013" lon="-2.83401">
        <ele>31.309366</ele>
        <time>2021-06-04T12:46:02.039Z</time>
      </trkpt>
      <trkpt lat="47.501" lon="-2.8343">
        <ele>30.923685</ele>
        <time>2021-06-04T12:46:08.865Z</time>
      </trkpt>
      <trkpt lat="47.50091" lon="-2.8344">
        <ele>30.809072</ele>
        <time>2021-06-04T12:46:11.693Z</time>
      </trkpt>
      <trkpt lat="47.50086" lon="-2.83432">
        <ele>30.732728</ele>
        <time>2021-06-04T12:46:13.221Z</time>
      </trkpt>
      <trkpt lat="47.50081" lon="-2.83425">
        <ele>30.653825</ele>
        <time>2021-06-04T12:46:14.758Z</time>
      </trkpt>
      <trkpt lat="47.50079" lon="-2.83423">
        <ele>30.639686</ele>
        <time>2021-06-04T12:46:15.241Z</time>
      </trkpt>
      <trkpt lat="47.50074" lon="-2.83417">
        <ele>30.64985</ele>
        <time>2021-06-04T12:46:16.685Z</time>
      </trkpt>
      <trkpt lat="47.50066" lon="-2.83408">
        <ele>30.664252</ele>
        <time>2021-06-04T12:46:18.724Z</time>
      </trkpt>
      <trkpt lat="47.50062" lon="-2.83407">
        <ele>30.66994</ele>
        <time>2021-06-04T12:46:19.548Z</time>
      </trkpt>
      <trkpt lat="47.50043" lon="-2.83398">
        <ele>30.700685</ele>
        <time>2021-06-04T12:46:24.063Z</time>
      </trkpt>
      <trkpt lat="47.50009" lon="-2.83382">
        <ele>30.754086</ele>
        <time>2021-06-04T12:46:32.278Z</time>
      </trkpt>
      <trkpt lat="47.49994" lon="-2.83365">
        <ele>30.782121</ele>
        <time>2021-06-04T12:46:36.835Z</time>
      </trkpt>
      <trkpt lat="47.49991" lon="-2.83359">
        <ele>30.790122</ele>
        <time>2021-06-04T12:46:38.165Z</time>
      </trkpt>
      <trkpt lat="47.49984" lon="-2.8335">
        <ele>30.80366</ele>
        <time>2021-06-04T12:46:40.466Z</time>
      </trkpt>
      <trkpt lat="47.49965" lon="-2.83323">
        <ele>30.842877</ele>
        <time>2021-06-04T12:46:47.348Z</time>
      </trkpt>
      <trkpt lat="47.49942" lon="-2.83296">
        <ele>30.88699</ele>
        <time>2021-06-04T12:46:55.384Z</time>
      </trkpt>
      <trkpt lat="47.49868" lon="-2.83271">
        <ele>30.582684</ele>
        <time>2021-06-04T12:47:13.871Z</time>
      </trkpt>
      <trkpt lat="47.4981" lon="-2.83241">
        <ele>30.256254</ele>
        <time>2021-06-04T12:47:26.767Z</time>
      </trkpt>
      <trkpt lat="47.49732" lon="-2.83199">
        <ele>29.695606</ele>
        <time>2021-06-04T12:47:42.921Z</time>
      </trkpt>
      <trkpt lat="47.49728" lon="-2.83196">
        <ele>29.650569</ele>
        <time>2021-06-04T12:47:43.660Z</time>
      </trkpt>
      <trkpt lat="47.49712" lon="-2.83158">
        <ele>29.347046</ele>
        <time>2021-06-04T12:47:49.794Z</time>
      </trkpt>
      <trkpt lat="47.49709" lon="-2.83136">
        <ele>29.193578</ele>
        <time>2021-06-04T12:47:52.590Z</time>
      </trkpt>
      <trkpt lat="47.49707" lon="-2.83105">
        <ele>28.985064</ele>
        <time>2021-06-04T12:47:56.810Z</time>
      </trkpt>
      <trkpt lat="47.49705" lon="-2.83075">
        <ele>28.778533</ele>
        <time>2021-06-04T12:48:00.741Z</time>
      </trkpt>
      <trkpt lat="47.49702" lon="-2.83046">
        <ele>28.582468</ele>
        <time>2021-06-04T12:48:04.585Z</time>
      </trkpt>
      <trkpt lat="47.49698" lon="-2.83016">
        <ele>28.370522</ele>
        <time>2021-06-04T12:48:09.091Z</time>
      </trkpt>
      <trkpt lat="47.49683" lon="-2.82908">
        <ele>28.248659</ele>
        <time>2021-06-04T12:48:26.555Z</time>
      </trkpt>
      <trkpt lat="47.49679" lon="-2.82882">
        <ele>28.281934</ele>
        <time>2021-06-04T12:48:31.388Z</time>
      </trkpt>
      <trkpt lat="47.49674" lon="-2.82864">
        <ele>28.306584</ele>
        <time>2021-06-04T12:48:34.853Z</time>
      </trkpt>
      <trkpt lat="47.49672" lon="-2.82856">
        <ele>28.316992</ele>
        <time>2021-06-04T12:48:36.367Z</time>
      </trkpt>
      <trkpt lat="47.49668" lon="-2.82852">
        <ele>28.325333</ele>
        <time>2021-06-04T12:48:37.437Z</time>
      </trkpt>
      <trkpt lat="47.49651" lon="-2.82846">
        <ele>28.358268</ele>
        <time>2021-06-04T12:48:42.394Z</time>
      </trkpt>
      <trkpt lat="47.49635" lon="-2.82845">
        <ele>28.388562</ele>
        <time>2021-06-04T12:48:46.686Z</time>
      </trkpt>
      <trkpt lat="47.49627" lon="-2.82842">
        <ele>28.403263</ele>
        <time>2021-06-04T12:48:48.789Z</time>
      </trkpt>
      <trkpt lat="47.4961" lon="-2.82823">
        <ele>28.442383</ele>
        <time>2021-06-04T12:48:53.412Z</time>
      </trkpt>
      <trkpt lat="47.49578" lon="-2.82717">
        <ele>27.919494</ele>
        <time>2021-06-04T12:49:10.688Z</time>
      </trkpt>
      <trkpt lat="47.49559" lon="-2.82689">
        <ele>27.651008</ele>
        <time>2021-06-04T12:49:15.928Z</time>
      </trkpt>
      <trkpt lat="47.4955" lon="-2.82679">
        <ele>27.538044</ele>
        <time>2021-06-04T12:49:18.306Z</time>
      </trkpt>
      <trkpt lat="47.4953" lon="-2.82658">
        <ele>27.290489</ele>
        <time>2021-06-04T12:49:22.973Z</time>
      </trkpt>
      <trkpt lat="47.49508" lon="-2.82615">
        <ele>26.922181</ele>
        <time>2021-06-04T12:49:29.826Z</time>
      </trkpt>
      <trkpt lat="47.49466" lon="-2.82515">
        <ele>26.288498</ele>
        <time>2021-06-04T12:49:45.480Z</time>
      </trkpt>
      <trkpt lat="47.49432" lon="-2.82428">
        <ele>25.814811</ele>
        <time>2021-06-04T12:49:59.456Z</time>
      </trkpt>
      <trkpt lat="47.49411" lon="-2.82377">
        <ele>25.536628</ele>
        <time>2021-06-04T12:50:08.778Z</time>
      </trkpt>
      <trkpt lat="47.49366" lon="-2.82182">
        <ele>25.207109</ele>
        <time>2021-06-04T12:50:42.959Z</time>
      </trkpt>
      <trkpt lat="47.49352" lon="-2.82116">
        <ele>25.126769</ele>
        <time>2021-06-04T12:50:52.672Z</time>
      </trkpt>
      <trkpt lat="47.49343" lon="-2.82113">
        <ele>25.111742</ele>
        <time>2021-06-04T12:50:54.394Z</time>
      </trkpt>
      <trkpt lat="47.49315" lon="-2.82117">
        <ele>24.721749</ele>
        <time>2021-06-04T12:50:59.975Z</time>
      </trkpt>
      <trkpt lat="47.49265" lon="-2.82142">
        <ele>23.932985</ele>
        <time>2021-06-04T12:51:10.090Z</time>
      </trkpt>
      <trkpt lat="47.49251" lon="-2.82149">
        <ele>23.716288</ele>
        <time>2021-06-04T12:51:12.851Z</time>
      </trkpt>
      <trkpt lat="47.49242" lon="-2.82149">
        <ele>23.58213</ele>
        <time>2021-06-04T12:51:14.552Z</time>
      </trkpt>
      <trkpt lat="47.49238" lon="-2.82148">
        <ele>23.520939</ele>
        <time>2021-06-04T12:51:15.334Z</time>
      </trkpt>
      <trkpt lat="47.49235" lon="-2.82147">
        <ele>23.474063</ele>
        <time>2021-06-04T12:51:15.931Z</time>
      </trkpt>
      <trkpt lat="47.49232" lon="-2.82142">
        <ele>23.415348</ele>
        <time>2021-06-04T12:51:16.600Z</time>
      </trkpt>
      <trkpt lat="47.49232" lon="-2.82134">
        <ele>23.325657</ele>
        <time>2021-06-04T12:51:17.675Z</time>
      </trkpt>
      <trkpt lat="47.49229" lon="-2.82026">
        <ele>22.351018</ele>
        <time>2021-06-04T12:51:31.389Z</time>
      </trkpt>
      <trkpt lat="47.49209" lon="-2.81917">
        <ele>21.893466</ele>
        <time>2021-06-04T12:51:46.527Z</time>
      </trkpt>
      <trkpt lat="47.49201" lon="-2.81902">
        <ele>21.812352</ele>
        <time>2021-06-04T12:51:49.844Z</time>
      </trkpt>
      <trkpt lat="47.49196" lon="-2.81898">
        <ele>21.781738</ele>
        <time>2021-06-04T12:51:50.697Z</time>
      </trkpt>
      <trkpt lat="47.49202" lon="-2.81895">
        <ele>21.746556</ele>
        <time>2021-06-04T12:51:52.634Z</time>
      </trkpt>
      <trkpt lat="47.49239" lon="-2.81853">
        <ele>21.465293</ele>
        <time>2021-06-04T12:52:03.639Z</time>
      </trkpt>
      <trkpt lat="47.4928" lon="-2.8176">
        <ele>21.812964</ele>
        <time>2021-06-04T12:52:22.033Z</time>
      </trkpt>
      <trkpt lat="47.49286" lon="-2.81745">
        <ele>21.911356</ele>
        <time>2021-06-04T12:52:25.082Z</time>
      </trkpt>
      <trkpt lat="47.4929" lon="-2.81734">
        <ele>21.985926</ele>
        <time>2021-06-04T12:52:27.258Z</time>
      </trkpt>
      <trkpt lat="47.49297" lon="-2.81698">
        <ele>22.200331</ele>
        <time>2021-06-04T12:52:34.546Z</time>
      </trkpt>
      <trkpt lat="47.49301" lon="-2.81676">
        <ele>22.331757</ele>
        <time>2021-06-04T12:52:38.703Z</time>
      </trkpt>
      <trkpt lat="47.49305" lon="-2.81635">
        <ele>22.572296</ele>
        <time>2021-06-04T12:52:46.728Z</time>
      </trkpt>
      <trkpt lat="47.49321" lon="-2.81542">
        <ele>23.331655</ele>
        <time>2021-06-04T12:53:04.674Z</time>
      </trkpt>
      <trkpt lat="47.49327" lon="-2.81514">
        <ele>23.653688</ele>
        <time>2021-06-04T12:53:10.028Z</time>
      </trkpt>
      <trkpt lat="47.49333" lon="-2.81491">
        <ele>23.922774</ele>
        <time>2021-06-04T12:53:14.949Z</time>
      </trkpt>
      <trkpt lat="47.49362" lon="-2.81412">
        <ele>24.890748</ele>
        <time>2021-06-04T12:53:32.545Z</time>
      </trkpt>
      <trkpt lat="47.49366" lon="-2.8138">
        <ele>25.23967</ele>
        <time>2021-06-04T12:53:39.485Z</time>
      </trkpt>
      <trkpt lat="47.4936" lon="-2.81352">
        <ele>25.552648</ele>
        <time>2021-06-04T12:53:45.723Z</time>
      </trkpt>
      <trkpt lat="47.49339" lon="-2.8131">
        <ele>26.029701</ele>
        <time>2021-06-04T12:53:57.628Z</time>
      </trkpt>
      <trkpt lat="47.49336" lon="-2.813">
        <ele>26.119778</ele>
        <time>2021-06-04T12:54:00.384Z</time>
      </trkpt>
      <trkpt lat="47.49335" lon="-2.81295">
        <ele>26.16485</ele>
        <time>2021-06-04T12:54:01.454Z</time>
      </trkpt>
      <trkpt lat="47.49336" lon="-2.8129">
        <ele>26.2096</ele>
        <time>2021-06-04T12:54:02.462Z</time>
      </trkpt>
      <trkpt lat="47.49339" lon="-2.81283">
        <ele>26.279024</ele>
        <time>2021-06-04T12:54:04.078Z</time>
      </trkpt>
      <trkpt lat="47.49345" lon="-2.81279">
        <ele>26.355257</ele>
        <time>2021-06-04T12:54:05.938Z</time>
      </trkpt>
      <trkpt lat="47.49348" lon="-2.81276">
        <ele>26.40653</ele>
        <time>2021-06-04T12:54:07.264Z</time>
      </trkpt>
      <trkpt lat="47.49374" lon="-2.81258">
        <ele>26.759634</ele>
        <time>2021-06-04T12:54:15.746Z</time>
      </trkpt>
      <trkpt lat="47.49392" lon="-2.81245">
        <ele>27.004555</ele>
        <time>2021-06-04T12:54:21.872Z</time>
      </trkpt>
      <trkpt lat="47.49425" lon="-2.81223">
        <ele>27.447316</ele>
        <time>2021-06-04T12:54:31.821Z</time>
      </trkpt>
      <trkpt lat="47.49456" lon="-2.81199">
        <ele>27.881158</ele>
        <time>2021-06-04T12:54:41.019Z</time>
      </trkpt>
      <trkpt lat="47.49367" lon="-2.81028">
        <ele>25.172189</ele>
        <time>2021-06-04T12:55:09.497Z</time>
      </trkpt>
      <trkpt lat="47.49301" lon="-2.80915">
        <ele>21.264467</ele>
        <time>2021-06-04T12:55:25.674Z</time>
      </trkpt>
      <trkpt lat="47.492" lon="-2.80768">
        <ele>14.245842</ele>
        <time>2021-06-04T12:55:47.682Z</time>
      </trkpt>
      <trkpt lat="47.49178" lon="-2.80736">
        <ele>13.018355</ele>
        <time>2021-06-04T12:55:52.588Z</time>
      </trkpt>
      <trkpt lat="47.49164" lon="-2.8071">
        <ele>12.132251</ele>
        <time>2021-06-04T12:55:56.237Z</time>
      </trkpt>
      <trkpt lat="47.49142" lon="-2.80615">
        <ele>9.478129</ele>
        <time>2021-06-04T12:56:07.497Z</time>
      </trkpt>
      <trkpt lat="47.49136" lon="-2.8058">
        <ele>8.522867</ele>
        <time>2021-06-04T12:56:11.694Z</time>
      </trkpt>
      <trkpt lat="47.49115" lon="-2.80426">
        <ele>6.988577</ele>
        <time>2021-06-04T12:56:32.435Z</time>
      </trkpt>
      <trkpt lat="47.49111" lon="-2.80421">
        <ele>6.93052</ele>
        <time>2021-06-04T12:56:36.081Z</time>
      </trkpt>
      <trkpt lat="47.49075" lon="-2.80262">
        <ele>5.87257</ele>
        <time>2021-06-04T12:57:54.925Z</time>
      </trkpt>
      <trkpt lat="47.49068" lon="-2.80234">
        <ele>5.774571</ele>
        <time>2021-06-04T12:58:08.931Z</time>
      </trkpt>
      <trkpt lat="47.49064" lon="-2.80217">
        <ele>5.713033</ele>
        <time>2021-06-04T12:58:17.729Z</time>
      </trkpt>
      <trkpt lat="47.49044" lon="-2.80144">
        <ele>5.453591</ele>
        <time>2021-06-04T12:58:29.013Z</time>
      </trkpt>
      <trkpt lat="47.49032" lon="-2.80101">
        <ele>5.301167</ele>
        <time>2021-06-04T12:58:35.796Z</time>
      </trkpt>
      <trkpt lat="47.4903" lon="-2.80092">
        <ele>5.272462</ele>
        <time>2021-06-04T12:58:37.079Z</time>
      </trkpt>
      <trkpt lat="47.49023" lon="-2.80093">
        <ele>5.236865</ele>
        <time>2021-06-04T12:58:38.499Z</time>
      </trkpt>
      <trkpt lat="47.49014" lon="-2.80093">
        <ele>5.192538</ele>
        <time>2021-06-04T12:58:40.505Z</time>
      </trkpt>
      <trkpt lat="47.48998" lon="-2.80088">
        <ele>5.145392</ele>
        <time>2021-06-04T12:58:43.892Z</time>
      </trkpt>
      <trkpt lat="47.48959" lon="-2.80066">
        <ele>5.098504</ele>
        <time>2021-06-04T12:58:52.531Z</time>
      </trkpt>
      <trkpt lat="47.48956" lon="-2.80062">
        <ele>5.093922</ele>
        <time>2021-06-04T12:58:53.290Z</time>
      </trkpt>
      <trkpt lat="47.48948" lon="-2.8004">
        <ele>5.075133</ele>
        <time>2021-06-04T12:58:56.968Z</time>
      </trkpt>
      <trkpt lat="47.48938" lon="-2.79996">
        <ele>5.039497</ele>
        <time>2021-06-04T12:59:03.912Z</time>
      </trkpt>
      <trkpt lat="47.48937" lon="-2.79974">
        <ele>5.022301</ele>
        <time>2021-06-04T12:59:07.441Z</time>
      </trkpt>
      <trkpt lat="47.4893" lon="-2.79972">
        <ele>5.014108</ele>
        <time>2021-06-04T12:59:09.039Z</time>
      </trkpt>
      <trkpt lat="47.48928" lon="-2.79971">
        <ele>5.011905</ele>
        <time>2021-06-04T12:59:09.448Z</time>
      </trkpt>
      <trkpt lat="47.48926" lon="-2.79971">
        <ele>5.009686</ele>
        <time>2021-06-04T12:59:09.940Z</time>
      </trkpt>
      <trkpt lat="47.48923" lon="-2.79968">
        <ele>5.005415</ele>
        <time>2021-06-04T12:59:10.839Z</time>
      </trkpt>
      <trkpt lat="47.48917" lon="-2.79963">
        <ele>4.998057</ele>
        <time>2021-06-04T12:59:12.398Z</time>
      </trkpt>
      <trkpt lat="47.48904" lon="-2.7995">
        <ele>4.980114</ele>
        <time>2021-06-04T12:59:16.109Z</time>
      </trkpt>
      <trkpt lat="47.48901" lon="-2.79948">
        <ele>4.977089</ele>
        <time>2021-06-04T12:59:16.773Z</time>
      </trkpt>
      <trkpt lat="47.48891" lon="-2.79939">
        <ele>4.962886</ele>
        <time>2021-06-04T12:59:19.663Z</time>
      </trkpt>
      <trkpt lat="47.48876" lon="-2.79928">
        <ele>4.958499</ele>
        <time>2021-06-04T12:59:23.682Z</time>
      </trkpt>
      <trkpt lat="47.48859" lon="-2.79917">
        <ele>4.981147</ele>
        <time>2021-06-04T12:59:28.021Z</time>
      </trkpt>
      <trkpt lat="47.48848" lon="-2.79911">
        <ele>4.995224</ele>
        <time>2021-06-04T12:59:30.875Z</time>
      </trkpt>
      <trkpt lat="47.48837" lon="-2.79906">
        <ele>5.008837</ele>
        <time>2021-06-04T12:59:33.386Z</time>
      </trkpt>
      <trkpt lat="47.48827" lon="-2.79904">
        <ele>5.021429</ele>
        <time>2021-06-04T12:59:35.853Z</time>
      </trkpt>
      <trkpt lat="47.48826" lon="-2.79903">
        <ele>5.02338</ele>
        <time>2021-06-04T12:59:36.227Z</time>
      </trkpt>
      <trkpt lat="47.48813" lon="-2.79902">
        <ele>5.038735</ele>
        <time>2021-06-04T12:59:39.241Z</time>
      </trkpt>
      <trkpt lat="47.48802" lon="-2.79903">
        <ele>5.052361</ele>
        <time>2021-06-04T12:59:41.740Z</time>
      </trkpt>
      <trkpt lat="47.48783" lon="-2.79908">
        <ele>5.075066</ele>
        <time>2021-06-04T12:59:46.075Z</time>
      </trkpt>
      <trkpt lat="47.48782" lon="-2.79908">
        <ele>5.077328</ele>
        <time>2021-06-04T12:59:46.485Z</time>
      </trkpt>
      <trkpt lat="47.48778" lon="-2.7991">
        <ele>5.082461</ele>
        <time>2021-06-04T12:59:47.437Z</time>
      </trkpt>
      <trkpt lat="47.48767" lon="-2.79914">
        <ele>5.095361</ele>
        <time>2021-06-04T12:59:49.854Z</time>
      </trkpt>
      <trkpt lat="47.48753" lon="-2.79918">
        <ele>5.113332</ele>
        <time>2021-06-04T12:59:53.310Z</time>
      </trkpt>
      <trkpt lat="47.48734" lon="-2.79912">
        <ele>5.136738</ele>
        <time>2021-06-04T12:59:57.959Z</time>
      </trkpt>
      <trkpt lat="47.48725" lon="-2.79907">
        <ele>5.148539</ele>
        <time>2021-06-04T13:00:00.303Z</time>
      </trkpt>
      <trkpt lat="47.48716" lon="-2.79903">
        <ele>5.159341</ele>
        <time>2021-06-04T13:00:02.532Z</time>
      </trkpt>
      <trkpt lat="47.48704" lon="-2.79897">
        <ele>5.187316</ele>
        <time>2021-06-04T13:00:05.650Z</time>
      </trkpt>
      <trkpt lat="47.48699" lon="-2.79892">
        <ele>5.214197</ele>
        <time>2021-06-04T13:00:07.168Z</time>
      </trkpt>
      <trkpt lat="47.48673" lon="-2.79851">
        <ele>5.383212</ele>
        <time>2021-06-04T13:00:16.360Z</time>
      </trkpt>
      <trkpt lat="47.48662" lon="-2.7982">
        <ele>5.48516</ele>
        <time>2021-06-04T13:00:21.715Z</time>
      </trkpt>
      <trkpt lat="47.48654" lon="-2.79803">
        <ele>5.545664</ele>
        <time>2021-06-04T13:00:25.204Z</time>
      </trkpt>
      <trkpt lat="47.48643" lon="-2.79773">
        <ele>5.648238</ele>
        <time>2021-06-04T13:00:30.925Z</time>
      </trkpt>
      <trkpt lat="47.48641" lon="-2.79765">
        <ele>5.672663</ele>
        <time>2021-06-04T13:00:32.447Z</time>
      </trkpt>
      <trkpt lat="47.48641" lon="-2.7976">
        <ele>5.688191</ele>
        <time>2021-06-04T13:00:33.390Z</time>
      </trkpt>
      <trkpt lat="47.4864" lon="-2.79751">
        <ele>5.714975</ele>
        <time>2021-06-04T13:00:34.840Z</time>
      </trkpt>
      <trkpt lat="47.4864" lon="-2.79739">
        <ele>5.749369</ele>
        <time>2021-06-04T13:00:36.829Z</time>
      </trkpt>
      <trkpt lat="47.48639" lon="-2.79724">
        <ele>5.794411</ele>
        <time>2021-06-04T13:00:39.390Z</time>
      </trkpt>
      <trkpt lat="47.48622" lon="-2.79596">
        <ele>5.966325</ele>
        <time>2021-06-04T13:01:02.067Z</time>
      </trkpt>
      <trkpt lat="47.48621" lon="-2.7955">
        <ele>5.972292</ele>
        <time>2021-06-04T13:01:10.105Z</time>
      </trkpt>
      <trkpt lat="47.48625" lon="-2.79495">
        <ele>5.979414</ele>
        <time>2021-06-04T13:01:18.966Z</time>
      </trkpt>
      <trkpt lat="47.48631" lon="-2.79447">
        <ele>5.985625</ele>
        <time>2021-06-04T13:01:25.949Z</time>
      </trkpt>
      <trkpt lat="47.48635" lon="-2.79419">
        <ele>5.989356</ele>
        <time>2021-06-04T13:01:29.931Z</time>
      </trkpt>
      <trkpt lat="47.48635" lon="-2.79324">
        <ele>5.790495</ele>
        <time>2021-06-04T13:01:42.956Z</time>
      </trkpt>
      <trkpt lat="47.48638" lon="-2.79305">
        <ele>5.744214</ele>
        <time>2021-06-04T13:01:45.867Z</time>
      </trkpt>
      <trkpt lat="47.4863" lon="-2.79292">
        <ele>5.704163</ele>
        <time>2021-06-04T13:01:48.163Z</time>
      </trkpt>
      <trkpt lat="47.48623" lon="-2.79279">
        <ele>5.663841</ele>
        <time>2021-06-04T13:01:50.714Z</time>
      </trkpt>
      <trkpt lat="47.48618" lon="-2.79261">
        <ele>5.61609</ele>
        <time>2021-06-04T13:01:53.689Z</time>
      </trkpt>
      <trkpt lat="47.48622" lon="-2.79237">
        <ele>5.558319</ele>
        <time>2021-06-04T13:01:58.302Z</time>
      </trkpt>
      <trkpt lat="47.48623" lon="-2.79223">
        <ele>5.522609</ele>
        <time>2021-06-04T13:02:01.202Z</time>
      </trkpt>
      <trkpt lat="47.48625" lon="-2.79189">
        <ele>5.440802</ele>
        <time>2021-06-04T13:02:07.922Z</time>
      </trkpt>
      <trkpt lat="47.48625" lon="-2.79178">
        <ele>5.415086</ele>
        <time>2021-06-04T13:02:10.135Z</time>
      </trkpt>
      <trkpt lat="47.48625" lon="-2.79189">
        <ele>5.38937</ele>
        <time>2021-06-04T13:02:12.190Z</time>
      </trkpt>
      <trkpt lat="47.48623" lon="-2.79223">
        <ele>5.407731</ele>
        <time>2021-06-04T13:02:18.987Z</time>
      </trkpt>
      <trkpt lat="47.48622" lon="-2.79237">
        <ele>5.453937</ele>
        <time>2021-06-04T13:02:21.964Z</time>
      </trkpt>
      <trkpt lat="47.48618" lon="-2.79261">
        <ele>5.52869</ele>
        <time>2021-06-04T13:02:26.881Z</time>
      </trkpt>
      <trkpt lat="47.48623" lon="-2.79279">
        <ele>5.590476</ele>
        <time>2021-06-04T13:02:29.916Z</time>
      </trkpt>
      <trkpt lat="47.4863" lon="-2.79292">
        <ele>5.64265</ele>
        <time>2021-06-04T13:02:32.403Z</time>
      </trkpt>
      <trkpt lat="47.48638" lon="-2.79305">
        <ele>5.694474</ele>
        <time>2021-06-04T13:02:35.181Z</time>
      </trkpt>
      <trkpt lat="47.48635" lon="-2.79324">
        <ele>5.754358</ele>
        <time>2021-06-04T13:02:38.304Z</time>
      </trkpt>
      <trkpt lat="47.48635" lon="-2.79419">
        <ele>6.049759</ele>
        <time>2021-06-04T13:02:55.768Z</time>
      </trkpt>
      <trkpt lat="47.48631" lon="-2.79447">
        <ele>6.140088</ele>
        <time>2021-06-04T13:03:01.128Z</time>
      </trkpt>
      <trkpt lat="47.48625" lon="-2.79495">
        <ele>6.133639</ele>
        <time>2021-06-04T13:03:09.440Z</time>
      </trkpt>
      <trkpt lat="47.48621" lon="-2.7955">
        <ele>6.063777</ele>
        <time>2021-06-04T13:03:17.973Z</time>
      </trkpt>
      <trkpt lat="47.48622" lon="-2.79596">
        <ele>6.005237</ele>
        <time>2021-06-04T13:03:24.669Z</time>
      </trkpt>
      <trkpt lat="47.48639" lon="-2.79724">
        <ele>5.84328</ele>
        <time>2021-06-04T13:03:43.259Z</time>
      </trkpt>
      <trkpt lat="47.4864" lon="-2.79739">
        <ele>5.841869</ele>
        <time>2021-06-04T13:03:45.525Z</time>
      </trkpt>
      <trkpt lat="47.4864" lon="-2.79751">
        <ele>5.840792</ele>
        <time>2021-06-04T13:03:47.407Z</time>
      </trkpt>
      <trkpt lat="47.48641" lon="-2.7976">
        <ele>5.839954</ele>
        <time>2021-06-04T13:03:48.871Z</time>
      </trkpt>
      <trkpt lat="47.48641" lon="-2.79765">
        <ele>5.839467</ele>
        <time>2021-06-04T13:03:49.658Z</time>
      </trkpt>
      <trkpt lat="47.48643" lon="-2.79773">
        <ele>5.838702</ele>
        <time>2021-06-04T13:03:50.877Z</time>
      </trkpt>
      <trkpt lat="47.48654" lon="-2.79803">
        <ele>5.83549</ele>
        <time>2021-06-04T13:03:56.330Z</time>
      </trkpt>
      <trkpt lat="47.48662" lon="-2.7982">
        <ele>5.833596</ele>
        <time>2021-06-04T13:03:59.418Z</time>
      </trkpt>
      <trkpt lat="47.48655" lon="-2.79815">
        <ele>5.832538</ele>
        <time>2021-06-04T13:04:01.164Z</time>
      </trkpt>
      <trkpt lat="47.48635" lon="-2.79782">
        <ele>5.828418</ele>
        <time>2021-06-04T13:04:08.195Z</time>
      </trkpt>
      <trkpt lat="47.48618" lon="-2.79766">
        <ele>5.82564</ele>
        <time>2021-06-04T13:04:13.023Z</time>
      </trkpt>
      <trkpt lat="47.48614" lon="-2.79761">
        <ele>5.824995</ele>
        <time>2021-06-04T13:04:14.091Z</time>
      </trkpt>
      <trkpt lat="47.48621" lon="-2.79759">
        <ele>5.823997</ele>
        <time>2021-06-04T13:04:15.782Z</time>
      </trkpt>
      <trkpt lat="47.48636" lon="-2.79745">
        <ele>5.821521</ele>
        <time>2021-06-04T13:04:19.848Z</time>
      </trkpt>
      <trkpt lat="47.48636" lon="-2.79745">
        <ele>5.821521</ele>
        <time>2021-06-04T13:04:19.891Z</time>
      </trkpt>
      <trkpt lat="47.4864" lon="-2.79739">
        <ele>5.820798</ele>
        <time>2021-06-04T13:04:21.238Z</time>
      </trkpt>
      <trkpt lat="47.48639" lon="-2.79724">
        <ele>5.819387</ele>
        <time>2021-06-04T13:04:23.712Z</time>
      </trkpt>
      <trkpt lat="47.48622" lon="-2.79596">
        <ele>6.171755</ele>
        <time>2021-06-04T13:04:46.050Z</time>
      </trkpt>
      <trkpt lat="47.48621" lon="-2.7955">
        <ele>6.304229</ele>
        <time>2021-06-04T13:04:54.305Z</time>
      </trkpt>
      <trkpt lat="47.48625" lon="-2.79495">
        <ele>6.462327</ele>
        <time>2021-06-04T13:05:03.631Z</time>
      </trkpt>
      <trkpt lat="47.48645" lon="-2.79504">
        <ele>6.549543</ele>
        <time>2021-06-04T13:05:08.474Z</time>
      </trkpt>
      <trkpt lat="47.48702" lon="-2.79518">
        <ele>6.587501</ele>
        <time>2021-06-04T13:05:22.156Z</time>
      </trkpt>
      <trkpt lat="47.48747" lon="-2.7952">
        <ele>6.596207</ele>
        <time>2021-06-04T13:05:32.820Z</time>
      </trkpt>
      <trkpt lat="47.48752" lon="-2.79519">
        <ele>6.597106</ele>
        <time>2021-06-04T13:05:33.883Z</time>
      </trkpt>
      <trkpt lat="47.48782" lon="-2.79514">
        <ele>6.60277</ele>
        <time>2021-06-04T13:05:40.788Z</time>
      </trkpt>
      <trkpt lat="47.48804" lon="-2.79512">
        <ele>6.606975</ele>
        <time>2021-06-04T13:05:45.937Z</time>
      </trkpt>
      <trkpt lat="47.4881" lon="-2.79514">
        <ele>6.608091</ele>
        <time>2021-06-04T13:05:47.293Z</time>
      </trkpt>
      <trkpt lat="47.48817" lon="-2.79516">
        <ele>6.609448</ele>
        <time>2021-06-04T13:05:48.913Z</time>
      </trkpt>
      <trkpt lat="47.4898" lon="-2.7958">
        <ele>6.217502</ele>
        <time>2021-06-04T13:06:26.397Z</time>
      </trkpt>
      <trkpt lat="47.48992" lon="-2.79584">
        <ele>6.187409</ele>
        <time>2021-06-04T13:06:29.084Z</time>
      </trkpt>
      <trkpt lat="47.49001" lon="-2.79588">
        <ele>6.163424</ele>
        <time>2021-06-04T13:06:31.104Z</time>
      </trkpt>
      <trkpt lat="47.49005" lon="-2.79559">
        <ele>6.207574</ele>
        <time>2021-06-04T13:06:35.589Z</time>
      </trkpt>
      <trkpt lat="47.4901" lon="-2.79522">
        <ele>6.284212</ele>
        <time>2021-06-04T13:06:41.025Z</time>
      </trkpt>
      <trkpt lat="47.49015" lon="-2.79458">
        <ele>6.415766</ele>
        <time>2021-06-04T13:06:51.080Z</time>
      </trkpt>
      <trkpt lat="47.49017" lon="-2.79439">
        <ele>6.456252</ele>
        <time>2021-06-04T13:06:54.209Z</time>
      </trkpt>
      <trkpt lat="47.49022" lon="-2.79415">
        <ele>6.506135</ele>
        <time>2021-06-04T13:06:57.801Z</time>
      </trkpt>
      <trkpt lat="47.49029" lon="-2.79419">
        <ele>6.528833</ele>
        <time>2021-06-04T13:07:00.044Z</time>
      </trkpt>
      <trkpt lat="47.49164" lon="-2.79425">
        <ele>8.381488</ele>
        <time>2021-06-04T13:07:35.828Z</time>
      </trkpt>
      <trkpt lat="47.49175" lon="-2.79423">
        <ele>8.613778</ele>
        <time>2021-06-04T13:07:39.889Z</time>
      </trkpt>
      <trkpt lat="47.49188" lon="-2.79419">
        <ele>8.893506</ele>
        <time>2021-06-04T13:07:43.734Z</time>
      </trkpt>
      <trkpt lat="47.49201" lon="-2.79415">
        <ele>9.175702</ele>
        <time>2021-06-04T13:07:47.547Z</time>
      </trkpt>
      <trkpt lat="47.49239" lon="-2.79403">
        <ele>10.000043</ele>
        <time>2021-06-04T13:08:00.779Z</time>
      </trkpt>
      <trkpt lat="47.49256" lon="-2.79398">
        <ele>10.368489</ele>
        <time>2021-06-04T13:08:06.578Z</time>
      </trkpt>
      <trkpt lat="47.49267" lon="-2.79392">
        <ele>10.733677</ele>
        <time>2021-06-04T13:08:10.028Z</time>
      </trkpt>
      <trkpt lat="47.49276" lon="-2.79383">
        <ele>11.2846</ele>
        <time>2021-06-04T13:08:15.214Z</time>
      </trkpt>
      <trkpt lat="47.49314" lon="-2.79312">
        <ele>14.252247</ele>
        <time>2021-06-04T13:08:39.863Z</time>
      </trkpt>
      <trkpt lat="47.49326" lon="-2.79306">
        <ele>14.893071</ele>
        <time>2021-06-04T13:08:46.374Z</time>
      </trkpt>
      <trkpt lat="47.49332" lon="-2.79308">
        <ele>15.201045</ele>
        <time>2021-06-04T13:08:49.243Z</time>
      </trkpt>
      <trkpt lat="47.49346" lon="-2.79311">
        <ele>15.862022</ele>
        <time>2021-06-04T13:08:54.283Z</time>
      </trkpt>
      <trkpt lat="47.49352" lon="-2.79317">
        <ele>16.217941</ele>
        <time>2021-06-04T13:08:57.984Z</time>
      </trkpt>
      <trkpt lat="47.49355" lon="-2.79323">
        <ele>16.475431</ele>
        <time>2021-06-04T13:09:00.984Z</time>
      </trkpt>
      <trkpt lat="47.49368" lon="-2.79377">
        <ele>18.370132</ele>
        <time>2021-06-04T13:09:18.168Z</time>
      </trkpt>
      <trkpt lat="47.49374" lon="-2.79387">
        <ele>18.804418</ele>
        <time>2021-06-04T13:09:22.239Z</time>
      </trkpt>
      <trkpt lat="47.49376" lon="-2.79389">
        <ele>18.930522</ele>
        <time>2021-06-04T13:09:23.329Z</time>
      </trkpt>
      <trkpt lat="47.49381" lon="-2.79393">
        <ele>19.192101</ele>
        <time>2021-06-04T13:09:24.934Z</time>
      </trkpt>
      <trkpt lat="47.49387" lon="-2.79396">
        <ele>19.464606</ele>
        <time>2021-06-04T13:09:27.703Z</time>
      </trkpt>
      <trkpt lat="47.49408" lon="-2.79401">
        <ele>20.206675</ele>
        <time>2021-06-04T13:09:37.263Z</time>
      </trkpt>
      <trkpt lat="47.49478" lon="-2.79419">
        <ele>22.733157</ele>
        <time>2021-06-04T13:10:06.220Z</time>
      </trkpt>
      <trkpt lat="47.49532" lon="-2.79432">
        <ele>24.649847</ele>
        <time>2021-06-04T13:10:24.497Z</time>
      </trkpt>
      <trkpt lat="47.4956" lon="-2.79443">
        <ele>25.66856</ele>
        <time>2021-06-04T13:10:32.954Z</time>
      </trkpt>
      <trkpt lat="47.49592" lon="-2.79447">
        <ele>25.983754</ele>
        <time>2021-06-04T13:10:40.575Z</time>
      </trkpt>
      <trkpt lat="47.49671" lon="-2.79416">
        <ele>26.769889</ele>
        <time>2021-06-04T13:11:00.255Z</time>
      </trkpt>
      <trkpt lat="47.49731" lon="-2.79395">
        <ele>27.370929</ele>
        <time>2021-06-04T13:11:16.541Z</time>
      </trkpt>
      <trkpt lat="47.49735" lon="-2.79521">
        <ele>29.057118</ele>
        <time>2021-06-04T13:11:42.107Z</time>
      </trkpt>
      <trkpt lat="47.49737" lon="-2.79593">
        <ele>30.029573</ele>
        <time>2021-06-04T13:11:58.064Z</time>
      </trkpt>
      <trkpt lat="47.49749" lon="-2.7966">
        <ele>30.966792</ele>
        <time>2021-06-04T13:12:14.119Z</time>
      </trkpt>
      <trkpt lat="47.49767" lon="-2.79733">
        <ele>31.706154</ele>
        <time>2021-06-04T13:12:31.066Z</time>
      </trkpt>
      <trkpt lat="47.49782" lon="-2.79789">
        <ele>32.264844</ele>
        <time>2021-06-04T13:12:42.761Z</time>
      </trkpt>
      <trkpt lat="47.49835" lon="-2.79772">
        <ele>33.014999</ele>
        <time>2021-06-04T13:12:57.196Z</time>
      </trkpt>
      <trkpt lat="47.49856" lon="-2.79768">
        <ele>33.305019</ele>
        <time>2021-06-04T13:13:02.843Z</time>
      </trkpt>
      <trkpt lat="47.49875" lon="-2.7976">
        <ele>33.508413</ele>
        <time>2021-06-04T13:13:07.910Z</time>
      </trkpt>
      <trkpt lat="47.49887" lon="-2.79753">
        <ele>33.549913</ele>
        <time>2021-06-04T13:13:11.226Z</time>
      </trkpt>
      <trkpt lat="47.49894" lon="-2.79746">
        <ele>33.576341</ele>
        <time>2021-06-04T13:13:13.254Z</time>
      </trkpt>
      <trkpt lat="47.49908" lon="-2.79735">
        <ele>33.630961</ele>
        <time>2021-06-04T13:13:17.715Z</time>
      </trkpt>
      <trkpt lat="47.49947" lon="-2.79721">
        <ele>33.760012</ele>
        <time>2021-06-04T13:13:27.783Z</time>
      </trkpt>
      <trkpt lat="47.49967" lon="-2.79719">
        <ele>33.82522</ele>
        <time>2021-06-04T13:13:32.759Z</time>
      </trkpt>
      <trkpt lat="47.49974" lon="-2.7972">
        <ele>33.850342</ele>
        <time>2021-06-04T13:13:35.704Z</time>
      </trkpt>
      <trkpt lat="47.49987" lon="-2.79732">
        <ele>33.899003</ele>
        <time>2021-06-04T13:13:41.299Z</time>
      </trkpt>
      <trkpt lat="47.49995" lon="-2.79739">
        <ele>33.930193</ele>
        <time>2021-06-04T13:13:44.877Z</time>
      </trkpt>
      <trkpt lat="47.50005" lon="-2.79753">
        <ele>33.975992</ele>
        <time>2021-06-04T13:13:48.422Z</time>
      </trkpt>
      <trkpt lat="47.50029" lon="-2.79773">
        <ele>34.066121</ele>
        <time>2021-06-04T13:13:55.390Z</time>
      </trkpt>
      <trkpt lat="47.50072" lon="-2.798">
        <ele>34.360475</ele>
        <time>2021-06-04T13:14:07.470Z</time>
      </trkpt>
      <trkpt lat="47.5008" lon="-2.79803">
        <ele>34.4161</ele>
        <time>2021-06-04T13:14:09.696Z</time>
      </trkpt>
      <trkpt lat="47.50117" lon="-2.79818">
        <ele>34.66734</ele>
        <time>2021-06-04T13:14:19.874Z</time>
      </trkpt>
      <trkpt lat="47.50285" lon="-2.79833">
        <ele>36.055939</ele>
        <time>2021-06-04T13:15:08.001Z</time>
      </trkpt>
      <trkpt lat="47.50299" lon="-2.79838">
        <ele>36.199183</ele>
        <time>2021-06-04T13:15:11.989Z</time>
      </trkpt>
      <trkpt lat="47.50351" lon="-2.79858">
        <ele>36.746882</ele>
        <time>2021-06-04T13:15:27.769Z</time>
      </trkpt>
      <trkpt lat="47.50413" lon="-2.7985">
        <ele>37.300631</ele>
        <time>2021-06-04T13:15:45.283Z</time>
      </trkpt>
      <trkpt lat="47.50425" lon="-2.79847">
        <ele>37.393352</ele>
        <time>2021-06-04T13:15:49.173Z</time>
      </trkpt>
      <trkpt lat="47.50421" lon="-2.79827">
        <ele>37.496408</ele>
        <time>2021-06-04T13:15:52.866Z</time>
      </trkpt>
      <trkpt lat="47.50414" lon="-2.79787">
        <ele>37.703598</ele>
        <time>2021-06-04T13:16:00.654Z</time>
      </trkpt>
      <trkpt lat="47.50415" lon="-2.79687">
        <ele>38.198337</ele>
        <time>2021-06-04T13:16:17.990Z</time>
      </trkpt>
      <trkpt lat="47.50447" lon="-2.79691">
        <ele>38.422654</ele>
        <time>2021-06-04T13:16:25.685Z</time>
      </trkpt>
      <trkpt lat="47.50473" lon="-2.79687">
        <ele>38.480005</ele>
        <time>2021-06-04T13:16:31.468Z</time>
      </trkpt>
      <trkpt lat="47.50525" lon="-2.79663">
        <ele>38.600556</ele>
        <time>2021-06-04T13:16:43.764Z</time>
      </trkpt>
      <trkpt lat="47.50605" lon="-2.79671">
        <ele>38.781049</ele>
        <time>2021-06-04T13:17:02.738Z</time>
      </trkpt>
      <trkpt lat="47.50658" lon="-2.79663">
        <ele>38.90567</ele>
        <time>2021-06-04T13:17:14.603Z</time>
      </trkpt>
      <trkpt lat="47.50672" lon="-2.79666">
        <ele>38.93934</ele>
        <time>2021-06-04T13:17:17.743Z</time>
      </trkpt>
      <trkpt lat="47.50784" lon="-2.79754">
        <ele>39.246863</ele>
        <time>2021-06-04T13:17:47.158Z</time>
      </trkpt>
      <trkpt lat="47.50883" lon="-2.79842">
        <ele>39.661258</ele>
        <time>2021-06-04T13:18:14.990Z</time>
      </trkpt>
      <trkpt lat="47.50886" lon="-2.79844">
        <ele>39.672581</ele>
        <time>2021-06-04T13:18:15.943Z</time>
      </trkpt>
      <trkpt lat="47.50895" lon="-2.79855">
        <ele>39.714533</ele>
        <time>2021-06-04T13:18:18.715Z</time>
      </trkpt>
      <trkpt lat="47.51023" lon="-2.79927">
        <ele>39.964925</ele>
        <time>2021-06-04T13:18:50.373Z</time>
      </trkpt>
      <trkpt lat="47.51064" lon="-2.79989">
        <ele>40.007711</ele>
        <time>2021-06-04T13:19:03.316Z</time>
      </trkpt>
      <trkpt lat="47.51073" lon="-2.79987">
        <ele>40.014811</ele>
        <time>2021-06-04T13:19:06.840Z</time>
      </trkpt>
      <trkpt lat="47.51131" lon="-2.79947">
        <ele>40.00695</ele>
        <time>2021-06-04T13:19:30.267Z</time>
      </trkpt>
      <trkpt lat="47.51163" lon="-2.7991">
        <ele>39.976532</ele>
        <time>2021-06-04T13:19:45.176Z</time>
      </trkpt>
      <trkpt lat="47.51246" lon="-2.79891">
        <ele>39.914201</ele>
        <time>2021-06-04T13:20:16.017Z</time>
      </trkpt>
      <trkpt lat="47.51287" lon="-2.79897">
        <ele>39.872395</ele>
        <time>2021-06-04T13:20:31.346Z</time>
      </trkpt>
      <trkpt lat="47.51328" lon="-2.79914">
        <ele>39.81919</ele>
        <time>2021-06-04T13:20:47.172Z</time>
      </trkpt>
      <trkpt lat="47.51339" lon="-2.79939">
        <ele>39.794178</ele>
        <time>2021-06-04T13:20:54.611Z</time>
      </trkpt>
      <trkpt lat="47.51346" lon="-2.79947">
        <ele>39.783366</ele>
        <time>2021-06-04T13:20:57.803Z</time>
      </trkpt>
      <trkpt lat="47.51351" lon="-2.79951">
        <ele>39.776078</ele>
        <time>2021-06-04T13:20:59.944Z</time>
      </trkpt>
      <trkpt lat="47.51363" lon="-2.7992">
        <ele>39.746332</ele>
        <time>2021-06-04T13:21:05.165Z</time>
      </trkpt>
      <trkpt lat="47.51388" lon="-2.79931">
        <ele>39.714407</ele>
        <time>2021-06-04T13:21:10.929Z</time>
      </trkpt>
      <trkpt lat="47.51392" lon="-2.79933">
        <ele>39.708877</ele>
        <time>2021-06-04T13:21:11.918Z</time>
      </trkpt>
      <trkpt lat="47.51478" lon="-2.7996">
        <ele>39.387496</ele>
        <time>2021-06-04T13:21:31.106Z</time>
      </trkpt>
      <trkpt lat="47.51527" lon="-2.80002">
        <ele>39.119526</ele>
        <time>2021-06-04T13:21:43.204Z</time>
      </trkpt>
      <trkpt lat="47.51589" lon="-2.80039">
        <ele>38.797246</ele>
        <time>2021-06-04T13:21:57.631Z</time>
      </trkpt>
      <trkpt lat="47.5162" lon="-2.8004">
        <ele>38.597752</ele>
        <time>2021-06-04T13:22:04.568Z</time>
      </trkpt>
      <trkpt lat="47.51625" lon="-2.80037">
        <ele>38.564969</ele>
        <time>2021-06-04T13:22:05.546Z</time>
      </trkpt>
      <trkpt lat="47.51631" lon="-2.80033">
        <ele>38.52256</ele>
        <time>2021-06-04T13:22:06.900Z</time>
      </trkpt>
      <trkpt lat="47.51706" lon="-2.79973">
        <ele>37.973816</ele>
        <time>2021-06-04T13:22:24.779Z</time>
      </trkpt>
      <trkpt lat="47.5174" lon="-2.79976">
        <ele>37.756151</ele>
        <time>2021-06-04T13:22:31.831Z</time>
      </trkpt>
      <trkpt lat="47.51761" lon="-2.79978">
        <ele>37.618002</ele>
        <time>2021-06-04T13:22:36.215Z</time>
      </trkpt>
      <trkpt lat="47.51768" lon="-2.79979">
        <ele>37.573442</ele>
        <time>2021-06-04T13:22:38.336Z</time>
      </trkpt>
      <trkpt lat="47.51826" lon="-2.79976">
        <ele>37.177806</ele>
        <time>2021-06-04T13:22:58.706Z</time>
      </trkpt>
      <trkpt lat="47.51906" lon="-2.79915">
        <ele>36.560546</ele>
        <time>2021-06-04T13:23:29.803Z</time>
      </trkpt>
      <trkpt lat="47.51964" lon="-2.79904">
        <ele>36.1463</ele>
        <time>2021-06-04T13:23:50.241Z</time>
      </trkpt>
      <trkpt lat="47.51971" lon="-2.79887">
        <ele>36.047944</ele>
        <time>2021-06-04T13:23:55.061Z</time>
      </trkpt>
      <trkpt lat="47.51969" lon="-2.79822">
        <ele>35.732704</ele>
        <time>2021-06-04T13:24:10.440Z</time>
      </trkpt>
      <trkpt lat="47.51972" lon="-2.79809">
        <ele>35.665188</ele>
        <time>2021-06-04T13:24:13.751Z</time>
      </trkpt>
      <trkpt lat="47.51973" lon="-2.79802">
        <ele>35.629736</ele>
        <time>2021-06-04T13:24:15.450Z</time>
      </trkpt>
      <trkpt lat="47.51976" lon="-2.79788">
        <ele>35.555704</ele>
        <time>2021-06-04T13:24:19.086Z</time>
      </trkpt>
      <trkpt lat="47.51977" lon="-2.7978">
        <ele>35.516883</ele>
        <time>2021-06-04T13:24:20.989Z</time>
      </trkpt>
      <trkpt lat="47.51999" lon="-2.79765">
        <ele>35.342156</ele>
        <time>2021-06-04T13:24:25.974Z</time>
      </trkpt>
      <trkpt lat="47.52126" lon="-2.7968">
        <ele>33.612917</ele>
        <time>2021-06-04T13:24:53.651Z</time>
      </trkpt>
      <trkpt lat="47.52131" lon="-2.79678">
        <ele>33.542709</ele>
        <time>2021-06-04T13:24:54.565Z</time>
      </trkpt>
      <trkpt lat="47.522" lon="-2.79626">
        <ele>32.469747</ele>
        <time>2021-06-04T13:25:09.149Z</time>
      </trkpt>
      <trkpt lat="47.52205" lon="-2.79621">
        <ele>32.377683</ele>
        <time>2021-06-04T13:25:10.235Z</time>
      </trkpt>
      <trkpt lat="47.52276" lon="-2.79541">
        <ele>31.029993</ele>
        <time>2021-06-04T13:25:27.089Z</time>
      </trkpt>
      <trkpt lat="47.52328" lon="-2.79475">
        <ele>29.994956</ele>
        <time>2021-06-04T13:25:40.624Z</time>
      </trkpt>
      <trkpt lat="47.52353" lon="-2.79446">
        <ele>29.884463</ele>
        <time>2021-06-04T13:25:47.074Z</time>
      </trkpt>
      <trkpt lat="47.52374" lon="-2.79421">
        <ele>29.789496</ele>
        <time>2021-06-04T13:25:52.765Z</time>
      </trkpt>
      <trkpt lat="47.52392" lon="-2.79409">
        <ele>29.718875</ele>
        <time>2021-06-04T13:25:57.122Z</time>
      </trkpt>
      <trkpt lat="47.52417" lon="-2.79406">
        <ele>29.630446</ele>
        <time>2021-06-04T13:26:02.710Z</time>
      </trkpt>
      <trkpt lat="47.52421" lon="-2.79407">
        <ele>29.614071</ele>
        <time>2021-06-04T13:26:03.807Z</time>
      </trkpt>
      <trkpt lat="47.52434" lon="-2.79408">
        <ele>29.568165</ele>
        <time>2021-06-04T13:26:06.810Z</time>
      </trkpt>
      <trkpt lat="47.52434" lon="-2.79414">
        <ele>29.554732</ele>
        <time>2021-06-04T13:26:07.622Z</time>
      </trkpt>
      <trkpt lat="47.52447" lon="-2.79416">
        <ele>29.50699</ele>
        <time>2021-06-04T13:26:10.669Z</time>
      </trkpt>
      <trkpt lat="47.52516" lon="-2.79426">
        <ele>29.419246</ele>
        <time>2021-06-04T13:26:26.366Z</time>
      </trkpt>
      <trkpt lat="47.52552" lon="-2.79431">
        <ele>29.499857</ele>
        <time>2021-06-04T13:26:34.354Z</time>
      </trkpt>
      <trkpt lat="47.52607" lon="-2.79437">
        <ele>29.619918</ele>
        <time>2021-06-04T13:26:46.882Z</time>
      </trkpt>
      <trkpt lat="47.52615" lon="-2.79438">
        <ele>29.639334</ele>
        <time>2021-06-04T13:26:48.769Z</time>
      </trkpt>
      <trkpt lat="47.52625" lon="-2.79438">
        <ele>29.660018</ele>
        <time>2021-06-04T13:26:50.900Z</time>
      </trkpt>
      <trkpt lat="47.5263" lon="-2.79441">
        <ele>29.671535</ele>
        <time>2021-06-04T13:26:52.225Z</time>
      </trkpt>
      <trkpt lat="47.52636" lon="-2.79446">
        <ele>29.686829</ele>
        <time>2021-06-04T13:26:54.011Z</time>
      </trkpt>
      <trkpt lat="47.52655" lon="-2.7946">
        <ele>29.733187</ele>
        <time>2021-06-04T13:26:59.029Z</time>
      </trkpt>
      <trkpt lat="47.5267" lon="-2.79465">
        <ele>29.809871</ele>
        <time>2021-06-04T13:27:03.309Z</time>
      </trkpt>
      <trkpt lat="47.52674" lon="-2.7946">
        <ele>29.850949</ele>
        <time>2021-06-04T13:27:04.537Z</time>
      </trkpt>
      <trkpt lat="47.52678" lon="-2.79457">
        <ele>29.892794</ele>
        <time>2021-06-04T13:27:05.528Z</time>
      </trkpt>
      <trkpt lat="47.52678" lon="-2.79457">
        <ele>29.892794</ele>
        <time>2021-06-04T13:27:05.534Z</time>
      </trkpt>
      <trkpt lat="47.52686" lon="-2.79452">
        <ele>29.972568</ele>
        <time>2021-06-04T13:27:07.725Z</time>
      </trkpt>
      <trkpt lat="47.52693" lon="-2.79429">
        <ele>30.124789</ele>
        <time>2021-06-04T13:27:12.261Z</time>
      </trkpt>
      <trkpt lat="47.52693" lon="-2.79418">
        <ele>30.189489</ele>
        <time>2021-06-04T13:27:14.552Z</time>
      </trkpt>
      <trkpt lat="47.52692" lon="-2.79407">
        <ele>30.257127</ele>
        <time>2021-06-04T13:27:16.314Z</time>
      </trkpt>
      <trkpt lat="47.52688" lon="-2.79391">
        <ele>30.362509</ele>
        <time>2021-06-04T13:27:19.225Z</time>
      </trkpt>
      <trkpt lat="47.52694" lon="-2.79366">
        <ele>30.521932</ele>
        <time>2021-06-04T13:27:24.254Z</time>
      </trkpt>
      <trkpt lat="47.52696" lon="-2.79326">
        <ele>30.762607</ele>
        <time>2021-06-04T13:27:30.957Z</time>
      </trkpt>
      <trkpt lat="47.52685" lon="-2.79297">
        <ele>30.960262</ele>
        <time>2021-06-04T13:27:36.848Z</time>
      </trkpt>
      <trkpt lat="47.52641" lon="-2.79256">
        <ele>31.46502</ele>
        <time>2021-06-04T13:27:51.650Z</time>
      </trkpt>
      <trkpt lat="47.52638" lon="-2.79254">
        <ele>31.505711</ele>
        <time>2021-06-04T13:27:52.984Z</time>
      </trkpt>
      <trkpt lat="47.52627" lon="-2.79239">
        <ele>31.732409</ele>
        <time>2021-06-04T13:27:57.520Z</time>
      </trkpt>
      <trkpt lat="47.52617" lon="-2.7921">
        <ele>32.04592</ele>
        <time>2021-06-04T13:28:04.587Z</time>
      </trkpt>
      <trkpt lat="47.52614" lon="-2.79189">
        <ele>32.251639</ele>
        <time>2021-06-04T13:28:08.738Z</time>
      </trkpt>
      <trkpt lat="47.5261" lon="-2.79191">
        <ele>32.314074</ele>
        <time>2021-06-04T13:28:09.969Z</time>
      </trkpt>
      <trkpt lat="47.52609" lon="-2.79145">
        <ele>32.759019</ele>
        <time>2021-06-04T13:28:19.169Z</time>
      </trkpt>
      <trkpt lat="47.52607" lon="-2.79076">
        <ele>33.429486</ele>
        <time>2021-06-04T13:28:32.147Z</time>
      </trkpt>
      <trkpt lat="47.52607" lon="-2.79071">
        <ele>33.473014</ele>
        <time>2021-06-04T13:28:33.015Z</time>
      </trkpt>
      <trkpt lat="47.52604" lon="-2.78972">
        <ele>34.31075</ele>
        <time>2021-06-04T13:28:52.052Z</time>
      </trkpt>
      <trkpt lat="47.52604" lon="-2.78966">
        <ele>34.354249</ele>
        <time>2021-06-04T13:28:53.242Z</time>
      </trkpt>
      <trkpt lat="47.52603" lon="-2.78939">
        <ele>34.555834</ele>
        <time>2021-06-04T13:28:58.474Z</time>
      </trkpt>
      <trkpt lat="47.52603" lon="-2.78928">
        <ele>34.635977</ele>
        <time>2021-06-04T13:29:00.512Z</time>
      </trkpt>
      <trkpt lat="47.52603" lon="-2.78918">
        <ele>34.709625</ele>
        <time>2021-06-04T13:29:02.382Z</time>
      </trkpt>
      <trkpt lat="47.52602" lon="-2.78878">
        <ele>35.004678</ele>
        <time>2021-06-04T13:29:09.815Z</time>
      </trkpt>
      <trkpt lat="47.52601" lon="-2.78851">
        <ele>35.204838</ele>
        <time>2021-06-04T13:29:14.865Z</time>
      </trkpt>
      <trkpt lat="47.526" lon="-2.78793">
        <ele>35.630785</ele>
        <time>2021-06-04T13:29:25.541Z</time>
      </trkpt>
      <trkpt lat="47.526" lon="-2.78784">
        <ele>35.693285</ele>
        <time>2021-06-04T13:29:27.071Z</time>
      </trkpt>
      <trkpt lat="47.52598" lon="-2.78731">
        <ele>36.025366</ele>
        <time>2021-06-04T13:29:36.651Z</time>
      </trkpt>
      <trkpt lat="47.52597" lon="-2.787">
        <ele>36.185233</ele>
        <time>2021-06-04T13:29:42.228Z</time>
      </trkpt>
      <trkpt lat="47.52596" lon="-2.78667">
        <ele>36.352292</ele>
        <time>2021-06-04T13:29:47.996Z</time>
      </trkpt>
      <trkpt lat="47.52594" lon="-2.78644">
        <ele>36.473041</ele>
        <time>2021-06-04T13:29:52.437Z</time>
      </trkpt>
      <trkpt lat="47.52591" lon="-2.78614">
        <ele>36.627485</ele>
        <time>2021-06-04T13:29:57.791Z</time>
      </trkpt>
      <trkpt lat="47.52586" lon="-2.78564">
        <ele>36.885436</ele>
        <time>2021-06-04T13:30:06.449Z</time>
      </trkpt>
      <trkpt lat="47.52577" lon="-2.78482">
        <ele>37.352914</ele>
        <time>2021-06-04T13:30:20.531Z</time>
      </trkpt>
      <trkpt lat="47.52576" lon="-2.78476">
        <ele>37.412409</ele>
        <time>2021-06-04T13:30:21.510Z</time>
      </trkpt>
      <trkpt lat="47.52573" lon="-2.78444">
        <ele>37.723675</ele>
        <time>2021-06-04T13:30:27.558Z</time>
      </trkpt>
      <trkpt lat="47.52564" lon="-2.78326">
        <ele>38.846027</ele>
        <time>2021-06-04T13:30:50.468Z</time>
      </trkpt>
      <trkpt lat="47.52559" lon="-2.78249">
        <ele>39.580041</ele>
        <time>2021-06-04T13:31:05.855Z</time>
      </trkpt>
      <trkpt lat="47.52556" lon="-2.78249">
        <ele>39.623748</ele>
        <time>2021-06-04T13:31:06.658Z</time>
      </trkpt>
      <trkpt lat="47.52555" lon="-2.78232">
        <ele>39.794413</ele>
        <time>2021-06-04T13:31:10.373Z</time>
      </trkpt>
      <trkpt lat="47.52554" lon="-2.78222">
        <ele>39.90777</ele>
        <time>2021-06-04T13:31:12.648Z</time>
      </trkpt>
      <trkpt lat="47.52549" lon="-2.78133">
        <ele>40.920268</ele>
        <time>2021-06-04T13:31:31.554Z</time>
      </trkpt>
      <trkpt lat="47.52549" lon="-2.78128">
        <ele>40.98544</ele>
        <time>2021-06-04T13:31:33.079Z</time>
      </trkpt>
      <trkpt lat="47.52549" lon="-2.78122">
        <ele>41.049404</ele>
        <time>2021-06-04T13:31:34.323Z</time>
      </trkpt>
      <trkpt lat="47.52549" lon="-2.78118">
        <ele>41.092827</ele>
        <time>2021-06-04T13:31:35.214Z</time>
      </trkpt>
      <trkpt lat="47.52548" lon="-2.781">
        <ele>41.297388</ele>
        <time>2021-06-04T13:31:39.527Z</time>
      </trkpt>
      <trkpt lat="47.52538" lon="-2.7776">
        <ele>42.843858</ele>
        <time>2021-06-04T13:32:43.159Z</time>
      </trkpt>
      <trkpt lat="47.52603" lon="-2.77327">
        <ele>35.284887</ele>
        <time>2021-06-04T13:33:34.774Z</time>
      </trkpt>
      <trkpt lat="47.52606" lon="-2.77306">
        <ele>34.888325</ele>
        <time>2021-06-04T13:33:37.135Z</time>
      </trkpt>
      <trkpt lat="47.52607" lon="-2.77307">
        <ele>34.835211</ele>
        <time>2021-06-04T13:33:37.487Z</time>
      </trkpt>
      <trkpt lat="47.52606" lon="-2.77296">
        <ele>34.638029</ele>
        <time>2021-06-04T13:33:38.709Z</time>
      </trkpt>
      <trkpt lat="47.52606" lon="-2.77292">
        <ele>34.547688</ele>
        <time>2021-06-04T13:33:39.267Z</time>
      </trkpt>
      <trkpt lat="47.52604" lon="-2.77292">
        <ele>34.505992</ele>
        <time>2021-06-04T13:33:39.527Z</time>
      </trkpt>
      <trkpt lat="47.52603" lon="-2.77291">
        <ele>34.465478</ele>
        <time>2021-06-04T13:33:39.792Z</time>
      </trkpt>
      <trkpt lat="47.52602" lon="-2.7729">
        <ele>34.425229</ele>
        <time>2021-06-04T13:33:40.048Z</time>
      </trkpt>
      <trkpt lat="47.526" lon="-2.77286">
        <ele>34.345618</ele>
        <time>2021-06-04T13:33:40.568Z</time>
      </trkpt>
      <trkpt lat="47.526" lon="-2.77284">
        <ele>34.304229</ele>
        <time>2021-06-04T13:33:40.824Z</time>
      </trkpt>
      <trkpt lat="47.52601" lon="-2.77282">
        <ele>34.265076</ele>
        <time>2021-06-04T13:33:41.064Z</time>
      </trkpt>
      <trkpt lat="47.52601" lon="-2.7728">
        <ele>34.226087</ele>
        <time>2021-06-04T13:33:41.293Z</time>
      </trkpt>
      <trkpt lat="47.52602" lon="-2.77279">
        <ele>34.185769</ele>
        <time>2021-06-04T13:33:41.521Z</time>
      </trkpt>
      <trkpt lat="47.52604" lon="-2.77278">
        <ele>34.145879</ele>
        <time>2021-06-04T13:33:41.754Z</time>
      </trkpt>
      <trkpt lat="47.52605" lon="-2.77278">
        <ele>34.106557</ele>
        <time>2021-06-04T13:33:41.985Z</time>
      </trkpt>
      <trkpt lat="47.52606" lon="-2.77278">
        <ele>34.066923</ele>
        <time>2021-06-04T13:33:42.219Z</time>
      </trkpt>
      <trkpt lat="47.52611" lon="-2.77264">
        <ele>33.773452</ele>
        <time>2021-06-04T13:33:44.003Z</time>
      </trkpt>
      <trkpt lat="47.52622" lon="-2.77227">
        <ele>33.016333</ele>
        <time>2021-06-04T13:33:48.788Z</time>
      </trkpt>
      <trkpt lat="47.52625" lon="-2.77218">
        <ele>32.830187</ele>
        <time>2021-06-04T13:33:49.919Z</time>
      </trkpt>
      <trkpt lat="47.52638" lon="-2.77157">
        <ele>31.88939</ele>
        <time>2021-06-04T13:33:57.395Z</time>
      </trkpt>
      <trkpt lat="47.52644" lon="-2.77131">
        <ele>31.513915</ele>
        <time>2021-06-04T13:34:00.702Z</time>
      </trkpt>
      <trkpt lat="47.52648" lon="-2.77117">
        <ele>31.312563</ele>
        <time>2021-06-04T13:34:02.426Z</time>
      </trkpt>
      <trkpt lat="47.52652" lon="-2.771">
        <ele>31.074026</ele>
        <time>2021-06-04T13:34:04.591Z</time>
      </trkpt>
      <trkpt lat="47.52708" lon="-2.77122">
        <ele>29.927528</ele>
        <time>2021-06-04T13:34:15.255Z</time>
      </trkpt>
      <trkpt lat="47.5271" lon="-2.77124">
        <ele>29.867834</ele>
        <time>2021-06-04T13:34:15.736Z</time>
      </trkpt>
      <trkpt lat="47.52719" lon="-2.77139">
        <ele>29.598558</ele>
        <time>2021-06-04T13:34:18.300Z</time>
      </trkpt>
      <trkpt lat="47.52721" lon="-2.77147">
        <ele>29.486239</ele>
        <time>2021-06-04T13:34:19.283Z</time>
      </trkpt>
      <trkpt lat="47.52722" lon="-2.7715">
        <ele>29.445218</ele>
        <time>2021-06-04T13:34:19.610Z</time>
      </trkpt>
      <trkpt lat="47.52727" lon="-2.77163">
        <ele>29.246177</ele>
        <time>2021-06-04T13:34:21.504Z</time>
      </trkpt>
      <trkpt lat="47.52727" lon="-2.77163">
        <ele>29.244845</ele>
        <time>2021-06-04T13:34:21.515Z</time>
      </trkpt>
      <trkpt lat="47.5273" lon="-2.7717">
        <ele>29.136524</ele>
        <time>2021-06-04T13:34:22.420Z</time>
      </trkpt>
      <trkpt lat="47.52738" lon="-2.77177">
        <ele>28.948327</ele>
        <time>2021-06-04T13:34:24.132Z</time>
      </trkpt>
      <trkpt lat="47.52787" lon="-2.77214">
        <ele>27.097359</ele>
        <time>2021-06-04T13:34:33.584Z</time>
      </trkpt>
      <trkpt lat="47.52791" lon="-2.77218">
        <ele>26.933147</ele>
        <time>2021-06-04T13:34:34.403Z</time>
      </trkpt>
      <trkpt lat="47.52809" lon="-2.77228">
        <ele>26.277226</ele>
        <time>2021-06-04T13:34:37.672Z</time>
      </trkpt>
      <trkpt lat="47.52845" lon="-2.77251">
        <ele>24.967435</ele>
        <time>2021-06-04T13:34:43.706Z</time>
      </trkpt>
      <trkpt lat="47.52955" lon="-2.77337">
        <ele>19.974045</ele>
        <time>2021-06-04T13:35:03.088Z</time>
      </trkpt>
      <trkpt lat="47.52968" lon="-2.77351">
        <ele>19.23006</ele>
        <time>2021-06-04T13:35:05.418Z</time>
      </trkpt>
      <trkpt lat="47.53014" lon="-2.77398">
        <ele>16.627808</ele>
        <time>2021-06-04T13:35:13.993Z</time>
      </trkpt>
      <trkpt lat="47.53084" lon="-2.77457">
        <ele>13.397316</ele>
        <time>2021-06-04T13:35:26.234Z</time>
      </trkpt>
      <trkpt lat="47.53102" lon="-2.77475">
        <ele>12.708434</ele>
        <time>2021-06-04T13:35:29.570Z</time>
      </trkpt>
      <trkpt lat="47.53113" lon="-2.7749">
        <ele>12.237584</ele>
        <time>2021-06-04T13:35:32.072Z</time>
      </trkpt>
      <trkpt lat="47.53123" lon="-2.77505">
        <ele>11.79216</ele>
        <time>2021-06-04T13:35:34.332Z</time>
      </trkpt>
      <trkpt lat="47.5314" lon="-2.77535">
        <ele>10.944129</ele>
        <time>2021-06-04T13:35:38.825Z</time>
      </trkpt>
      <trkpt lat="47.5315" lon="-2.77551">
        <ele>10.484622</ele>
        <time>2021-06-04T13:35:41.191Z</time>
      </trkpt>
      <trkpt lat="47.53169" lon="-2.77573">
        <ele>9.716873</ele>
        <time>2021-06-04T13:35:45.397Z</time>
      </trkpt>
      <trkpt lat="47.53194" lon="-2.77589">
        <ele>8.84945</ele>
        <time>2021-06-04T13:35:50.171Z</time>
      </trkpt>
      <trkpt lat="47.53292" lon="-2.77631">
        <ele>8.714628</ele>
        <time>2021-06-04T13:36:10.268Z</time>
      </trkpt>
      <trkpt lat="47.53389" lon="-2.77674">
        <ele>8.960295</ele>
        <time>2021-06-04T13:36:37.119Z</time>
      </trkpt>
      <trkpt lat="47.53398" lon="-2.77677">
        <ele>9.113374</ele>
        <time>2021-06-04T13:36:39.834Z</time>
      </trkpt>
      <trkpt lat="47.53423" lon="-2.77689">
        <ele>9.505775</ele>
        <time>2021-06-04T13:36:47.200Z</time>
      </trkpt>
      <trkpt lat="47.53454" lon="-2.77713">
        <ele>10.046571</ele>
        <time>2021-06-04T13:36:57.694Z</time>
      </trkpt>
      <trkpt lat="47.53544" lon="-2.77809">
        <ele>11.400832</ele>
        <time>2021-06-04T13:37:30.250Z</time>
      </trkpt>
      <trkpt lat="47.53558" lon="-2.77824">
        <ele>11.415163</ele>
        <time>2021-06-04T13:37:34.348Z</time>
      </trkpt>
      <trkpt lat="47.5357" lon="-2.77839">
        <ele>11.42951</ele>
        <time>2021-06-04T13:37:38.338Z</time>
      </trkpt>
      <trkpt lat="47.53595" lon="-2.77868">
        <ele>11.456454</ele>
        <time>2021-06-04T13:37:45.331Z</time>
      </trkpt>
      <trkpt lat="47.53645" lon="-2.77961">
        <ele>11.524932</ele>
        <time>2021-06-04T13:38:02.071Z</time>
      </trkpt>
      <trkpt lat="47.53674" lon="-2.78012">
        <ele>11.013859</ele>
        <time>2021-06-04T13:38:10.751Z</time>
      </trkpt>
      <trkpt lat="47.5368" lon="-2.78022">
        <ele>10.877195</ele>
        <time>2021-06-04T13:38:12.411Z</time>
      </trkpt>
      <trkpt lat="47.53691" lon="-2.78034">
        <ele>10.673596</ele>
        <time>2021-06-04T13:38:14.935Z</time>
      </trkpt>
      <trkpt lat="47.53736" lon="-2.78069">
        <ele>9.910529</ele>
        <time>2021-06-04T13:38:24.177Z</time>
      </trkpt>
      <trkpt lat="47.53783" lon="-2.7808">
        <ele>9.189885</ele>
        <time>2021-06-04T13:38:32.753Z</time>
      </trkpt>
      <trkpt lat="47.5391" lon="-2.78099">
        <ele>6.943849</ele>
        <time>2021-06-04T13:38:54.858Z</time>
      </trkpt>
      <trkpt lat="47.53967" lon="-2.78091">
        <ele>5.899938</ele>
        <time>2021-06-04T13:39:05.126Z</time>
      </trkpt>
      <trkpt lat="47.53977" lon="-2.7809">
        <ele>5.70475</ele>
        <time>2021-06-04T13:39:06.959Z</time>
      </trkpt>
      <trkpt lat="47.53988" lon="-2.78092">
        <ele>5.537066</ele>
        <time>2021-06-04T13:39:09.043Z</time>
      </trkpt>
      <trkpt lat="47.5404" lon="-2.78126">
        <ele>5.481497</ele>
        <time>2021-06-04T13:39:20.436Z</time>
      </trkpt>
      <trkpt lat="47.54064" lon="-2.78151">
        <ele>5.452389</ele>
        <time>2021-06-04T13:39:26.932Z</time>
      </trkpt>
      <trkpt lat="47.54084" lon="-2.78176">
        <ele>5.427005</ele>
        <time>2021-06-04T13:39:32.542Z</time>
      </trkpt>
      <trkpt lat="47.54094" lon="-2.78189">
        <ele>5.414071</ele>
        <time>2021-06-04T13:39:35.501Z</time>
      </trkpt>
      <trkpt lat="47.54103" lon="-2.78202">
        <ele>5.401516</ele>
        <time>2021-06-04T13:39:38.127Z</time>
      </trkpt>
      <trkpt lat="47.54105" lon="-2.78206">
        <ele>5.398187</ele>
        <time>2021-06-04T13:39:39.096Z</time>
      </trkpt>
      <trkpt lat="47.5411" lon="-2.78213">
        <ele>5.391676</ele>
        <time>2021-06-04T13:39:40.879Z</time>
      </trkpt>
      <trkpt lat="47.54116" lon="-2.78226">
        <ele>5.381145</ele>
        <time>2021-06-04T13:39:43.562Z</time>
      </trkpt>
      <trkpt lat="47.54118" lon="-2.78231">
        <ele>5.377469</ele>
        <time>2021-06-04T13:39:44.554Z</time>
      </trkpt>
      <trkpt lat="47.54121" lon="-2.78243">
        <ele>5.368967</ele>
        <time>2021-06-04T13:39:46.926Z</time>
      </trkpt>
      <trkpt lat="47.54123" lon="-2.78254">
        <ele>5.376249</ele>
        <time>2021-06-04T13:39:49.293Z</time>
      </trkpt>
      <trkpt lat="47.54128" lon="-2.78275">
        <ele>5.569218</ele>
        <time>2021-06-04T13:39:53.169Z</time>
      </trkpt>
      <trkpt lat="47.54172" lon="-2.78492">
        <ele>7.574541</ele>
        <time>2021-06-04T13:40:36.148Z</time>
      </trkpt>
      <trkpt lat="47.54172" lon="-2.7864">
        <ele>9.049453</ele>
        <time>2021-06-04T13:41:03.784Z</time>
      </trkpt>
      <trkpt lat="47.54176" lon="-2.78662">
        <ele>9.269846</ele>
        <time>2021-06-04T13:41:08.264Z</time>
      </trkpt>
      <trkpt lat="47.54184" lon="-2.78692">
        <ele>9.601469</ele>
        <time>2021-06-04T13:41:14.397Z</time>
      </trkpt>
      <trkpt lat="47.54192" lon="-2.78714">
        <ele>9.853527</ele>
        <time>2021-06-04T13:41:19.411Z</time>
      </trkpt>
      <trkpt lat="47.54206" lon="-2.78748">
        <ele>10.247941</ele>
        <time>2021-06-04T13:41:27.030Z</time>
      </trkpt>
      <trkpt lat="47.54211" lon="-2.78762">
        <ele>10.406979</ele>
        <time>2021-06-04T13:41:30.220Z</time>
      </trkpt>
      <trkpt lat="47.54223" lon="-2.78792">
        <ele>10.678575</ele>
        <time>2021-06-04T13:41:36.826Z</time>
      </trkpt>
      <trkpt lat="47.54238" lon="-2.7882">
        <ele>10.961522</ele>
        <time>2021-06-04T13:41:43.750Z</time>
      </trkpt>
      <trkpt lat="47.54242" lon="-2.78828">
        <ele>11.041079</ele>
        <time>2021-06-04T13:41:45.592Z</time>
      </trkpt>
      <trkpt lat="47.54232" lon="-2.78837">
        <ele>11.177385</ele>
        <time>2021-06-04T13:41:49.121Z</time>
      </trkpt>
      <trkpt lat="47.54198" lon="-2.78871">
        <ele>11.654815</ele>
        <time>2021-06-04T13:42:00.406Z</time>
      </trkpt>
      <trkpt lat="47.54189" lon="-2.78877">
        <ele>11.768332</ele>
        <time>2021-06-04T13:42:03.114Z</time>
      </trkpt>
      <trkpt lat="47.54181" lon="-2.78884">
        <ele>11.876303</ele>
        <time>2021-06-04T13:42:05.472Z</time>
      </trkpt>
      <trkpt lat="47.5416" lon="-2.78907">
        <ele>12.180084</ele>
        <time>2021-06-04T13:42:12.440Z</time>
      </trkpt>
      <trkpt lat="47.54126" lon="-2.78931">
        <ele>12.567732</ele>
        <time>2021-06-04T13:42:22.393Z</time>
      </trkpt>
      <trkpt lat="47.54085" lon="-2.78944">
        <ele>12.854827</ele>
        <time>2021-06-04T13:42:33.480Z</time>
      </trkpt>
      <trkpt lat="47.54072" lon="-2.78949">
        <ele>12.948726</ele>
        <time>2021-06-04T13:42:36.939Z</time>
      </trkpt>
      <trkpt lat="47.54008" lon="-2.78986">
        <ele>13.418151</ele>
        <time>2021-06-04T13:42:54.760Z</time>
      </trkpt>
      <trkpt lat="47.54004" lon="-2.7902">
        <ele>13.575166</ele>
        <time>2021-06-04T13:43:00.789Z</time>
      </trkpt>
      <trkpt lat="47.53998" lon="-2.79057">
        <ele>13.716858</ele>
        <time>2021-06-04T13:43:07.278Z</time>
      </trkpt>
      <trkpt lat="47.53991" lon="-2.79087">
        <ele>13.663292</ele>
        <time>2021-06-04T13:43:12.818Z</time>
      </trkpt>
      <trkpt lat="47.53988" lon="-2.79104">
        <ele>13.63374</ele>
        <time>2021-06-04T13:43:15.841Z</time>
      </trkpt>
      <trkpt lat="47.53981" lon="-2.79199">
        <ele>13.475887</ele>
        <time>2021-06-04T13:43:30.707Z</time>
      </trkpt>
      <trkpt lat="47.53961" lon="-2.79271">
        <ele>13.346775</ele>
        <time>2021-06-04T13:43:42.029Z</time>
      </trkpt>
      <trkpt lat="47.53958" lon="-2.79302">
        <ele>13.295075</ele>
        <time>2021-06-04T13:43:46.279Z</time>
      </trkpt>
      <trkpt lat="47.53972" lon="-2.79304">
        <ele>13.172145</ele>
        <time>2021-06-04T13:43:49.011Z</time>
      </trkpt>
      <trkpt lat="47.53978" lon="-2.79309">
        <ele>13.09213</ele>
        <time>2021-06-04T13:43:50.391Z</time>
      </trkpt>
      <trkpt lat="47.53981" lon="-2.79314">
        <ele>13.042502</ele>
        <time>2021-06-04T13:43:51.152Z</time>
      </trkpt>
      <trkpt lat="47.53969" lon="-2.79334">
        <ele>12.829059</ele>
        <time>2021-06-04T13:43:54.517Z</time>
      </trkpt>
      <trkpt lat="47.53935" lon="-2.79392">
        <ele>12.227529</ele>
        <time>2021-06-04T13:44:04.347Z</time>
      </trkpt>
      <trkpt lat="47.53917" lon="-2.79425">
        <ele>11.904837</ele>
        <time>2021-06-04T13:44:09.619Z</time>
      </trkpt>
      <trkpt lat="47.53888" lon="-2.79492">
        <ele>11.275885</ele>
        <time>2021-06-04T13:44:19.712Z</time>
      </trkpt>
      <trkpt lat="47.53879" lon="-2.79506">
        <ele>11.094602</ele>
        <time>2021-06-04T13:44:22.440Z</time>
      </trkpt>
      <trkpt lat="47.53861" lon="-2.79523">
        <ele>10.762646</ele>
        <time>2021-06-04T13:44:26.487Z</time>
      </trkpt>
      <trkpt lat="47.53842" lon="-2.79533">
        <ele>10.435955</ele>
        <time>2021-06-04T13:44:30.827Z</time>
      </trkpt>
      <trkpt lat="47.53827" lon="-2.79543">
        <ele>10.1855</ele>
        <time>2021-06-04T13:44:33.589Z</time>
      </trkpt>
      <trkpt lat="47.53797" lon="-2.79589">
        <ele>9.50269</ele>
        <time>2021-06-04T13:44:41.501Z</time>
      </trkpt>
      <trkpt lat="47.53749" lon="-2.79694">
        <ele>8.191744</ele>
        <time>2021-06-04T13:44:56.679Z</time>
      </trkpt>
      <trkpt lat="47.53744" lon="-2.79713">
        <ele>8.025361</ele>
        <time>2021-06-04T13:44:58.962Z</time>
      </trkpt>
      <trkpt lat="47.53731" lon="-2.79762">
        <ele>7.587924</ele>
        <time>2021-06-04T13:45:05.248Z</time>
      </trkpt>
      <trkpt lat="47.53721" lon="-2.79823">
        <ele>7.06568</ele>
        <time>2021-06-04T13:45:13.116Z</time>
      </trkpt>
      <trkpt lat="47.53715" lon="-2.79865">
        <ele>6.712335</ele>
        <time>2021-06-04T13:45:18.704Z</time>
      </trkpt>
      <trkpt lat="47.5371" lon="-2.799">
        <ele>6.41703</ele>
        <time>2021-06-04T13:45:23.613Z</time>
      </trkpt>
      <trkpt lat="47.53706" lon="-2.79923">
        <ele>6.2218</ele>
        <time>2021-06-04T13:45:26.792Z</time>
      </trkpt>
      <trkpt lat="47.53705" lon="-2.79936">
        <ele>6.180328</ele>
        <time>2021-06-04T13:45:28.757Z</time>
      </trkpt>
      <trkpt lat="47.53704" lon="-2.79949">
        <ele>6.298736</ele>
        <time>2021-06-04T13:45:30.646Z</time>
      </trkpt>
      <trkpt lat="47.53705" lon="-2.79956">
        <ele>6.361368</ele>
        <time>2021-06-04T13:45:31.751Z</time>
      </trkpt>
      <trkpt lat="47.53706" lon="-2.79961">
        <ele>6.407623</ele>
        <time>2021-06-04T13:45:32.768Z</time>
      </trkpt>
      <trkpt lat="47.53711" lon="-2.7997">
        <ele>6.513621</ele>
        <time>2021-06-04T13:45:34.584Z</time>
      </trkpt>
      <trkpt lat="47.53723" lon="-2.79983">
        <ele>6.697656</ele>
        <time>2021-06-04T13:45:38.202Z</time>
      </trkpt>
      <trkpt lat="47.53738" lon="-2.79997">
        <ele>6.934563</ele>
        <time>2021-06-04T13:45:42.989Z</time>
      </trkpt>
      <trkpt lat="47.53751" lon="-2.80023">
        <ele>7.223822</ele>
        <time>2021-06-04T13:45:49.233Z</time>
      </trkpt>
      <trkpt lat="47.53812" lon="-2.80214">
        <ele>8.798998</ele>
        <time>2021-06-04T13:46:32.983Z</time>
      </trkpt>
      <trkpt lat="47.53843" lon="-2.80376">
        <ele>9.551884</ele>
        <time>2021-06-04T13:47:00.456Z</time>
      </trkpt>
      <trkpt lat="47.53857" lon="-2.80421">
        <ele>9.499769</ele>
        <time>2021-06-04T13:47:07.134Z</time>
      </trkpt>
      <trkpt lat="47.53887" lon="-2.8047">
        <ele>8.800438</ele>
        <time>2021-06-04T13:47:15.705Z</time>
      </trkpt>
      <trkpt lat="47.53921" lon="-2.80496">
        <ele>8.196771</ele>
        <time>2021-06-04T13:47:22.590Z</time>
      </trkpt>
      <trkpt lat="47.53929" lon="-2.80503">
        <ele>8.042799</ele>
        <time>2021-06-04T13:47:24.292Z</time>
      </trkpt>
      <trkpt lat="47.53938" lon="-2.80513">
        <ele>7.865549</ele>
        <time>2021-06-04T13:47:26.140Z</time>
      </trkpt>
      <trkpt lat="47.54002" lon="-2.80621">
        <ele>6.542818</ele>
        <time>2021-06-04T13:47:43.167Z</time>
      </trkpt>
      <trkpt lat="47.54017" lon="-2.80641">
        <ele>6.352857</ele>
        <time>2021-06-04T13:47:46.635Z</time>
      </trkpt>
      <trkpt lat="47.54035" lon="-2.80667">
        <ele>6.108594</ele>
        <time>2021-06-04T13:47:51.262Z</time>
      </trkpt>
      <trkpt lat="47.54069" lon="-2.80735">
        <ele>5.561428</ele>
        <time>2021-06-04T13:48:02.986Z</time>
      </trkpt>
      <trkpt lat="47.54077" lon="-2.80771">
        <ele>5.318817</ele>
        <time>2021-06-04T13:48:08.315Z</time>
      </trkpt>
      <trkpt lat="47.54078" lon="-2.80781">
        <ele>5.252171</ele>
        <time>2021-06-04T13:48:09.941Z</time>
      </trkpt>
      <trkpt lat="47.54079" lon="-2.80816">
        <ele>5.219198</ele>
        <time>2021-06-04T13:48:15.356Z</time>
      </trkpt>
      <trkpt lat="47.54084" lon="-2.80843">
        <ele>5.344248</ele>
        <time>2021-06-04T13:48:19.702Z</time>
      </trkpt>
      <trkpt lat="47.5413" lon="-2.80933">
        <ele>5.869278</ele>
        <time>2021-06-04T13:48:39.496Z</time>
      </trkpt>
      <trkpt lat="47.54139" lon="-2.81032">
        <ele>6.332362</ele>
        <time>2021-06-04T13:48:57.345Z</time>
      </trkpt>
      <trkpt lat="47.54164" lon="-2.81132">
        <ele>6.783595</ele>
        <time>2021-06-04T13:49:15.409Z</time>
      </trkpt>
      <trkpt lat="47.54174" lon="-2.81187">
        <ele>7.024044</ele>
        <time>2021-06-04T13:49:24.850Z</time>
      </trkpt>
      <trkpt lat="47.54175" lon="-2.81199">
        <ele>7.072796</ele>
        <time>2021-06-04T13:49:26.686Z</time>
      </trkpt>
      <trkpt lat="47.54173" lon="-2.81211">
        <ele>7.126551</ele>
        <time>2021-06-04T13:49:28.749Z</time>
      </trkpt>
      <trkpt lat="47.54182" lon="-2.81239">
        <ele>7.255553</ele>
        <time>2021-06-04T13:49:33.781Z</time>
      </trkpt>
      <trkpt lat="47.54184" lon="-2.81251">
        <ele>7.306527</ele>
        <time>2021-06-04T13:49:35.677Z</time>
      </trkpt>
      <trkpt lat="47.5419" lon="-2.81282">
        <ele>7.443226</ele>
        <time>2021-06-04T13:49:40.955Z</time>
      </trkpt>
      <trkpt lat="47.54205" lon="-2.81378">
        <ele>7.947483</ele>
        <time>2021-06-04T13:49:57.137Z</time>
      </trkpt>
      <trkpt lat="47.54209" lon="-2.81411">
        <ele>8.126907</ele>
        <time>2021-06-04T13:50:03.099Z</time>
      </trkpt>
      <trkpt lat="47.54205" lon="-2.8144">
        <ele>8.280737</ele>
        <time>2021-06-04T13:50:08.345Z</time>
      </trkpt>
      <trkpt lat="47.54172" lon="-2.81518">
        <ele>8.768664</ele>
        <time>2021-06-04T13:50:25.239Z</time>
      </trkpt>
      <trkpt lat="47.54165" lon="-2.81544">
        <ele>8.89073</ele>
        <time>2021-06-04T13:50:30.116Z</time>
      </trkpt>
      <trkpt lat="47.54162" lon="-2.81556">
        <ele>8.884009</ele>
        <time>2021-06-04T13:50:32.176Z</time>
      </trkpt>
      <trkpt lat="47.54147" lon="-2.81588">
        <ele>8.864066</ele>
        <time>2021-06-04T13:50:38.495Z</time>
      </trkpt>
      <trkpt lat="47.54132" lon="-2.81637">
        <ele>8.836576</ele>
        <time>2021-06-04T13:50:46.909Z</time>
      </trkpt>
      <trkpt lat="47.54129" lon="-2.81671">
        <ele>8.819232</ele>
        <time>2021-06-04T13:50:51.922Z</time>
      </trkpt>
      <trkpt lat="47.54129" lon="-2.81691">
        <ele>8.809042</ele>
        <time>2021-06-04T13:50:55.109Z</time>
      </trkpt>
      <trkpt lat="47.54129" lon="-2.81727">
        <ele>8.790258</ele>
        <time>2021-06-04T13:51:00.272Z</time>
      </trkpt>
      <trkpt lat="47.54129" lon="-2.8174">
        <ele>8.783706</ele>
        <time>2021-06-04T13:51:02.045Z</time>
      </trkpt>
      <trkpt lat="47.5413" lon="-2.81754">
        <ele>8.776543</ele>
        <time>2021-06-04T13:51:04.085Z</time>
      </trkpt>
      <trkpt lat="47.54134" lon="-2.81774">
        <ele>8.765712</ele>
        <time>2021-06-04T13:51:06.878Z</time>
      </trkpt>
      <trkpt lat="47.54181" lon="-2.81911">
        <ele>7.572633</ele>
        <time>2021-06-04T13:51:26.166Z</time>
      </trkpt>
      <trkpt lat="47.54188" lon="-2.8193">
        <ele>7.382808</ele>
        <time>2021-06-04T13:51:28.684Z</time>
      </trkpt>
      <trkpt lat="47.54199" lon="-2.81957">
        <ele>7.107161</ele>
        <time>2021-06-04T13:51:32.574Z</time>
      </trkpt>
      <trkpt lat="47.5421" lon="-2.81981">
        <ele>6.855299</ele>
        <time>2021-06-04T13:51:36.075Z</time>
      </trkpt>
      <trkpt lat="47.54224" lon="-2.82006">
        <ele>6.568685</ele>
        <time>2021-06-04T13:51:40.388Z</time>
      </trkpt>
      <trkpt lat="47.54231" lon="-2.8202">
        <ele>6.42241</ele>
        <time>2021-06-04T13:51:42.609Z</time>
      </trkpt>
      <trkpt lat="47.54238" lon="-2.82038">
        <ele>6.387644</ele>
        <time>2021-06-04T13:51:45.517Z</time>
      </trkpt>
      <trkpt lat="47.54241" lon="-2.82052">
        <ele>6.362527</ele>
        <time>2021-06-04T13:51:47.464Z</time>
      </trkpt>
      <trkpt lat="47.54244" lon="-2.82068">
        <ele>6.335709</ele>
        <time>2021-06-04T13:51:49.519Z</time>
      </trkpt>
      <trkpt lat="47.54248" lon="-2.82102">
        <ele>6.277926</ele>
        <time>2021-06-04T13:51:54.346Z</time>
      </trkpt>
      <trkpt lat="47.54248" lon="-2.82139">
        <ele>6.216036</ele>
        <time>2021-06-04T13:51:59.487Z</time>
      </trkpt>
      <trkpt lat="47.54228" lon="-2.82265">
        <ele>6.000325</ele>
        <time>2021-06-04T13:52:19.581Z</time>
      </trkpt>
      <trkpt lat="47.54223" lon="-2.82342">
        <ele>6.131498</ele>
        <time>2021-06-04T13:52:32.281Z</time>
      </trkpt>
      <trkpt lat="47.54223" lon="-2.82379">
        <ele>6.217882</ele>
        <time>2021-06-04T13:52:38.331Z</time>
      </trkpt>
      <trkpt lat="47.54221" lon="-2.82452">
        <ele>6.39111</ele>
        <time>2021-06-04T13:52:49.744Z</time>
      </trkpt>
      <trkpt lat="47.54218" lon="-2.82534">
        <ele>6.585265</ele>
        <time>2021-06-04T13:53:02.373Z</time>
      </trkpt>
      <trkpt lat="47.54217" lon="-2.82554">
        <ele>6.659713</ele>
        <time>2021-06-04T13:53:05.739Z</time>
      </trkpt>
      <trkpt lat="47.54215" lon="-2.82564">
        <ele>6.708612</ele>
        <time>2021-06-04T13:53:07.414Z</time>
      </trkpt>
      <trkpt lat="47.54202" lon="-2.82611">
        <ele>6.956074</ele>
        <time>2021-06-04T13:53:16.347Z</time>
      </trkpt>
      <trkpt lat="47.54199" lon="-2.8262">
        <ele>7.007959</ele>
        <time>2021-06-04T13:53:18.034Z</time>
      </trkpt>
      <trkpt lat="47.54195" lon="-2.82637">
        <ele>7.095885</ele>
        <time>2021-06-04T13:53:20.782Z</time>
      </trkpt>
      <trkpt lat="47.54194" lon="-2.82646">
        <ele>7.137931</ele>
        <time>2021-06-04T13:53:22.446Z</time>
      </trkpt>
      <trkpt lat="47.54192" lon="-2.82657">
        <ele>7.195582</ele>
        <time>2021-06-04T13:53:24.690Z</time>
      </trkpt>
      <trkpt lat="47.54198" lon="-2.82699">
        <ele>7.403859</ele>
        <time>2021-06-04T13:53:31.840Z</time>
      </trkpt>
      <trkpt lat="47.54199" lon="-2.82706">
        <ele>7.438418</ele>
        <time>2021-06-04T13:53:33.188Z</time>
      </trkpt>
      <trkpt lat="47.54201" lon="-2.82722">
        <ele>7.5179</ele>
        <time>2021-06-04T13:53:36.059Z</time>
      </trkpt>
      <trkpt lat="47.542" lon="-2.82736">
        <ele>7.586555</ele>
        <time>2021-06-04T13:53:38.086Z</time>
      </trkpt>
      <trkpt lat="47.54198" lon="-2.82751">
        <ele>7.662682</ele>
        <time>2021-06-04T13:53:41.021Z</time>
      </trkpt>
      <trkpt lat="47.54196" lon="-2.82754">
        <ele>7.684676</ele>
        <time>2021-06-04T13:53:41.939Z</time>
      </trkpt>
      <trkpt lat="47.54193" lon="-2.82757">
        <ele>7.708913</ele>
        <time>2021-06-04T13:53:42.829Z</time>
      </trkpt>
      <trkpt lat="47.5418" lon="-2.8277">
        <ele>7.826414</ele>
        <time>2021-06-04T13:53:46.694Z</time>
      </trkpt>
      <trkpt lat="47.54175" lon="-2.82778">
        <ele>7.879089</ele>
        <time>2021-06-04T13:53:48.480Z</time>
      </trkpt>
      <trkpt lat="47.54174" lon="-2.82803">
        <ele>7.995604</ele>
        <time>2021-06-04T13:53:53.342Z</time>
      </trkpt>
      <trkpt lat="47.54177" lon="-2.82838">
        <ele>8.153613</ele>
        <time>2021-06-04T13:53:58.958Z</time>
      </trkpt>
      <trkpt lat="47.5419" lon="-2.82904">
        <ele>8.461919</ele>
        <time>2021-06-04T13:54:10.973Z</time>
      </trkpt>
      <trkpt lat="47.54185" lon="-2.82984">
        <ele>8.820662</ele>
        <time>2021-06-04T13:54:24.369Z</time>
      </trkpt>
      <trkpt lat="47.54183" lon="-2.83043">
        <ele>9.083249</ele>
        <time>2021-06-04T13:54:34.128Z</time>
      </trkpt>
      <trkpt lat="47.54184" lon="-2.8306">
        <ele>9.160969</ele>
        <time>2021-06-04T13:54:36.991Z</time>
      </trkpt>
      <trkpt lat="47.5419" lon="-2.83092">
        <ele>9.305122</ele>
        <time>2021-06-04T13:54:42.188Z</time>
      </trkpt>
      <trkpt lat="47.54232" lon="-2.83184">
        <ele>9.789615</ele>
        <time>2021-06-04T13:55:00.933Z</time>
      </trkpt>
      <trkpt lat="47.54233" lon="-2.83193">
        <ele>9.828573</ele>
        <time>2021-06-04T13:55:02.160Z</time>
      </trkpt>
      <trkpt lat="47.54231" lon="-2.83202">
        <ele>9.867309</ele>
        <time>2021-06-04T13:55:03.953Z</time>
      </trkpt>
      <trkpt lat="47.54182" lon="-2.83298">
        <ele>10.443138</ele>
        <time>2021-06-04T13:55:24.341Z</time>
      </trkpt>
      <trkpt lat="47.54177" lon="-2.83316">
        <ele>10.557984</ele>
        <time>2021-06-04T13:55:27.832Z</time>
      </trkpt>
      <trkpt lat="47.54172" lon="-2.8333">
        <ele>10.651637</ele>
        <time>2021-06-04T13:55:30.456Z</time>
      </trkpt>
      <trkpt lat="47.54163" lon="-2.83362">
        <ele>10.862068</ele>
        <time>2021-06-04T13:55:36.665Z</time>
      </trkpt>
      <trkpt lat="47.5416" lon="-2.83381">
        <ele>10.979177</ele>
        <time>2021-06-04T13:55:40.081Z</time>
      </trkpt>
      <trkpt lat="47.54163" lon="-2.83417">
        <ele>11.19562</ele>
        <time>2021-06-04T13:55:46.857Z</time>
      </trkpt>
      <trkpt lat="47.54174" lon="-2.83457">
        <ele>11.447829</ele>
        <time>2021-06-04T13:55:53.797Z</time>
      </trkpt>
      <trkpt lat="47.54188" lon="-2.83491">
        <ele>11.68759</ele>
        <time>2021-06-04T13:56:00.471Z</time>
      </trkpt>
      <trkpt lat="47.54194" lon="-2.83504">
        <ele>11.782262</ele>
        <time>2021-06-04T13:56:03.819Z</time>
      </trkpt>
      <trkpt lat="47.5421" lon="-2.83546">
        <ele>12.098093</ele>
        <time>2021-06-04T13:56:12.116Z</time>
      </trkpt>
      <trkpt lat="47.54212" lon="-2.83551">
        <ele>12.134597</ele>
        <time>2021-06-04T13:56:13.240Z</time>
      </trkpt>
      <trkpt lat="47.54216" lon="-2.83561">
        <ele>12.211377</ele>
        <time>2021-06-04T13:56:15.162Z</time>
      </trkpt>
      <trkpt lat="47.5422" lon="-2.83572">
        <ele>12.291446</ele>
        <time>2021-06-04T13:56:16.990Z</time>
      </trkpt>
      <trkpt lat="47.54226" lon="-2.83588">
        <ele>12.419213</ele>
        <time>2021-06-04T13:56:20.242Z</time>
      </trkpt>
      <trkpt lat="47.54231" lon="-2.83601">
        <ele>12.51762</ele>
        <time>2021-06-04T13:56:23.241Z</time>
      </trkpt>
      <trkpt lat="47.54239" lon="-2.83639">
        <ele>12.781618</ele>
        <time>2021-06-04T13:56:30.087Z</time>
      </trkpt>
      <trkpt lat="47.54239" lon="-2.83682">
        <ele>13.066841</ele>
        <time>2021-06-04T13:56:37.837Z</time>
      </trkpt>
      <trkpt lat="47.54237" lon="-2.83701">
        <ele>13.195193</ele>
        <time>2021-06-04T13:56:41.738Z</time>
      </trkpt>
      <trkpt lat="47.54235" lon="-2.83722">
        <ele>13.334171</ele>
        <time>2021-06-04T13:56:45.490Z</time>
      </trkpt>
      <trkpt lat="47.54232" lon="-2.83739">
        <ele>13.453738</ele>
        <time>2021-06-04T13:56:48.580Z</time>
      </trkpt>
      <trkpt lat="47.5422" lon="-2.83788">
        <ele>13.677515</ele>
        <time>2021-06-04T13:56:57.796Z</time>
      </trkpt>
      <trkpt lat="47.54204" lon="-2.83847">
        <ele>13.797918</ele>
        <time>2021-06-04T13:57:08.956Z</time>
      </trkpt>
      <trkpt lat="47.54201" lon="-2.83866">
        <ele>13.834764</ele>
        <time>2021-06-04T13:57:12.124Z</time>
      </trkpt>
      <trkpt lat="47.54199" lon="-2.83876">
        <ele>13.853148</ele>
        <time>2021-06-04T13:57:13.722Z</time>
      </trkpt>
      <trkpt lat="47.54198" lon="-2.83885">
        <ele>13.871639</ele>
        <time>2021-06-04T13:57:15.231Z</time>
      </trkpt>
      <trkpt lat="47.54201" lon="-2.839">
        <ele>13.900214</ele>
        <time>2021-06-04T13:57:17.858Z</time>
      </trkpt>
      <trkpt lat="47.54212" lon="-2.83942">
        <ele>13.984656</ele>
        <time>2021-06-04T13:57:24.825Z</time>
      </trkpt>
      <trkpt lat="47.54217" lon="-2.83961">
        <ele>14.022398</ele>
        <time>2021-06-04T13:57:27.695Z</time>
      </trkpt>
      <trkpt lat="47.54239" lon="-2.8413">
        <ele>13.5516</ele>
        <time>2021-06-04T13:57:51.441Z</time>
      </trkpt>
      <trkpt lat="47.5425" lon="-2.84179">
        <ele>13.29198</ele>
        <time>2021-06-04T13:57:58.229Z</time>
      </trkpt>
      <trkpt lat="47.54254" lon="-2.84202">
        <ele>13.170664</ele>
        <time>2021-06-04T13:58:01.522Z</time>
      </trkpt>
      <trkpt lat="47.5426" lon="-2.8423">
        <ele>13.02337</ele>
        <time>2021-06-04T13:58:05.339Z</time>
      </trkpt>
      <trkpt lat="47.54271" lon="-2.84301">
        <ele>12.539664</ele>
        <time>2021-06-04T13:58:15.030Z</time>
      </trkpt>
      <trkpt lat="47.54277" lon="-2.84409">
        <ele>11.507843</ele>
        <time>2021-06-04T13:58:28.774Z</time>
      </trkpt>
      <trkpt lat="47.54275" lon="-2.84422">
        <ele>11.374275</ele>
        <time>2021-06-04T13:58:30.458Z</time>
      </trkpt>
      <trkpt lat="47.54277" lon="-2.84423">
        <ele>11.349661</ele>
        <time>2021-06-04T13:58:30.772Z</time>
      </trkpt>
      <trkpt lat="47.54279" lon="-2.84432">
        <ele>11.260774</ele>
        <time>2021-06-04T13:58:31.961Z</time>
      </trkpt>
      <trkpt lat="47.54278" lon="-2.84434">
        <ele>11.236635</ele>
        <time>2021-06-04T13:58:32.279Z</time>
      </trkpt>
      <trkpt lat="47.54278" lon="-2.84434">
        <ele>11.236635</ele>
        <time>2021-06-04T13:58:32.283Z</time>
      </trkpt>
      <trkpt lat="47.54278" lon="-2.84434">
        <ele>11.236635</ele>
        <time>2021-06-04T13:58:32.322Z</time>
      </trkpt>
      <trkpt lat="47.54277" lon="-2.84436">
        <ele>11.211414</ele>
        <time>2021-06-04T13:58:32.656Z</time>
      </trkpt>
      <trkpt lat="47.5427" lon="-2.84435">
        <ele>11.116061</ele>
        <time>2021-06-04T13:58:33.935Z</time>
      </trkpt>
      <trkpt lat="47.54269" lon="-2.84433">
        <ele>11.090685</ele>
        <time>2021-06-04T13:58:34.263Z</time>
      </trkpt>
      <trkpt lat="47.54265" lon="-2.84436">
        <ele>11.020785</ele>
        <time>2021-06-04T13:58:35.180Z</time>
      </trkpt>
      <trkpt lat="47.54251" lon="-2.84441">
        <ele>10.821891</ele>
        <time>2021-06-04T13:58:37.717Z</time>
      </trkpt>
      <trkpt lat="47.54201" lon="-2.84448">
        <ele>10.047331</ele>
        <time>2021-06-04T13:58:46.718Z</time>
      </trkpt>
      <trkpt lat="47.54156" lon="-2.84455">
        <ele>9.114959</ele>
        <time>2021-06-04T13:58:54.396Z</time>
      </trkpt>
      <trkpt lat="47.5413" lon="-2.84463">
        <ele>8.55241</ele>
        <time>2021-06-04T13:58:59.200Z</time>
      </trkpt>
      <trkpt lat="47.54099" lon="-2.84497">
        <ele>7.753882</ele>
        <time>2021-06-04T13:59:05.877Z</time>
      </trkpt>
      <trkpt lat="47.54092" lon="-2.84502">
        <ele>7.601523</ele>
        <time>2021-06-04T13:59:07.032Z</time>
      </trkpt>
      <trkpt lat="47.54084" lon="-2.84502">
        <ele>7.439073</ele>
        <time>2021-06-04T13:59:08.366Z</time>
      </trkpt>
      <trkpt lat="47.53994" lon="-2.8446">
        <ele>5.93927</ele>
        <time>2021-06-04T13:59:25.106Z</time>
      </trkpt>
      <trkpt lat="47.53931" lon="-2.84466">
        <ele>5.216883</ele>
        <time>2021-06-04T13:59:36.760Z</time>
      </trkpt>
      <trkpt lat="47.53904" lon="-2.84459">
        <ele>4.903209</ele>
        <time>2021-06-04T13:59:42.612Z</time>
      </trkpt>
      <trkpt lat="47.53863" lon="-2.8444">
        <ele>4.472181</ele>
        <time>2021-06-04T13:59:51.651Z</time>
      </trkpt>
      <trkpt lat="47.53848" lon="-2.84432">
        <ele>4.569769</ele>
        <time>2021-06-04T13:59:55.399Z</time>
      </trkpt>
      <trkpt lat="47.53837" lon="-2.84427">
        <ele>4.638288</ele>
        <time>2021-06-04T13:59:57.873Z</time>
      </trkpt>
      <trkpt lat="47.53817" lon="-2.84424">
        <ele>4.758984</ele>
        <time>2021-06-04T14:00:02.401Z</time>
      </trkpt>
      <trkpt lat="47.53799" lon="-2.84434">
        <ele>4.875292</ele>
        <time>2021-06-04T14:00:06.821Z</time>
      </trkpt>
      <trkpt lat="47.53792" lon="-2.84445">
        <ele>4.940866</ele>
        <time>2021-06-04T14:00:09.299Z</time>
      </trkpt>
      <trkpt lat="47.53786" lon="-2.84459">
        <ele>5.006977</ele>
        <time>2021-06-04T14:00:12.107Z</time>
      </trkpt>
      <trkpt lat="47.53779" lon="-2.8455">
        <ele>5.381732</ele>
        <time>2021-06-04T14:00:27.951Z</time>
      </trkpt>
      <trkpt lat="47.53771" lon="-2.84713">
        <ele>6.811158</ele>
        <time>2021-06-04T14:00:59.228Z</time>
      </trkpt>
      <trkpt lat="47.53768" lon="-2.84768">
        <ele>7.378053</ele>
        <time>2021-06-04T14:01:10.090Z</time>
      </trkpt>
      <trkpt lat="47.53761" lon="-2.84901">
        <ele>8.593955</ele>
        <time>2021-06-04T14:01:35.785Z</time>
      </trkpt>
      <trkpt lat="47.53753" lon="-2.84935">
        <ele>8.84059</ele>
        <time>2021-06-04T14:01:42.486Z</time>
      </trkpt>
      <trkpt lat="47.53745" lon="-2.8495">
        <ele>8.966275</ele>
        <time>2021-06-04T14:01:46.098Z</time>
      </trkpt>
      <trkpt lat="47.5374" lon="-2.84957">
        <ele>9.03209</ele>
        <time>2021-06-04T14:01:47.859Z</time>
      </trkpt>
      <trkpt lat="47.53734" lon="-2.84961">
        <ele>9.101921</ele>
        <time>2021-06-04T14:01:49.757Z</time>
      </trkpt>
      <trkpt lat="47.53716" lon="-2.84971">
        <ele>9.296083</ele>
        <time>2021-06-04T14:01:54.705Z</time>
      </trkpt>
      <trkpt lat="47.53664" lon="-2.84986">
        <ele>9.831053</ele>
        <time>2021-06-04T14:02:07.907Z</time>
      </trkpt>
      <trkpt lat="47.53632" lon="-2.84987">
        <ele>10.080999</ele>
        <time>2021-06-04T14:02:15.782Z</time>
      </trkpt>
      <trkpt lat="47.53593" lon="-2.84982">
        <ele>10.0338</ele>
        <time>2021-06-04T14:02:25.556Z</time>
      </trkpt>
      <trkpt lat="47.53599" lon="-2.84933">
        <ele>9.992798</ele>
        <time>2021-06-04T14:02:48.982Z</time>
      </trkpt>
      <trkpt lat="47.53593" lon="-2.84982">
        <ele>9.951797</ele>
        <time>2021-06-04T14:03:12.408Z</time>
      </trkpt>
      <trkpt lat="47.5354" lon="-2.84974">
        <ele>9.886855</ele>
        <time>2021-06-04T14:03:23.475Z</time>
      </trkpt>
      <trkpt lat="47.53514" lon="-2.84971">
        <ele>9.679014</ele>
        <time>2021-06-04T14:03:28.729Z</time>
      </trkpt>
      <trkpt lat="47.53593" lon="-2.85275">
        <ele>6.296409</ele>
        <time>2021-06-04T14:04:08.002Z</time>
      </trkpt>
      <trkpt lat="47.53615" lon="-2.85336">
        <ele>5.711551</ele>
        <time>2021-06-04T14:04:16.380Z</time>
      </trkpt>
      <trkpt lat="47.53623" lon="-2.85354">
        <ele>5.524944</ele>
        <time>2021-06-04T14:04:19.210Z</time>
      </trkpt>
      <trkpt lat="47.53639" lon="-2.85381">
        <ele>5.226705</ele>
        <time>2021-06-04T14:04:23.792Z</time>
      </trkpt>
      <trkpt lat="47.53639" lon="-2.85381">
        <ele>5.222494</ele>
        <time>2021-06-04T14:04:23.833Z</time>
      </trkpt>
      <trkpt lat="47.5365" lon="-2.85396">
        <ele>5.03608</ele>
        <time>2021-06-04T14:04:26.887Z</time>
      </trkpt>
      <trkpt lat="47.53664" lon="-2.85412">
        <ele>4.815235</ele>
        <time>2021-06-04T14:04:30.418Z</time>
      </trkpt>
      <trkpt lat="47.5368" lon="-2.85429">
        <ele>4.733545</ele>
        <time>2021-06-04T14:04:34.778Z</time>
      </trkpt>
      <trkpt lat="47.53685" lon="-2.85434">
        <ele>4.762708</ele>
        <time>2021-06-04T14:04:36.068Z</time>
      </trkpt>
      <trkpt lat="47.53695" lon="-2.85441">
        <ele>4.812185</ele>
        <time>2021-06-04T14:04:38.278Z</time>
      </trkpt>
      <trkpt lat="47.5372" lon="-2.85458">
        <ele>4.946291</ele>
        <time>2021-06-04T14:04:44.716Z</time>
      </trkpt>
      <trkpt lat="47.53783" lon="-2.85491">
        <ele>5.27105</ele>
        <time>2021-06-04T14:05:01.222Z</time>
      </trkpt>
      <trkpt lat="47.53835" lon="-2.85535">
        <ele>5.56037</ele>
        <time>2021-06-04T14:05:17.376Z</time>
      </trkpt>
      <trkpt lat="47.53861" lon="-2.85571">
        <ele>5.713751</ele>
        <time>2021-06-04T14:05:26.913Z</time>
      </trkpt>
      <trkpt lat="47.53886" lon="-2.85629">
        <ele>5.914193</ele>
        <time>2021-06-04T14:05:38.397Z</time>
      </trkpt>
      <trkpt lat="47.53889" lon="-2.85641">
        <ele>5.949603</ele>
        <time>2021-06-04T14:05:40.662Z</time>
      </trkpt>
      <trkpt lat="47.53893" lon="-2.85654">
        <ele>5.991218</ele>
        <time>2021-06-04T14:05:42.715Z</time>
      </trkpt>
      <trkpt lat="47.53901" lon="-2.85694">
        <ele>6.113445</ele>
        <time>2021-06-04T14:05:49.475Z</time>
      </trkpt>
      <trkpt lat="47.53903" lon="-2.85744">
        <ele>6.259305</ele>
        <time>2021-06-04T14:05:57.054Z</time>
      </trkpt>
      <trkpt lat="47.53904" lon="-2.85812">
        <ele>6.192461</ele>
        <time>2021-06-04T14:06:06.647Z</time>
      </trkpt>
      <trkpt lat="47.53903" lon="-2.86055">
        <ele>5.56317</ele>
        <time>2021-06-04T14:07:04.040Z</time>
      </trkpt>
      <trkpt lat="47.53907" lon="-2.86111">
        <ele>5.783652</ele>
        <time>2021-06-04T14:07:18.319Z</time>
      </trkpt>
      <trkpt lat="47.5391" lon="-2.86133">
        <ele>5.866797</ele>
        <time>2021-06-04T14:07:23.657Z</time>
      </trkpt>
      <trkpt lat="47.53918" lon="-2.86169">
        <ele>6.013597</ele>
        <time>2021-06-04T14:07:30.443Z</time>
      </trkpt>
      <trkpt lat="47.53935" lon="-2.8623">
        <ele>6.268241</ele>
        <time>2021-06-04T14:07:42.664Z</time>
      </trkpt>
      <trkpt lat="47.53956" lon="-2.86285">
        <ele>6.51434</ele>
        <time>2021-06-04T14:07:55.752Z</time>
      </trkpt>
      <trkpt lat="47.54014" lon="-2.86366">
        <ele>8.169034</ele>
        <time>2021-06-04T14:08:22.139Z</time>
      </trkpt>
      <trkpt lat="47.54043" lon="-2.86395">
        <ele>8.906458</ele>
        <time>2021-06-04T14:08:34.169Z</time>
      </trkpt>
      <trkpt lat="47.54114" lon="-2.86449">
        <ele>10.497505</ele>
        <time>2021-06-04T14:08:59.470Z</time>
      </trkpt>
      <trkpt lat="47.54196" lon="-2.86526">
        <ele>11.995054</ele>
        <time>2021-06-04T14:09:28.318Z</time>
      </trkpt>
      <trkpt lat="47.54214" lon="-2.86558">
        <ele>12.426254</ele>
        <time>2021-06-04T14:09:35.886Z</time>
      </trkpt>
      <trkpt lat="47.54226" lon="-2.86579">
        <ele>12.706768</ele>
        <time>2021-06-04T14:09:40.562Z</time>
      </trkpt>
      <trkpt lat="47.5424" lon="-2.86601">
        <ele>13.029155</ele>
        <time>2021-06-04T14:09:45.817Z</time>
      </trkpt>
      <trkpt lat="47.54241" lon="-2.86605">
        <ele>13.056272</ele>
        <time>2021-06-04T14:09:46.402Z</time>
      </trkpt>
      <trkpt lat="47.5427" lon="-2.86713">
        <ele>13.593867</ele>
        <time>2021-06-04T14:10:05.667Z</time>
      </trkpt>
      <trkpt lat="47.54279" lon="-2.86797">
        <ele>13.990955</ele>
        <time>2021-06-04T14:10:19.961Z</time>
      </trkpt>
      <trkpt lat="47.54279" lon="-2.8682">
        <ele>14.096684</ele>
        <time>2021-06-04T14:10:23.687Z</time>
      </trkpt>
      <trkpt lat="47.5428" lon="-2.86999">
        <ele>14.950927</ele>
        <time>2021-06-04T14:11:13.058Z</time>
      </trkpt>
      <trkpt lat="47.5428" lon="-2.87146">
        <ele>15.551675</ele>
        <time>2021-06-04T14:11:52.347Z</time>
      </trkpt>
      <trkpt lat="47.54281" lon="-2.87165">
        <ele>15.543927</ele>
        <time>2021-06-04T14:11:57.470Z</time>
      </trkpt>
      <trkpt lat="47.54281" lon="-2.87195">
        <ele>15.532083</ele>
        <time>2021-06-04T14:12:03.762Z</time>
      </trkpt>
      <trkpt lat="47.54281" lon="-2.87198">
        <ele>15.530833</ele>
        <time>2021-06-04T14:12:04.334Z</time>
      </trkpt>
      <trkpt lat="47.54286" lon="-2.87342">
        <ele>15.472974</ele>
        <time>2021-06-04T14:12:39.921Z</time>
      </trkpt>
      <trkpt lat="47.54296" lon="-2.8739">
        <ele>15.45196</ele>
        <time>2021-06-04T14:12:52.070Z</time>
      </trkpt>
      <trkpt lat="47.54325" lon="-2.87472">
        <ele>15.265516</ele>
        <time>2021-06-04T14:13:13.876Z</time>
      </trkpt>
      <trkpt lat="47.5436" lon="-2.87535">
        <ele>15.100896</ele>
        <time>2021-06-04T14:13:33.621Z</time>
      </trkpt>
      <trkpt lat="47.54372" lon="-2.87553">
        <ele>15.050968</ele>
        <time>2021-06-04T14:13:39.812Z</time>
      </trkpt>
      <trkpt lat="47.54404" lon="-2.87584">
        <ele>14.935499</ele>
        <time>2021-06-04T14:13:54.099Z</time>
      </trkpt>
      <trkpt lat="47.54454" lon="-2.87625">
        <ele>14.896778</ele>
        <time>2021-06-04T14:14:15.566Z</time>
      </trkpt>
      <trkpt lat="47.54506" lon="-2.87645">
        <ele>14.876754</ele>
        <time>2021-06-04T14:14:35.366Z</time>
      </trkpt>
      <trkpt lat="47.54586" lon="-2.87673">
        <ele>14.825337</ele>
        <time>2021-06-04T14:15:05.593Z</time>
      </trkpt>
      <trkpt lat="47.54605" lon="-2.8768">
        <ele>14.757151</ele>
        <time>2021-06-04T14:15:09.685Z</time>
      </trkpt>
      <trkpt lat="47.54659" lon="-2.87697">
        <ele>14.564689</ele>
        <time>2021-06-04T14:15:21.419Z</time>
      </trkpt>
      <trkpt lat="47.54701" lon="-2.87727">
        <ele>14.404178</ele>
        <time>2021-06-04T14:15:31.057Z</time>
      </trkpt>
      <trkpt lat="47.54726" lon="-2.87751">
        <ele>14.30043</ele>
        <time>2021-06-04T14:15:37.198Z</time>
      </trkpt>
      <trkpt lat="47.5474" lon="-2.87764">
        <ele>14.241922</ele>
        <time>2021-06-04T14:15:40.634Z</time>
      </trkpt>
      <trkpt lat="47.54751" lon="-2.87778">
        <ele>14.180011</ele>
        <time>2021-06-04T14:15:43.958Z</time>
      </trkpt>
      <trkpt lat="47.54779" lon="-2.8782">
        <ele>13.984943</ele>
        <time>2021-06-04T14:15:53.236Z</time>
      </trkpt>
      <trkpt lat="47.54807" lon="-2.87883">
        <ele>13.732785</ele>
        <time>2021-06-04T14:16:05.173Z</time>
      </trkpt>
      <trkpt lat="47.54822" lon="-2.87927">
        <ele>13.57005</ele>
        <time>2021-06-04T14:16:12.807Z</time>
      </trkpt>
      <trkpt lat="47.54843" lon="-2.88019">
        <ele>13.226958</ele>
        <time>2021-06-04T14:16:27.910Z</time>
      </trkpt>
      <trkpt lat="47.54864" lon="-2.88121">
        <ele>12.800884</ele>
        <time>2021-06-04T14:16:44.016Z</time>
      </trkpt>
      <trkpt lat="47.54896" lon="-2.8828">
        <ele>12.192887</ele>
        <time>2021-06-04T14:17:09.356Z</time>
      </trkpt>
      <trkpt lat="47.54937" lon="-2.88474">
        <ele>11.718238</ele>
        <time>2021-06-04T14:17:42.803Z</time>
      </trkpt>
      <trkpt lat="47.54953" lon="-2.88549">
        <ele>11.294363</ele>
        <time>2021-06-04T14:17:53.392Z</time>
      </trkpt>
      <trkpt lat="47.54963" lon="-2.88592">
        <ele>10.958127</ele>
        <time>2021-06-04T14:17:59.420Z</time>
      </trkpt>
      <trkpt lat="47.54963" lon="-2.88595">
        <ele>10.934904</ele>
        <time>2021-06-04T14:17:59.892Z</time>
      </trkpt>
      <trkpt lat="47.54961" lon="-2.88598">
        <ele>10.900061</ele>
        <time>2021-06-04T14:18:02.104Z</time>
      </trkpt>
      <trkpt lat="47.54949" lon="-2.8861">
        <ele>10.741818</ele>
        <time>2021-06-04T14:18:05.919Z</time>
      </trkpt>
      <trkpt lat="47.54943" lon="-2.88615">
        <ele>10.673813</ele>
        <time>2021-06-04T14:18:07.580Z</time>
      </trkpt>
      <trkpt lat="47.54921" lon="-2.88637">
        <ele>10.383396</ele>
        <time>2021-06-04T14:18:14.372Z</time>
      </trkpt>
      <trkpt lat="47.54908" lon="-2.88651">
        <ele>10.206433</ele>
        <time>2021-06-04T14:18:18.667Z</time>
      </trkpt>
      <trkpt lat="47.54902" lon="-2.88656">
        <ele>10.135179</ele>
        <time>2021-06-04T14:18:20.244Z</time>
      </trkpt>
      <trkpt lat="47.54895" lon="-2.88663">
        <ele>10.045628</ele>
        <time>2021-06-04T14:18:22.308Z</time>
      </trkpt>
      <trkpt lat="47.54886" lon="-2.8867">
        <ele>9.92884</ele>
        <time>2021-06-04T14:18:25.079Z</time>
      </trkpt>
      <trkpt lat="47.54887" lon="-2.88675">
        <ele>9.89047</ele>
        <time>2021-06-04T14:18:26.026Z</time>
      </trkpt>
      <trkpt lat="47.54883" lon="-2.88679">
        <ele>9.834125</ele>
        <time>2021-06-04T14:18:27.025Z</time>
      </trkpt>
      <trkpt lat="47.54881" lon="-2.88681">
        <ele>9.807826</ele>
        <time>2021-06-04T14:18:27.450Z</time>
      </trkpt>
      <trkpt lat="47.54879" lon="-2.88683">
        <ele>9.779847</ele>
        <time>2021-06-04T14:18:27.870Z</time>
      </trkpt>
      <trkpt lat="47.54867" lon="-2.88692">
        <ele>9.629768</ele>
        <time>2021-06-04T14:18:30.333Z</time>
      </trkpt>
      <trkpt lat="47.54814" lon="-2.88732">
        <ele>8.954741</ele>
        <time>2021-06-04T14:18:41.134Z</time>
      </trkpt>
      <trkpt lat="47.54809" lon="-2.88736">
        <ele>8.885391</ele>
        <time>2021-06-04T14:18:42.259Z</time>
      </trkpt>
      <trkpt lat="47.54801" lon="-2.88742">
        <ele>8.78762</ele>
        <time>2021-06-04T14:18:43.854Z</time>
      </trkpt>
      <trkpt lat="47.54781" lon="-2.88758">
        <ele>8.530256</ele>
        <time>2021-06-04T14:18:48.233Z</time>
      </trkpt>
      <trkpt lat="47.5473" lon="-2.88796">
        <ele>7.876534</ele>
        <time>2021-06-04T14:18:59.506Z</time>
      </trkpt>
      <trkpt lat="47.54705" lon="-2.88817">
        <ele>7.567103</ele>
        <time>2021-06-04T14:19:05.184Z</time>
      </trkpt>
      <trkpt lat="47.54696" lon="-2.88829">
        <ele>7.458293</ele>
        <time>2021-06-04T14:19:07.700Z</time>
      </trkpt>
      <trkpt lat="47.54687" lon="-2.88848">
        <ele>7.318674</ele>
        <time>2021-06-04T14:19:10.630Z</time>
      </trkpt>
      <trkpt lat="47.54681" lon="-2.8887">
        <ele>7.170781</ele>
        <time>2021-06-04T14:19:13.691Z</time>
      </trkpt>
      <trkpt lat="47.5468" lon="-2.88875">
        <ele>7.139985</ele>
        <time>2021-06-04T14:19:14.606Z</time>
      </trkpt>
      <trkpt lat="47.54675" lon="-2.8889">
        <ele>7.040917</ele>
        <time>2021-06-04T14:19:16.729Z</time>
      </trkpt>
      <trkpt lat="47.54671" lon="-2.88908">
        <ele>6.920558</ele>
        <time>2021-06-04T14:19:19.245Z</time>
      </trkpt>
      <trkpt lat="47.54666" lon="-2.88926">
        <ele>6.805491</ele>
        <time>2021-06-04T14:19:21.961Z</time>
      </trkpt>
      <trkpt lat="47.54664" lon="-2.88933">
        <ele>6.756285</ele>
        <time>2021-06-04T14:19:23.010Z</time>
      </trkpt>
      <trkpt lat="47.5466" lon="-2.88941">
        <ele>6.696885</ele>
        <time>2021-06-04T14:19:24.284Z</time>
      </trkpt>
      <trkpt lat="47.54657" lon="-2.88948">
        <ele>6.64462</ele>
        <time>2021-06-04T14:19:25.405Z</time>
      </trkpt>
      <trkpt lat="47.54652" lon="-2.88956">
        <ele>6.579748</ele>
        <time>2021-06-04T14:19:26.716Z</time>
      </trkpt>
      <trkpt lat="47.54647" lon="-2.88967">
        <ele>6.499238</ele>
        <time>2021-06-04T14:19:28.640Z</time>
      </trkpt>
      <trkpt lat="47.54642" lon="-2.88981">
        <ele>6.398487</ele>
        <time>2021-06-04T14:19:30.851Z</time>
      </trkpt>
      <trkpt lat="47.54645" lon="-2.88994">
        <ele>6.310342</ele>
        <time>2021-06-04T14:19:32.727Z</time>
      </trkpt>
      <trkpt lat="47.54645" lon="-2.89003">
        <ele>6.260906</ele>
        <time>2021-06-04T14:19:33.726Z</time>
      </trkpt>
      <trkpt lat="47.54645" lon="-2.89008">
        <ele>6.225507</ele>
        <time>2021-06-04T14:19:34.445Z</time>
      </trkpt>
      <trkpt lat="47.54642" lon="-2.89025">
        <ele>6.121317</ele>
        <time>2021-06-04T14:19:36.919Z</time>
      </trkpt>
      <trkpt lat="47.54635" lon="-2.89037">
        <ele>6.021025</ele>
        <time>2021-06-04T14:19:39.038Z</time>
      </trkpt>
      <trkpt lat="47.54631" lon="-2.89042">
        <ele>5.981808</ele>
        <time>2021-06-04T14:19:39.982Z</time>
      </trkpt>
      <trkpt lat="47.54626" lon="-2.89046">
        <ele>5.939054</ele>
        <time>2021-06-04T14:19:41.015Z</time>
      </trkpt>
      <trkpt lat="47.54621" lon="-2.89054">
        <ele>5.885915</ele>
        <time>2021-06-04T14:19:42.479Z</time>
      </trkpt>
      <trkpt lat="47.54619" lon="-2.89067">
        <ele>5.819443</ele>
        <time>2021-06-04T14:19:44.219Z</time>
      </trkpt>
      <trkpt lat="47.54619" lon="-2.89086">
        <ele>5.726417</ele>
        <time>2021-06-04T14:19:46.539Z</time>
      </trkpt>
      <trkpt lat="47.54626" lon="-2.89162">
        <ele>5.336743</ele>
        <time>2021-06-04T14:19:56.452Z</time>
      </trkpt>
      <trkpt lat="47.54628" lon="-2.89211">
        <ele>5.092824</ele>
        <time>2021-06-04T14:20:02.870Z</time>
      </trkpt>
      <trkpt lat="47.54628" lon="-2.89222">
        <ele>5.037434</ele>
        <time>2021-06-04T14:20:04.437Z</time>
      </trkpt>
      <trkpt lat="47.5463" lon="-2.89223">
        <ele>5.023591</ele>
        <time>2021-06-04T14:20:04.869Z</time>
      </trkpt>
      <trkpt lat="47.54632" lon="-2.89228">
        <ele>4.994807</ele>
        <time>2021-06-04T14:20:05.648Z</time>
      </trkpt>
      <trkpt lat="47.54633" lon="-2.8923">
        <ele>4.980729</ele>
        <time>2021-06-04T14:20:06.066Z</time>
      </trkpt>
      <trkpt lat="47.54633" lon="-2.89234">
        <ele>4.965123</ele>
        <time>2021-06-04T14:20:06.466Z</time>
      </trkpt>
      <trkpt lat="47.54631" lon="-2.89239">
        <ele>4.935163</ele>
        <time>2021-06-04T14:20:07.300Z</time>
      </trkpt>
      <trkpt lat="47.54629" lon="-2.89241">
        <ele>4.919888</ele>
        <time>2021-06-04T14:20:07.713Z</time>
      </trkpt>
      <trkpt lat="47.5463" lon="-2.89253">
        <ele>4.858755</ele>
        <time>2021-06-04T14:20:09.465Z</time>
      </trkpt>
      <trkpt lat="47.54631" lon="-2.89268">
        <ele>4.780962</ele>
        <time>2021-06-04T14:20:11.722Z</time>
      </trkpt>
      <trkpt lat="47.54644" lon="-2.89479">
        <ele>4.904008</ele>
        <time>2021-06-04T14:20:45.098Z</time>
      </trkpt>
      <trkpt lat="47.54646" lon="-2.89504">
        <ele>4.934091</ele>
        <time>2021-06-04T14:20:49.131Z</time>
      </trkpt>
      <trkpt lat="47.54651" lon="-2.89587">
        <ele>5.028531</ele>
        <time>2021-06-04T14:21:01.812Z</time>
      </trkpt>
      <trkpt lat="47.54656" lon="-2.89598">
        <ele>5.042411</ele>
        <time>2021-06-04T14:21:03.876Z</time>
      </trkpt>
      <trkpt lat="47.5466" lon="-2.89602">
        <ele>5.049582</ele>
        <time>2021-06-04T14:21:05.066Z</time>
      </trkpt>
      <trkpt lat="47.54666" lon="-2.89605">
        <ele>5.058949</ele>
        <time>2021-06-04T14:21:06.499Z</time>
      </trkpt>
      <trkpt lat="47.54679" lon="-2.89603">
        <ele>5.079756</ele>
        <time>2021-06-04T14:21:09.529Z</time>
      </trkpt>
      <trkpt lat="47.54662" lon="-2.8962">
        <ele>5.111671</ele>
        <time>2021-06-04T14:21:14.430Z</time>
      </trkpt>
      <trkpt lat="47.54665" lon="-2.89627">
        <ele>5.119568</ele>
        <time>2021-06-04T14:21:15.590Z</time>
      </trkpt>
      <trkpt lat="47.54662" lon="-2.89639">
        <ele>5.132762</ele>
        <time>2021-06-04T14:21:17.564Z</time>
      </trkpt>
      <trkpt lat="47.54662" lon="-2.89648">
        <ele>5.143072</ele>
        <time>2021-06-04T14:21:19.063Z</time>
      </trkpt>
      <trkpt lat="47.54661" lon="-2.89651">
        <ele>5.145755</ele>
        <time>2021-06-04T14:21:19.368Z</time>
      </trkpt>
      <trkpt lat="47.54661" lon="-2.89664">
        <ele>5.160041</ele>
        <time>2021-06-04T14:21:21.749Z</time>
      </trkpt>
      <trkpt lat="47.54663" lon="-2.89703">
        <ele>5.20198</ele>
        <time>2021-06-04T14:21:27.920Z</time>
      </trkpt>
      <trkpt lat="47.54666" lon="-2.89744">
        <ele>5.246057</ele>
        <time>2021-06-04T14:21:34.706Z</time>
      </trkpt>
      <trkpt lat="47.54668" lon="-2.89772">
        <ele>5.27515</ele>
        <time>2021-06-04T14:21:39.046Z</time>
      </trkpt>
      <trkpt lat="47.54669" lon="-2.89788">
        <ele>5.337085</ele>
        <time>2021-06-04T14:21:41.925Z</time>
      </trkpt>
      <trkpt lat="47.5467" lon="-2.89805">
        <ele>5.406334</ele>
        <time>2021-06-04T14:21:44.572Z</time>
      </trkpt>
      <trkpt lat="47.54677" lon="-2.89912">
        <ele>5.834943</ele>
        <time>2021-06-04T14:22:02.101Z</time>
      </trkpt>
      <trkpt lat="47.54681" lon="-2.89969">
        <ele>6.065038</ele>
        <time>2021-06-04T14:22:12.556Z</time>
      </trkpt>
      <trkpt lat="47.54686" lon="-2.89979">
        <ele>6.116809</ele>
        <time>2021-06-04T14:22:14.792Z</time>
      </trkpt>
      <trkpt lat="47.54688" lon="-2.89983">
        <ele>6.138084</ele>
        <time>2021-06-04T14:22:15.867Z</time>
      </trkpt>
      <trkpt lat="47.54689" lon="-2.89989">
        <ele>6.161419</ele>
        <time>2021-06-04T14:22:17.005Z</time>
      </trkpt>
      <trkpt lat="47.54683" lon="-2.90004">
        <ele>6.23036</ele>
        <time>2021-06-04T14:22:20.197Z</time>
      </trkpt>
      <trkpt lat="47.54686" lon="-2.90045">
        <ele>6.462571</ele>
        <time>2021-06-04T14:22:27.813Z</time>
      </trkpt>
      <trkpt lat="47.54686" lon="-2.90057">
        <ele>6.564908</ele>
        <time>2021-06-04T14:22:30.020Z</time>
      </trkpt>
      <trkpt lat="47.54687" lon="-2.90069">
        <ele>6.676264</ele>
        <time>2021-06-04T14:22:32.287Z</time>
      </trkpt>
      <trkpt lat="47.54687" lon="-2.90081">
        <ele>6.783913</ele>
        <time>2021-06-04T14:22:34.364Z</time>
      </trkpt>
      <trkpt lat="47.54687" lon="-2.901">
        <ele>6.948962</ele>
        <time>2021-06-04T14:22:37.905Z</time>
      </trkpt>
      <trkpt lat="47.54686" lon="-2.90126">
        <ele>7.182245</ele>
        <time>2021-06-04T14:22:42.974Z</time>
      </trkpt>
      <trkpt lat="47.54685" lon="-2.90157">
        <ele>7.46712</ele>
        <time>2021-06-04T14:22:49.057Z</time>
      </trkpt>
      <trkpt lat="47.54684" lon="-2.9017">
        <ele>7.580338</ele>
        <time>2021-06-04T14:22:51.619Z</time>
      </trkpt>
      <trkpt lat="47.54665" lon="-2.90305">
        <ele>8.813347</ele>
        <time>2021-06-04T14:23:18.762Z</time>
      </trkpt>
      <trkpt lat="47.54666" lon="-2.90322">
        <ele>8.963124</ele>
        <time>2021-06-04T14:23:22.047Z</time>
      </trkpt>
      <trkpt lat="47.54672" lon="-2.90337">
        <ele>9.115065</ele>
        <time>2021-06-04T14:23:25.682Z</time>
      </trkpt>
      <trkpt lat="47.54673" lon="-2.90343">
        <ele>9.166963</ele>
        <time>2021-06-04T14:23:26.863Z</time>
      </trkpt>
      <trkpt lat="47.54672" lon="-2.9035">
        <ele>9.226299</ele>
        <time>2021-06-04T14:23:28.160Z</time>
      </trkpt>
      <trkpt lat="47.54659" lon="-2.9037">
        <ele>9.459758</ele>
        <time>2021-06-04T14:23:33.521Z</time>
      </trkpt>
      <trkpt lat="47.54648" lon="-2.90386">
        <ele>9.652974</ele>
        <time>2021-06-04T14:23:38.009Z</time>
      </trkpt>
      <trkpt lat="47.54635" lon="-2.90424">
        <ele>10.01474</ele>
        <time>2021-06-04T14:23:46.114Z</time>
      </trkpt>
      <trkpt lat="47.54608" lon="-2.90548">
        <ele>11.119337</ele>
        <time>2021-06-04T14:24:10.704Z</time>
      </trkpt>
      <trkpt lat="47.54608" lon="-2.90564">
        <ele>11.243728</ele>
        <time>2021-06-04T14:24:13.446Z</time>
      </trkpt>
      <trkpt lat="47.54604" lon="-2.90581">
        <ele>11.389829</ele>
        <time>2021-06-04T14:24:16.698Z</time>
      </trkpt>
      <trkpt lat="47.54596" lon="-2.90603">
        <ele>11.592365</ele>
        <time>2021-06-04T14:24:21.038Z</time>
      </trkpt>
      <trkpt lat="47.54594" lon="-2.90616">
        <ele>11.702065</ele>
        <time>2021-06-04T14:24:23.424Z</time>
      </trkpt>
      <trkpt lat="47.54589" lon="-2.90637">
        <ele>11.887411</ele>
        <time>2021-06-04T14:24:27.601Z</time>
      </trkpt>
      <trkpt lat="47.54584" lon="-2.9068">
        <ele>12.243954</ele>
        <time>2021-06-04T14:24:35.213Z</time>
      </trkpt>
      <trkpt lat="47.54584" lon="-2.90687">
        <ele>12.296434</ele>
        <time>2021-06-04T14:24:36.476Z</time>
      </trkpt>
      <trkpt lat="47.54595" lon="-2.90743">
        <ele>12.772982</ele>
        <time>2021-06-04T14:24:47.980Z</time>
      </trkpt>
      <trkpt lat="47.54607" lon="-2.90772">
        <ele>13.052631</ele>
        <time>2021-06-04T14:24:54.414Z</time>
      </trkpt>
      <trkpt lat="47.54609" lon="-2.90777">
        <ele>13.100174</ele>
        <time>2021-06-04T14:24:55.660Z</time>
      </trkpt>
      <trkpt lat="47.54621" lon="-2.9081">
        <ele>13.534257</ele>
        <time>2021-06-04T14:25:02.981Z</time>
      </trkpt>
      <trkpt lat="47.54628" lon="-2.9083">
        <ele>13.814879</ele>
        <time>2021-06-04T14:25:08.701Z</time>
      </trkpt>
      <trkpt lat="47.54629" lon="-2.90834">
        <ele>13.861755</ele>
        <time>2021-06-04T14:25:09.639Z</time>
      </trkpt>
      <trkpt lat="47.54632" lon="-2.90851">
        <ele>14.085368</ele>
        <time>2021-06-04T14:25:12.969Z</time>
      </trkpt>
      <trkpt lat="47.54638" lon="-2.9089">
        <ele>14.58361</ele>
        <time>2021-06-04T14:25:22.082Z</time>
      </trkpt>
      <trkpt lat="47.54639" lon="-2.90908">
        <ele>14.813364</ele>
        <time>2021-06-04T14:25:25.608Z</time>
      </trkpt>
      <trkpt lat="47.54637" lon="-2.90915">
        <ele>14.901705</ele>
        <time>2021-06-04T14:25:27.326Z</time>
      </trkpt>
      <trkpt lat="47.54629" lon="-2.90933">
        <ele>15.178569</ele>
        <time>2021-06-04T14:25:32.579Z</time>
      </trkpt>
      <trkpt lat="47.54623" lon="-2.91015">
        <ele>16.207554</ele>
        <time>2021-06-04T14:25:49.571Z</time>
      </trkpt>
      <trkpt lat="47.54623" lon="-2.91019">
        <ele>16.261359</ele>
        <time>2021-06-04T14:25:51.168Z</time>
      </trkpt>
      <trkpt lat="47.54623" lon="-2.91021">
        <ele>16.28762</ele>
        <time>2021-06-04T14:25:51.833Z</time>
      </trkpt>
      <trkpt lat="47.54629" lon="-2.91048">
        <ele>16.408064</ele>
        <time>2021-06-04T14:25:56.509Z</time>
      </trkpt>
      <trkpt lat="47.5463" lon="-2.91054">
        <ele>16.343044</ele>
        <time>2021-06-04T14:25:57.367Z</time>
      </trkpt>
      <trkpt lat="47.54629" lon="-2.9106">
        <ele>16.282198</ele>
        <time>2021-06-04T14:25:58.431Z</time>
      </trkpt>
      <trkpt lat="47.54628" lon="-2.91062">
        <ele>16.264139</ele>
        <time>2021-06-04T14:25:58.827Z</time>
      </trkpt>
      <trkpt lat="47.54626" lon="-2.91069">
        <ele>16.185715</ele>
        <time>2021-06-04T14:26:00.987Z</time>
      </trkpt>
      <trkpt lat="47.54626" lon="-2.91071">
        <ele>16.164989</ele>
        <time>2021-06-04T14:26:01.674Z</time>
      </trkpt>
      <trkpt lat="47.54626" lon="-2.91073">
        <ele>16.144109</ele>
        <time>2021-06-04T14:26:02.113Z</time>
      </trkpt>
      <trkpt lat="47.54633" lon="-2.91079">
        <ele>16.023618</ele>
        <time>2021-06-04T14:26:04.051Z</time>
      </trkpt>
      <trkpt lat="47.54657" lon="-2.91149">
        <ele>15.24932</ele>
        <time>2021-06-04T14:26:14.414Z</time>
      </trkpt>
      <trkpt lat="47.54662" lon="-2.91173">
        <ele>15.00667</ele>
        <time>2021-06-04T14:26:17.379Z</time>
      </trkpt>
      <trkpt lat="47.54663" lon="-2.91177">
        <ele>14.960476</ele>
        <time>2021-06-04T14:26:17.906Z</time>
      </trkpt>
      <trkpt lat="47.54666" lon="-2.91203">
        <ele>14.705607</ele>
        <time>2021-06-04T14:26:20.730Z</time>
      </trkpt>
      <trkpt lat="47.54665" lon="-2.91214">
        <ele>14.590381</ele>
        <time>2021-06-04T14:26:22.935Z</time>
      </trkpt>
      <trkpt lat="47.54662" lon="-2.91241">
        <ele>14.327984</ele>
        <time>2021-06-04T14:26:25.691Z</time>
      </trkpt>
      <trkpt lat="47.54661" lon="-2.91249">
        <ele>14.241808</ele>
        <time>2021-06-04T14:26:26.578Z</time>
      </trkpt>
      <trkpt lat="47.54651" lon="-2.9129">
        <ele>13.842343</ele>
        <time>2021-06-04T14:26:31.232Z</time>
      </trkpt>
      <trkpt lat="47.54644" lon="-2.91309">
        <ele>13.719722</ele>
        <time>2021-06-04T14:26:33.519Z</time>
      </trkpt>
      <trkpt lat="47.54627" lon="-2.91357">
        <ele>13.40128</ele>
        <time>2021-06-04T14:26:39.554Z</time>
      </trkpt>
      <trkpt lat="47.54625" lon="-2.91367">
        <ele>13.339778</ele>
        <time>2021-06-04T14:26:40.870Z</time>
      </trkpt>
      <trkpt lat="47.54624" lon="-2.9137">
        <ele>13.319056</ele>
        <time>2021-06-04T14:26:41.188Z</time>
      </trkpt>
      <trkpt lat="47.54623" lon="-2.91376">
        <ele>13.286064</ele>
        <time>2021-06-04T14:26:41.867Z</time>
      </trkpt>
      <trkpt lat="47.54622" lon="-2.91382">
        <ele>13.252433</ele>
        <time>2021-06-04T14:26:42.626Z</time>
      </trkpt>
      <trkpt lat="47.54622" lon="-2.91387">
        <ele>13.220846</ele>
        <time>2021-06-04T14:26:43.377Z</time>
      </trkpt>
      <trkpt lat="47.54623" lon="-2.91393">
        <ele>13.183049</ele>
        <time>2021-06-04T14:26:44.165Z</time>
      </trkpt>
      <trkpt lat="47.54618" lon="-2.91391">
        <ele>13.135352</ele>
        <time>2021-06-04T14:26:45.556Z</time>
      </trkpt>
      <trkpt lat="47.54611" lon="-2.91384">
        <ele>13.062736</ele>
        <time>2021-06-04T14:26:47.751Z</time>
      </trkpt>
      <trkpt lat="47.54608" lon="-2.9138">
        <ele>13.029207</ele>
        <time>2021-06-04T14:26:48.513Z</time>
      </trkpt>
      <trkpt lat="47.54606" lon="-2.91393">
        <ele>12.952323</ele>
        <time>2021-06-04T14:26:50.535Z</time>
      </trkpt>
      <trkpt lat="47.54603" lon="-2.91392">
        <ele>12.9298</ele>
        <time>2021-06-04T14:26:51.372Z</time>
      </trkpt>
      <trkpt lat="47.54598" lon="-2.91392">
        <ele>12.885718</ele>
        <time>2021-06-04T14:26:52.761Z</time>
      </trkpt>
      <trkpt lat="47.54594" lon="-2.91367">
        <ele>12.739545</ele>
        <time>2021-06-04T14:27:04.524Z</time>
      </trkpt>
      <trkpt lat="47.54598" lon="-2.91392">
        <ele>12.593371</ele>
        <time>2021-06-04T14:27:16.285Z</time>
      </trkpt>
      <trkpt lat="47.54603" lon="-2.91392">
        <ele>12.54929</ele>
        <time>2021-06-04T14:27:18.559Z</time>
      </trkpt>
      <trkpt lat="47.54606" lon="-2.91393">
        <ele>12.526766</ele>
        <time>2021-06-04T14:27:19.746Z</time>
      </trkpt>
      <trkpt lat="47.54608" lon="-2.9138">
        <ele>12.449882</ele>
        <time>2021-06-04T14:27:23.213Z</time>
      </trkpt>
      <trkpt lat="47.54604" lon="-2.91368">
        <ele>12.374189</ele>
        <time>2021-06-04T14:27:24.814Z</time>
      </trkpt>
      <trkpt lat="47.54599" lon="-2.91352">
        <ele>12.331591</ele>
        <time>2021-06-04T14:27:28.653Z</time>
      </trkpt>
      <trkpt lat="47.54595" lon="-2.91343">
        <ele>12.331591</ele>
        <time>2021-06-04T14:27:31.991Z</time>
      </trkpt>
      <trkpt lat="47.5459" lon="-2.91333">
        <ele>12.331591</ele>
        <time>2021-06-04T14:27:35.100Z</time>
      </trkpt>
      <trkpt lat="47.54584" lon="-2.91321">
        <ele>12.331591</ele>
        <time>2021-06-04T14:27:37.149Z</time>
      </trkpt>
      <trkpt lat="47.5459" lon="-2.91294">
        <ele>12.331591</ele>
        <time>2021-06-04T14:27:46.431Z</time>
      </trkpt>
      <trkpt lat="47.54601" lon="-2.91245">
        <ele>12.331591</ele>
        <time>2021-06-04T14:28:02.069Z</time>
      </trkpt>
      <trkpt lat="47.54605" lon="-2.91236">
        <ele>12.331591</ele>
        <time>2021-06-04T14:28:05.480Z</time>
      </trkpt>
      <trkpt lat="47.54615" lon="-2.91225">
        <ele>12.331591</ele>
        <time>2021-06-04T14:28:10.489Z</time>
      </trkpt>
      <trkpt lat="47.54619" lon="-2.91222">
        <ele>12.331591</ele>
        <time>2021-06-04T14:28:13.079Z</time>
      </trkpt>
      <trkpt lat="47.54622" lon="-2.9122">
        <ele>12.331591</ele>
        <time>2021-06-04T14:28:14.702Z</time>
      </trkpt>
      <trkpt lat="47.5462" lon="-2.91215">
        <ele>12.331591</ele>
        <time>2021-06-04T14:28:17.124Z</time>
      </trkpt>
      <trkpt lat="47.54622" lon="-2.91203">
        <ele>12.331591</ele>
        <time>2021-06-04T14:28:20.944Z</time>
      </trkpt>
      <trkpt lat="47.54628" lon="-2.91185">
        <ele>12.331591</ele>
        <time>2021-06-04T14:28:26.779Z</time>
      </trkpt>
      <trkpt lat="47.54644" lon="-2.9116">
        <ele>12.331591</ele>
        <time>2021-06-04T14:28:37.876Z</time>
      </trkpt>
      <trkpt lat="47.54645" lon="-2.91159">
        <ele>12.331591</ele>
        <time>2021-06-04T14:28:38.127Z</time>
      </trkpt>
    </trkseg>
  </trk>
</gpx>